<?xml version="1.0" encoding="UTF-8" standalone="no" ?>
<gpx xmlns="http://www.topografix.com/GPX/1/1" xmlns:xsi="http://www.w3.org/2001/XMLSchema-instance" xsi:schemaLocation="http://www.topografix.com/GPX/1/1 http://www.topografix.com/GPX/1/1/gpx.xsd" version="1.1" creator="VisuGPX - https://www.visugpx.com">
  <metadata>
    <name>Pas du Mai et Ravin de Laya (boucle dans les Monts du Matin)</name>
    <desc><![CDATA[Boucle dans les Monts du Matin au départ de Boulogne (Hostun) par le Col des Marchands, le Col des Cordeliers, le Pré de Cinq Sous et le Pas du Mai. Retour par l'Eau Basse et le Ravin de Laya.

Le circuit reprend en grande partie le tracé de la [url=https://www.visugpx.com/7hDjX67iTH]reconnaissance de septembre 2021[/url] où l'on trouvera des précisions sur les parties les moins fréquentées.]]></desc>
  </metadata>
  <trk>
    <name><![CDATA[2021-11-21 16:03:12]]></name>
    <trkseg>
      <trkpt lat="45.02799" lon="5.20024">
        <ele>273.15</ele>
        <time>2021-11-21T08:18:56Z</time>
      </trkpt>
      <trkpt lat="45.02788" lon="5.2003">
        <ele>273.63</ele>
        <time>2021-11-21T08:19:11Z</time>
      </trkpt>
      <trkpt lat="45.02788" lon="5.2003">
        <ele>273.63</ele>
        <time>2021-11-21T08:19:12Z</time>
      </trkpt>
      <trkpt lat="45.02783" lon="5.20036">
        <ele>273.15</ele>
        <time>2021-11-21T08:19:18Z</time>
      </trkpt>
      <trkpt lat="45.02773" lon="5.20052">
        <ele>274.59</ele>
        <time>2021-11-21T08:19:34Z</time>
      </trkpt>
      <trkpt lat="45.02764" lon="5.2007">
        <ele>275.56</ele>
        <time>2021-11-21T08:19:51Z</time>
      </trkpt>
      <trkpt lat="45.02755" lon="5.20089">
        <ele>277.48</ele>
        <time>2021-11-21T08:20:08Z</time>
      </trkpt>
      <trkpt lat="45.02743" lon="5.20112">
        <ele>278.92</ele>
        <time>2021-11-21T08:20:25Z</time>
      </trkpt>
      <trkpt lat="45.02729" lon="5.2013">
        <ele>281.8</ele>
        <time>2021-11-21T08:20:43Z</time>
      </trkpt>
      <trkpt lat="45.02715" lon="5.20137">
        <ele>284.21</ele>
        <time>2021-11-21T08:20:57Z</time>
      </trkpt>
      <trkpt lat="45.02702" lon="5.20143">
        <ele>287.09</ele>
        <time>2021-11-21T08:21:12Z</time>
      </trkpt>
      <trkpt lat="45.02687" lon="5.20148">
        <ele>289.49</ele>
        <time>2021-11-21T08:21:27Z</time>
      </trkpt>
      <trkpt lat="45.02673" lon="5.20153">
        <ele>291.42</ele>
        <time>2021-11-21T08:21:42Z</time>
      </trkpt>
      <trkpt lat="45.02659" lon="5.20159">
        <ele>293.82</ele>
        <time>2021-11-21T08:21:58Z</time>
      </trkpt>
      <trkpt lat="45.02643" lon="5.20164">
        <ele>296.22</ele>
        <time>2021-11-21T08:22:15Z</time>
      </trkpt>
      <trkpt lat="45.0263" lon="5.20171">
        <ele>298.15</ele>
        <time>2021-11-21T08:22:30Z</time>
      </trkpt>
      <trkpt lat="45.02617" lon="5.20176">
        <ele>300.55</ele>
        <time>2021-11-21T08:22:43Z</time>
      </trkpt>
      <trkpt lat="45.02602" lon="5.20185">
        <ele>303.43</ele>
        <time>2021-11-21T08:23:00Z</time>
      </trkpt>
      <trkpt lat="45.02594" lon="5.20189">
        <ele>305.36</ele>
        <time>2021-11-21T08:23:13Z</time>
      </trkpt>
      <trkpt lat="45.02584" lon="5.20201">
        <ele>308.24</ele>
        <time>2021-11-21T08:23:30Z</time>
      </trkpt>
      <trkpt lat="45.02577" lon="5.20216">
        <ele>311.12</ele>
        <time>2021-11-21T08:23:45Z</time>
      </trkpt>
      <trkpt lat="45.02567" lon="5.20233">
        <ele>313.53</ele>
        <time>2021-11-21T08:24:00Z</time>
      </trkpt>
      <trkpt lat="45.02561" lon="5.20241">
        <ele>314.97</ele>
        <time>2021-11-21T08:24:10Z</time>
      </trkpt>
      <trkpt lat="45.02551" lon="5.20245">
        <ele>316.41</ele>
        <time>2021-11-21T08:24:23Z</time>
      </trkpt>
      <trkpt lat="45.02545" lon="5.20253">
        <ele>317.85</ele>
        <time>2021-11-21T08:24:35Z</time>
      </trkpt>
      <trkpt lat="45.02539" lon="5.20257">
        <ele>319.78</ele>
        <time>2021-11-21T08:24:46Z</time>
      </trkpt>
      <trkpt lat="45.02531" lon="5.20259">
        <ele>323.14</ele>
        <time>2021-11-21T08:25:00Z</time>
      </trkpt>
      <trkpt lat="45.02522" lon="5.20263">
        <ele>326.5</ele>
        <time>2021-11-21T08:25:16Z</time>
      </trkpt>
      <trkpt lat="45.02515" lon="5.20264">
        <ele>328.91</ele>
        <time>2021-11-21T08:25:30Z</time>
      </trkpt>
      <trkpt lat="45.02511" lon="5.20271">
        <ele>331.79</ele>
        <time>2021-11-21T08:25:44Z</time>
      </trkpt>
      <trkpt lat="45.02512" lon="5.20284">
        <ele>333.71</ele>
        <time>2021-11-21T08:26:00Z</time>
      </trkpt>
      <trkpt lat="45.02518" lon="5.20293">
        <ele>337.08</ele>
        <time>2021-11-21T08:26:14Z</time>
      </trkpt>
      <trkpt lat="45.02519" lon="5.20303">
        <ele>338.52</ele>
        <time>2021-11-21T08:26:28Z</time>
      </trkpt>
      <trkpt lat="45.02507" lon="5.2031">
        <ele>339</ele>
        <time>2021-11-21T08:26:45Z</time>
      </trkpt>
      <trkpt lat="45.02498" lon="5.20309">
        <ele>339.48</ele>
        <time>2021-11-21T08:26:58Z</time>
      </trkpt>
      <trkpt lat="45.02493" lon="5.20306">
        <ele>340.44</ele>
        <time>2021-11-21T08:27:19Z</time>
      </trkpt>
      <trkpt lat="45.02486" lon="5.20308">
        <ele>343.81</ele>
        <time>2021-11-21T08:27:34Z</time>
      </trkpt>
      <trkpt lat="45.02479" lon="5.20316">
        <ele>346.69</ele>
        <time>2021-11-21T08:27:50Z</time>
      </trkpt>
      <trkpt lat="45.02472" lon="5.2032">
        <ele>349.1</ele>
        <time>2021-11-21T08:28:01Z</time>
      </trkpt>
      <trkpt lat="45.0247" lon="5.20325">
        <ele>351.02</ele>
        <time>2021-11-21T08:28:14Z</time>
      </trkpt>
      <trkpt lat="45.02465" lon="5.20334">
        <ele>353.9</ele>
        <time>2021-11-21T08:28:28Z</time>
      </trkpt>
      <trkpt lat="45.02459" lon="5.20335">
        <ele>355.34</ele>
        <time>2021-11-21T08:28:41Z</time>
      </trkpt>
      <trkpt lat="45.02455" lon="5.20339">
        <ele>358.23</ele>
        <time>2021-11-21T08:28:57Z</time>
      </trkpt>
      <trkpt lat="45.02447" lon="5.20345">
        <ele>361.11</ele>
        <time>2021-11-21T08:29:13Z</time>
      </trkpt>
      <trkpt lat="45.02442" lon="5.20349">
        <ele>363.52</ele>
        <time>2021-11-21T08:29:27Z</time>
      </trkpt>
      <trkpt lat="45.02437" lon="5.20357">
        <ele>366.4</ele>
        <time>2021-11-21T08:29:43Z</time>
      </trkpt>
      <trkpt lat="45.02434" lon="5.20364">
        <ele>368.32</ele>
        <time>2021-11-21T08:29:55Z</time>
      </trkpt>
      <trkpt lat="45.02431" lon="5.20366">
        <ele>369.76</ele>
        <time>2021-11-21T08:30:14Z</time>
      </trkpt>
      <trkpt lat="45.02426" lon="5.20373">
        <ele>373.13</ele>
        <time>2021-11-21T08:30:31Z</time>
      </trkpt>
      <trkpt lat="45.02422" lon="5.20378">
        <ele>375.05</ele>
        <time>2021-11-21T08:30:46Z</time>
      </trkpt>
      <trkpt lat="45.02415" lon="5.20386">
        <ele>378.42</ele>
        <time>2021-11-21T08:31:01Z</time>
      </trkpt>
      <trkpt lat="45.0241" lon="5.20392">
        <ele>381.3</ele>
        <time>2021-11-21T08:31:16Z</time>
      </trkpt>
      <trkpt lat="45.02403" lon="5.20398">
        <ele>383.7</ele>
        <time>2021-11-21T08:31:31Z</time>
      </trkpt>
      <trkpt lat="45.02398" lon="5.20405">
        <ele>386.59</ele>
        <time>2021-11-21T08:31:46Z</time>
      </trkpt>
      <trkpt lat="45.02399" lon="5.20412">
        <ele>388.51</ele>
        <time>2021-11-21T08:32:00Z</time>
      </trkpt>
      <trkpt lat="45.02396" lon="5.20416">
        <ele>391.39</ele>
        <time>2021-11-21T08:32:17Z</time>
      </trkpt>
      <trkpt lat="45.02393" lon="5.20419">
        <ele>393.8</ele>
        <time>2021-11-21T08:32:29Z</time>
      </trkpt>
      <trkpt lat="45.02387" lon="5.20424">
        <ele>397.16</ele>
        <time>2021-11-21T08:32:46Z</time>
      </trkpt>
      <trkpt lat="45.02381" lon="5.20427">
        <ele>399.57</ele>
        <time>2021-11-21T08:33:01Z</time>
      </trkpt>
      <trkpt lat="45.02375" lon="5.20429">
        <ele>402.45</ele>
        <time>2021-11-21T08:33:18Z</time>
      </trkpt>
      <trkpt lat="45.02366" lon="5.20431">
        <ele>404.85</ele>
        <time>2021-11-21T08:33:34Z</time>
      </trkpt>
      <trkpt lat="45.02357" lon="5.20431">
        <ele>408.22</ele>
        <time>2021-11-21T08:33:52Z</time>
      </trkpt>
      <trkpt lat="45.0235" lon="5.20433">
        <ele>410.62</ele>
        <time>2021-11-21T08:34:08Z</time>
      </trkpt>
      <trkpt lat="45.02341" lon="5.20436">
        <ele>413.5</ele>
        <time>2021-11-21T08:34:25Z</time>
      </trkpt>
      <trkpt lat="45.02335" lon="5.20439">
        <ele>415.91</ele>
        <time>2021-11-21T08:34:41Z</time>
      </trkpt>
      <trkpt lat="45.02328" lon="5.2044">
        <ele>418.79</ele>
        <time>2021-11-21T08:34:55Z</time>
      </trkpt>
      <trkpt lat="45.02323" lon="5.20443">
        <ele>421.68</ele>
        <time>2021-11-21T08:35:09Z</time>
      </trkpt>
      <trkpt lat="45.02316" lon="5.20439">
        <ele>424.08</ele>
        <time>2021-11-21T08:35:26Z</time>
      </trkpt>
      <trkpt lat="45.02311" lon="5.20437">
        <ele>426</ele>
        <time>2021-11-21T08:35:44Z</time>
      </trkpt>
      <trkpt lat="45.023" lon="5.20432">
        <ele>427.92</ele>
        <time>2021-11-21T08:40:23Z</time>
      </trkpt>
      <trkpt lat="45.02295" lon="5.20426">
        <ele>429.85</ele>
        <time>2021-11-21T08:40:35Z</time>
      </trkpt>
      <trkpt lat="45.02289" lon="5.20427">
        <ele>432.73</ele>
        <time>2021-11-21T08:40:49Z</time>
      </trkpt>
      <trkpt lat="45.02285" lon="5.20429">
        <ele>435.13</ele>
        <time>2021-11-21T08:41:06Z</time>
      </trkpt>
      <trkpt lat="45.02279" lon="5.20433">
        <ele>437.54</ele>
        <time>2021-11-21T08:41:22Z</time>
      </trkpt>
      <trkpt lat="45.02273" lon="5.20438">
        <ele>440.42</ele>
        <time>2021-11-21T08:41:37Z</time>
      </trkpt>
      <trkpt lat="45.02269" lon="5.20439">
        <ele>442.34</ele>
        <time>2021-11-21T08:41:50Z</time>
      </trkpt>
      <trkpt lat="45.02264" lon="5.20446">
        <ele>444.75</ele>
        <time>2021-11-21T08:42:06Z</time>
      </trkpt>
      <trkpt lat="45.02258" lon="5.20447">
        <ele>448.11</ele>
        <time>2021-11-21T08:42:22Z</time>
      </trkpt>
      <trkpt lat="45.02253" lon="5.20451">
        <ele>450.03</ele>
        <time>2021-11-21T08:42:36Z</time>
      </trkpt>
      <trkpt lat="45.02248" lon="5.20454">
        <ele>452.44</ele>
        <time>2021-11-21T08:42:50Z</time>
      </trkpt>
      <trkpt lat="45.02246" lon="5.2045">
        <ele>455.8</ele>
        <time>2021-11-21T08:43:07Z</time>
      </trkpt>
      <trkpt lat="45.02242" lon="5.20451">
        <ele>457.24</ele>
        <time>2021-11-21T08:43:20Z</time>
      </trkpt>
      <trkpt lat="45.02242" lon="5.20453">
        <ele>457.72</ele>
        <time>2021-11-21T08:43:47Z</time>
      </trkpt>
      <trkpt lat="45.02241" lon="5.20455">
        <ele>460.61</ele>
        <time>2021-11-21T08:44:02Z</time>
      </trkpt>
      <trkpt lat="45.02238" lon="5.20459">
        <ele>462.53</ele>
        <time>2021-11-21T08:44:13Z</time>
      </trkpt>
      <trkpt lat="45.02231" lon="5.20465">
        <ele>464.45</ele>
        <time>2021-11-21T08:44:26Z</time>
      </trkpt>
      <trkpt lat="45.02221" lon="5.2047">
        <ele>466.86</ele>
        <time>2021-11-21T08:44:42Z</time>
      </trkpt>
      <trkpt lat="45.02212" lon="5.20478">
        <ele>468.78</ele>
        <time>2021-11-21T08:44:57Z</time>
      </trkpt>
      <trkpt lat="45.02204" lon="5.20483">
        <ele>470.22</ele>
        <time>2021-11-21T08:45:11Z</time>
      </trkpt>
      <trkpt lat="45.02192" lon="5.20492">
        <ele>472.63</ele>
        <time>2021-11-21T08:45:28Z</time>
      </trkpt>
      <trkpt lat="45.02183" lon="5.20497">
        <ele>475.51</ele>
        <time>2021-11-21T08:45:47Z</time>
      </trkpt>
      <trkpt lat="45.02174" lon="5.20503">
        <ele>478.39</ele>
        <time>2021-11-21T08:46:03Z</time>
      </trkpt>
      <trkpt lat="45.02168" lon="5.20511">
        <ele>479.84</ele>
        <time>2021-11-21T08:46:17Z</time>
      </trkpt>
      <trkpt lat="45.02161" lon="5.20521">
        <ele>482.24</ele>
        <time>2021-11-21T08:46:32Z</time>
      </trkpt>
      <trkpt lat="45.02156" lon="5.2053">
        <ele>485.12</ele>
        <time>2021-11-21T08:46:47Z</time>
      </trkpt>
      <trkpt lat="45.02149" lon="5.20538">
        <ele>487.53</ele>
        <time>2021-11-21T08:47:03Z</time>
      </trkpt>
      <trkpt lat="45.02146" lon="5.20545">
        <ele>490.89</ele>
        <time>2021-11-21T08:47:18Z</time>
      </trkpt>
      <trkpt lat="45.02141" lon="5.2055">
        <ele>493.29</ele>
        <time>2021-11-21T08:47:33Z</time>
      </trkpt>
      <trkpt lat="45.0213" lon="5.20561">
        <ele>496.18</ele>
        <time>2021-11-21T08:47:50Z</time>
      </trkpt>
      <trkpt lat="45.02125" lon="5.20567">
        <ele>499.06</ele>
        <time>2021-11-21T08:48:05Z</time>
      </trkpt>
      <trkpt lat="45.02117" lon="5.20572">
        <ele>501.95</ele>
        <time>2021-11-21T08:48:24Z</time>
      </trkpt>
      <trkpt lat="45.0211" lon="5.20577">
        <ele>504.35</ele>
        <time>2021-11-21T08:48:40Z</time>
      </trkpt>
      <trkpt lat="45.02103" lon="5.20579">
        <ele>506.75</ele>
        <time>2021-11-21T08:48:54Z</time>
      </trkpt>
      <trkpt lat="45.02098" lon="5.20581">
        <ele>509.64</ele>
        <time>2021-11-21T08:49:11Z</time>
      </trkpt>
      <trkpt lat="45.02087" lon="5.20582">
        <ele>512.04</ele>
        <time>2021-11-21T08:49:26Z</time>
      </trkpt>
      <trkpt lat="45.0208" lon="5.20581">
        <ele>514.92</ele>
        <time>2021-11-21T08:49:43Z</time>
      </trkpt>
      <trkpt lat="45.02074" lon="5.20579">
        <ele>517.81</ele>
        <time>2021-11-21T08:49:58Z</time>
      </trkpt>
      <trkpt lat="45.02068" lon="5.20579">
        <ele>520.21</ele>
        <time>2021-11-21T08:50:13Z</time>
      </trkpt>
      <trkpt lat="45.02061" lon="5.20576">
        <ele>523.09</ele>
        <time>2021-11-21T08:50:29Z</time>
      </trkpt>
      <trkpt lat="45.02054" lon="5.20578">
        <ele>525.5</ele>
        <time>2021-11-21T08:50:45Z</time>
      </trkpt>
      <trkpt lat="45.02047" lon="5.20578">
        <ele>527.9</ele>
        <time>2021-11-21T08:51:03Z</time>
      </trkpt>
      <trkpt lat="45.02039" lon="5.20575">
        <ele>530.79</ele>
        <time>2021-11-21T08:51:21Z</time>
      </trkpt>
      <trkpt lat="45.02032" lon="5.20571">
        <ele>532.71</ele>
        <time>2021-11-21T08:51:35Z</time>
      </trkpt>
      <trkpt lat="45.02024" lon="5.20566">
        <ele>535.11</ele>
        <time>2021-11-21T08:51:51Z</time>
      </trkpt>
      <trkpt lat="45.02017" lon="5.20563">
        <ele>537.03</ele>
        <time>2021-11-21T08:52:06Z</time>
      </trkpt>
      <trkpt lat="45.02011" lon="5.2056">
        <ele>538.96</ele>
        <time>2021-11-21T08:52:19Z</time>
      </trkpt>
      <trkpt lat="45.02004" lon="5.2056">
        <ele>541.84</ele>
        <time>2021-11-21T08:52:36Z</time>
      </trkpt>
      <trkpt lat="45.01996" lon="5.2056">
        <ele>543.76</ele>
        <time>2021-11-21T08:52:50Z</time>
      </trkpt>
      <trkpt lat="45.01988" lon="5.20561">
        <ele>546.65</ele>
        <time>2021-11-21T08:53:06Z</time>
      </trkpt>
      <trkpt lat="45.0198" lon="5.2056">
        <ele>549.05</ele>
        <time>2021-11-21T08:53:22Z</time>
      </trkpt>
      <trkpt lat="45.0197" lon="5.20557">
        <ele>552.41</ele>
        <time>2021-11-21T08:53:39Z</time>
      </trkpt>
      <trkpt lat="45.01961" lon="5.20557">
        <ele>554.34</ele>
        <time>2021-11-21T08:53:55Z</time>
      </trkpt>
      <trkpt lat="45.01952" lon="5.20553">
        <ele>557.22</ele>
        <time>2021-11-21T08:54:10Z</time>
      </trkpt>
      <trkpt lat="45.01946" lon="5.20551">
        <ele>559.14</ele>
        <time>2021-11-21T08:54:25Z</time>
      </trkpt>
      <trkpt lat="45.01941" lon="5.20549">
        <ele>560.59</ele>
        <time>2021-11-21T08:54:42Z</time>
      </trkpt>
      <trkpt lat="45.01937" lon="5.20547">
        <ele>561.55</ele>
        <time>2021-11-21T08:56:52Z</time>
      </trkpt>
      <trkpt lat="45.01925" lon="5.20538">
        <ele>564.43</ele>
        <time>2021-11-21T08:57:07Z</time>
      </trkpt>
      <trkpt lat="45.01917" lon="5.20535">
        <ele>566.35</ele>
        <time>2021-11-21T08:57:23Z</time>
      </trkpt>
      <trkpt lat="45.01908" lon="5.20531">
        <ele>569.24</ele>
        <time>2021-11-21T08:57:41Z</time>
      </trkpt>
      <trkpt lat="45.01897" lon="5.20526">
        <ele>571.64</ele>
        <time>2021-11-21T08:57:57Z</time>
      </trkpt>
      <trkpt lat="45.01889" lon="5.20522">
        <ele>574.04</ele>
        <time>2021-11-21T08:58:13Z</time>
      </trkpt>
      <trkpt lat="45.01879" lon="5.20521">
        <ele>576.45</ele>
        <time>2021-11-21T08:58:30Z</time>
      </trkpt>
      <trkpt lat="45.01872" lon="5.20523">
        <ele>578.85</ele>
        <time>2021-11-21T08:58:45Z</time>
      </trkpt>
      <trkpt lat="45.01865" lon="5.20525">
        <ele>581.25</ele>
        <time>2021-11-21T08:59:02Z</time>
      </trkpt>
      <trkpt lat="45.01853" lon="5.20529">
        <ele>581.73</ele>
        <time>2021-11-21T08:59:24Z</time>
      </trkpt>
      <trkpt lat="45.0185" lon="5.20532">
        <ele>584.14</ele>
        <time>2021-11-21T08:59:41Z</time>
      </trkpt>
      <trkpt lat="45.01846" lon="5.20531">
        <ele>586.06</ele>
        <time>2021-11-21T08:59:54Z</time>
      </trkpt>
      <trkpt lat="45.0184" lon="5.20537">
        <ele>588.46</ele>
        <time>2021-11-21T09:00:10Z</time>
      </trkpt>
      <trkpt lat="45.01833" lon="5.20538">
        <ele>591.35</ele>
        <time>2021-11-21T09:00:26Z</time>
      </trkpt>
      <trkpt lat="45.01827" lon="5.20543">
        <ele>594.23</ele>
        <time>2021-11-21T09:00:42Z</time>
      </trkpt>
      <trkpt lat="45.0182" lon="5.20547">
        <ele>597.12</ele>
        <time>2021-11-21T09:00:58Z</time>
      </trkpt>
      <trkpt lat="45.01808" lon="5.20549">
        <ele>599.04</ele>
        <time>2021-11-21T09:01:12Z</time>
      </trkpt>
      <trkpt lat="45.01803" lon="5.20547">
        <ele>601.92</ele>
        <time>2021-11-21T09:01:30Z</time>
      </trkpt>
      <trkpt lat="45.01799" lon="5.2055">
        <ele>604.33</ele>
        <time>2021-11-21T09:01:46Z</time>
      </trkpt>
      <trkpt lat="45.01792" lon="5.20553">
        <ele>607.21</ele>
        <time>2021-11-21T09:02:03Z</time>
      </trkpt>
      <trkpt lat="45.01786" lon="5.20554">
        <ele>609.61</ele>
        <time>2021-11-21T09:02:19Z</time>
      </trkpt>
      <trkpt lat="45.01781" lon="5.20557">
        <ele>611.54</ele>
        <time>2021-11-21T09:02:35Z</time>
      </trkpt>
      <trkpt lat="45.01777" lon="5.2056">
        <ele>613.94</ele>
        <time>2021-11-21T09:02:52Z</time>
      </trkpt>
      <trkpt lat="45.01777" lon="5.20562">
        <ele>614.42</ele>
        <time>2021-11-21T09:03:11Z</time>
      </trkpt>
      <trkpt lat="45.01781" lon="5.20565">
        <ele>614.42</ele>
        <time>2021-11-21T09:03:34Z</time>
      </trkpt>
      <trkpt lat="45.01779" lon="5.20566">
        <ele>614.42</ele>
        <time>2021-11-21T09:03:56Z</time>
      </trkpt>
      <trkpt lat="45.01775" lon="5.20567">
        <ele>615.38</ele>
        <time>2021-11-21T09:04:20Z</time>
      </trkpt>
      <trkpt lat="45.01768" lon="5.20568">
        <ele>618.26</ele>
        <time>2021-11-21T09:04:34Z</time>
      </trkpt>
      <trkpt lat="45.01761" lon="5.20574">
        <ele>621.15</ele>
        <time>2021-11-21T09:04:50Z</time>
      </trkpt>
      <trkpt lat="45.01755" lon="5.2058">
        <ele>624.03</ele>
        <time>2021-11-21T09:05:07Z</time>
      </trkpt>
      <trkpt lat="45.0175" lon="5.20582">
        <ele>625.96</ele>
        <time>2021-11-21T09:05:21Z</time>
      </trkpt>
      <trkpt lat="45.01741" lon="5.20584">
        <ele>629.8</ele>
        <time>2021-11-21T09:05:38Z</time>
      </trkpt>
      <trkpt lat="45.01737" lon="5.20586">
        <ele>632.2</ele>
        <time>2021-11-21T09:05:52Z</time>
      </trkpt>
      <trkpt lat="45.01731" lon="5.20586">
        <ele>634.61</ele>
        <time>2021-11-21T09:06:08Z</time>
      </trkpt>
      <trkpt lat="45.01726" lon="5.20589">
        <ele>637.49</ele>
        <time>2021-11-21T09:06:25Z</time>
      </trkpt>
      <trkpt lat="45.01718" lon="5.20589">
        <ele>640.38</ele>
        <time>2021-11-21T09:06:41Z</time>
      </trkpt>
      <trkpt lat="45.01714" lon="5.20591">
        <ele>642.3</ele>
        <time>2021-11-21T09:06:53Z</time>
      </trkpt>
      <trkpt lat="45.01709" lon="5.20596">
        <ele>644.7</ele>
        <time>2021-11-21T09:07:10Z</time>
      </trkpt>
      <trkpt lat="45.01707" lon="5.20591">
        <ele>646.62</ele>
        <time>2021-11-21T09:07:21Z</time>
      </trkpt>
      <trkpt lat="45.01703" lon="5.20594">
        <ele>647.1</ele>
        <time>2021-11-21T09:07:37Z</time>
      </trkpt>
      <trkpt lat="45.01701" lon="5.20597">
        <ele>649.51</ele>
        <time>2021-11-21T09:07:50Z</time>
      </trkpt>
      <trkpt lat="45.01699" lon="5.20598">
        <ele>652.39</ele>
        <time>2021-11-21T09:08:06Z</time>
      </trkpt>
      <trkpt lat="45.01693" lon="5.20599">
        <ele>655.28</ele>
        <time>2021-11-21T09:08:22Z</time>
      </trkpt>
      <trkpt lat="45.01684" lon="5.20601">
        <ele>657.68</ele>
        <time>2021-11-21T09:08:38Z</time>
      </trkpt>
      <trkpt lat="45.01679" lon="5.20604">
        <ele>660.56</ele>
        <time>2021-11-21T09:08:54Z</time>
      </trkpt>
      <trkpt lat="45.01675" lon="5.20605">
        <ele>663.45</ele>
        <time>2021-11-21T09:09:10Z</time>
      </trkpt>
      <trkpt lat="45.0167" lon="5.20609">
        <ele>666.33</ele>
        <time>2021-11-21T09:09:25Z</time>
      </trkpt>
      <trkpt lat="45.01666" lon="5.20614">
        <ele>668.25</ele>
        <time>2021-11-21T09:09:41Z</time>
      </trkpt>
      <trkpt lat="45.01658" lon="5.20613">
        <ele>670.66</ele>
        <time>2021-11-21T09:09:55Z</time>
      </trkpt>
      <trkpt lat="45.01654" lon="5.20612">
        <ele>673.54</ele>
        <time>2021-11-21T09:10:11Z</time>
      </trkpt>
      <trkpt lat="45.01647" lon="5.20615">
        <ele>675.46</ele>
        <time>2021-11-21T09:10:27Z</time>
      </trkpt>
      <trkpt lat="45.01642" lon="5.20616">
        <ele>677.87</ele>
        <time>2021-11-21T09:10:39Z</time>
      </trkpt>
      <trkpt lat="45.01639" lon="5.20616">
        <ele>680.27</ele>
        <time>2021-11-21T09:10:53Z</time>
      </trkpt>
      <trkpt lat="45.01637" lon="5.20621">
        <ele>680.27</ele>
        <time>2021-11-21T09:11:11Z</time>
      </trkpt>
      <trkpt lat="45.01636" lon="5.20627">
        <ele>680.27</ele>
        <time>2021-11-21T09:11:49Z</time>
      </trkpt>
      <trkpt lat="45.01621" lon="5.20645">
        <ele>687</ele>
        <time>2021-11-21T09:14:36Z</time>
      </trkpt>
      <trkpt lat="45.01613" lon="5.20658">
        <ele>690.36</ele>
        <time>2021-11-21T09:14:57Z</time>
      </trkpt>
      <trkpt lat="45.01606" lon="5.20669">
        <ele>692.29</ele>
        <time>2021-11-21T09:15:12Z</time>
      </trkpt>
      <trkpt lat="45.01602" lon="5.20678">
        <ele>695.17</ele>
        <time>2021-11-21T09:15:31Z</time>
      </trkpt>
      <trkpt lat="45.01598" lon="5.20687">
        <ele>698.53</ele>
        <time>2021-11-21T09:15:50Z</time>
      </trkpt>
      <trkpt lat="45.01591" lon="5.20696">
        <ele>700.46</ele>
        <time>2021-11-21T09:16:08Z</time>
      </trkpt>
      <trkpt lat="45.01587" lon="5.20705">
        <ele>703.82</ele>
        <time>2021-11-21T09:16:28Z</time>
      </trkpt>
      <trkpt lat="45.0158" lon="5.20717">
        <ele>706.71</ele>
        <time>2021-11-21T09:16:47Z</time>
      </trkpt>
      <trkpt lat="45.01576" lon="5.20727">
        <ele>709.59</ele>
        <time>2021-11-21T09:17:06Z</time>
      </trkpt>
      <trkpt lat="45.01571" lon="5.20737">
        <ele>711.51</ele>
        <time>2021-11-21T09:17:23Z</time>
      </trkpt>
      <trkpt lat="45.01567" lon="5.20747">
        <ele>714.88</ele>
        <time>2021-11-21T09:17:43Z</time>
      </trkpt>
      <trkpt lat="45.01564" lon="5.20757">
        <ele>717.28</ele>
        <time>2021-11-21T09:17:58Z</time>
      </trkpt>
      <trkpt lat="45.01562" lon="5.20768">
        <ele>719.68</ele>
        <time>2021-11-21T09:18:15Z</time>
      </trkpt>
      <trkpt lat="45.01558" lon="5.20779">
        <ele>722.57</ele>
        <time>2021-11-21T09:18:30Z</time>
      </trkpt>
      <trkpt lat="45.01557" lon="5.20787">
        <ele>725.93</ele>
        <time>2021-11-21T09:18:47Z</time>
      </trkpt>
      <trkpt lat="45.01555" lon="5.20801">
        <ele>728.34</ele>
        <time>2021-11-21T09:19:05Z</time>
      </trkpt>
      <trkpt lat="45.01553" lon="5.20813">
        <ele>731.7</ele>
        <time>2021-11-21T09:19:23Z</time>
      </trkpt>
      <trkpt lat="45.01549" lon="5.20825">
        <ele>734.58</ele>
        <time>2021-11-21T09:19:43Z</time>
      </trkpt>
      <trkpt lat="45.01546" lon="5.20835">
        <ele>737.95</ele>
        <time>2021-11-21T09:20:00Z</time>
      </trkpt>
      <trkpt lat="45.01544" lon="5.20849">
        <ele>740.83</ele>
        <time>2021-11-21T09:20:20Z</time>
      </trkpt>
      <trkpt lat="45.01547" lon="5.20861">
        <ele>743.24</ele>
        <time>2021-11-21T09:20:38Z</time>
      </trkpt>
      <trkpt lat="45.01548" lon="5.20876">
        <ele>746.12</ele>
        <time>2021-11-21T09:20:54Z</time>
      </trkpt>
      <trkpt lat="45.0155" lon="5.20887">
        <ele>748.52</ele>
        <time>2021-11-21T09:21:11Z</time>
      </trkpt>
      <trkpt lat="45.01552" lon="5.20896">
        <ele>750.45</ele>
        <time>2021-11-21T09:21:24Z</time>
      </trkpt>
      <trkpt lat="45.01554" lon="5.20906">
        <ele>752.85</ele>
        <time>2021-11-21T09:21:40Z</time>
      </trkpt>
      <trkpt lat="45.01558" lon="5.20916">
        <ele>754.77</ele>
        <time>2021-11-21T09:21:57Z</time>
      </trkpt>
      <trkpt lat="45.01564" lon="5.20928">
        <ele>758.14</ele>
        <time>2021-11-21T09:22:16Z</time>
      </trkpt>
      <trkpt lat="45.01565" lon="5.20934">
        <ele>760.54</ele>
        <time>2021-11-21T09:22:33Z</time>
      </trkpt>
      <trkpt lat="45.01567" lon="5.20942">
        <ele>761.5</ele>
        <time>2021-11-21T09:22:49Z</time>
      </trkpt>
      <trkpt lat="45.01571" lon="5.20952">
        <ele>764.39</ele>
        <time>2021-11-21T09:23:06Z</time>
      </trkpt>
      <trkpt lat="45.01577" lon="5.20961">
        <ele>767.27</ele>
        <time>2021-11-21T09:23:23Z</time>
      </trkpt>
      <trkpt lat="45.01583" lon="5.20971">
        <ele>769.67</ele>
        <time>2021-11-21T09:23:37Z</time>
      </trkpt>
      <trkpt lat="45.01589" lon="5.20981">
        <ele>771.6</ele>
        <time>2021-11-21T09:23:53Z</time>
      </trkpt>
      <trkpt lat="45.01594" lon="5.20988">
        <ele>774.48</ele>
        <time>2021-11-21T09:24:10Z</time>
      </trkpt>
      <trkpt lat="45.01599" lon="5.21">
        <ele>776.88</ele>
        <time>2021-11-21T09:24:28Z</time>
      </trkpt>
      <trkpt lat="45.01603" lon="5.21011">
        <ele>779.29</ele>
        <time>2021-11-21T09:24:45Z</time>
      </trkpt>
      <trkpt lat="45.01611" lon="5.21023">
        <ele>781.21</ele>
        <time>2021-11-21T09:25:00Z</time>
      </trkpt>
      <trkpt lat="45.01612" lon="5.21032">
        <ele>784.09</ele>
        <time>2021-11-21T09:25:17Z</time>
      </trkpt>
      <trkpt lat="45.01616" lon="5.21041">
        <ele>786.5</ele>
        <time>2021-11-21T09:25:32Z</time>
      </trkpt>
      <trkpt lat="45.01619" lon="5.21051">
        <ele>788.9</ele>
        <time>2021-11-21T09:25:49Z</time>
      </trkpt>
      <trkpt lat="45.0162" lon="5.21063">
        <ele>791.3</ele>
        <time>2021-11-21T09:26:04Z</time>
      </trkpt>
      <trkpt lat="45.01623" lon="5.21074">
        <ele>794.19</ele>
        <time>2021-11-21T09:26:23Z</time>
      </trkpt>
      <trkpt lat="45.01625" lon="5.21086">
        <ele>796.59</ele>
        <time>2021-11-21T09:26:39Z</time>
      </trkpt>
      <trkpt lat="45.01624" lon="5.21097">
        <ele>798.51</ele>
        <time>2021-11-21T09:26:53Z</time>
      </trkpt>
      <trkpt lat="45.01626" lon="5.2111">
        <ele>800.92</ele>
        <time>2021-11-21T09:27:10Z</time>
      </trkpt>
      <trkpt lat="45.01627" lon="5.21119">
        <ele>803.32</ele>
        <time>2021-11-21T09:27:26Z</time>
      </trkpt>
      <trkpt lat="45.0163" lon="5.2113">
        <ele>806.68</ele>
        <time>2021-11-21T09:27:45Z</time>
      </trkpt>
      <trkpt lat="45.0163" lon="5.21142">
        <ele>809.09</ele>
        <time>2021-11-21T09:28:02Z</time>
      </trkpt>
      <trkpt lat="45.01631" lon="5.21153">
        <ele>811.97</ele>
        <time>2021-11-21T09:28:19Z</time>
      </trkpt>
      <trkpt lat="45.01635" lon="5.21169">
        <ele>813.41</ele>
        <time>2021-11-21T09:28:34Z</time>
      </trkpt>
      <trkpt lat="45.01635" lon="5.21185">
        <ele>815.82</ele>
        <time>2021-11-21T09:28:53Z</time>
      </trkpt>
      <trkpt lat="45.01636" lon="5.21199">
        <ele>818.22</ele>
        <time>2021-11-21T09:29:08Z</time>
      </trkpt>
      <trkpt lat="45.01638" lon="5.21214">
        <ele>821.1</ele>
        <time>2021-11-21T09:29:27Z</time>
      </trkpt>
      <trkpt lat="45.01642" lon="5.21224">
        <ele>823.99</ele>
        <time>2021-11-21T09:29:44Z</time>
      </trkpt>
      <trkpt lat="45.01646" lon="5.21234">
        <ele>826.87</ele>
        <time>2021-11-21T09:30:02Z</time>
      </trkpt>
      <trkpt lat="45.01645" lon="5.21243">
        <ele>828.79</ele>
        <time>2021-11-21T09:30:16Z</time>
      </trkpt>
      <trkpt lat="45.01647" lon="5.21254">
        <ele>831.68</ele>
        <time>2021-11-21T09:30:33Z</time>
      </trkpt>
      <trkpt lat="45.01655" lon="5.21262">
        <ele>833.6</ele>
        <time>2021-11-21T09:30:54Z</time>
      </trkpt>
      <trkpt lat="45.01655" lon="5.21273">
        <ele>836.48</ele>
        <time>2021-11-21T09:31:13Z</time>
      </trkpt>
      <trkpt lat="45.01656" lon="5.21284">
        <ele>839.37</ele>
        <time>2021-11-21T09:31:29Z</time>
      </trkpt>
      <trkpt lat="45.0166" lon="5.21295">
        <ele>841.29</ele>
        <time>2021-11-21T09:31:42Z</time>
      </trkpt>
      <trkpt lat="45.01667" lon="5.21307">
        <ele>843.21</ele>
        <time>2021-11-21T09:31:56Z</time>
      </trkpt>
      <trkpt lat="45.01675" lon="5.21317">
        <ele>846.1</ele>
        <time>2021-11-21T09:32:12Z</time>
      </trkpt>
      <trkpt lat="45.01675" lon="5.2133">
        <ele>848.5</ele>
        <time>2021-11-21T09:32:28Z</time>
      </trkpt>
      <trkpt lat="45.01676" lon="5.21343">
        <ele>850.9</ele>
        <time>2021-11-21T09:32:46Z</time>
      </trkpt>
      <trkpt lat="45.01678" lon="5.21356">
        <ele>852.83</ele>
        <time>2021-11-21T09:32:59Z</time>
      </trkpt>
      <trkpt lat="45.01684" lon="5.21374">
        <ele>855.23</ele>
        <time>2021-11-21T09:33:18Z</time>
      </trkpt>
      <trkpt lat="45.01685" lon="5.21387">
        <ele>858.11</ele>
        <time>2021-11-21T09:33:37Z</time>
      </trkpt>
      <trkpt lat="45.0169" lon="5.21406">
        <ele>860.04</ele>
        <time>2021-11-21T09:33:56Z</time>
      </trkpt>
      <trkpt lat="45.01684" lon="5.21417">
        <ele>862.92</ele>
        <time>2021-11-21T09:34:13Z</time>
      </trkpt>
      <trkpt lat="45.01676" lon="5.21422">
        <ele>864.84</ele>
        <time>2021-11-21T09:34:29Z</time>
      </trkpt>
      <trkpt lat="45.01675" lon="5.21435">
        <ele>867.25</ele>
        <time>2021-11-21T09:34:48Z</time>
      </trkpt>
      <trkpt lat="45.01665" lon="5.21449">
        <ele>869.65</ele>
        <time>2021-11-21T09:35:10Z</time>
      </trkpt>
      <trkpt lat="45.01661" lon="5.2146">
        <ele>872.53</ele>
        <time>2021-11-21T09:35:26Z</time>
      </trkpt>
      <trkpt lat="45.01656" lon="5.21465">
        <ele>874.94</ele>
        <time>2021-11-21T09:35:38Z</time>
      </trkpt>
      <trkpt lat="45.01651" lon="5.21471">
        <ele>876.86</ele>
        <time>2021-11-21T09:35:53Z</time>
      </trkpt>
      <trkpt lat="45.01644" lon="5.21487">
        <ele>878.78</ele>
        <time>2021-11-21T09:36:10Z</time>
      </trkpt>
      <trkpt lat="45.01641" lon="5.21492">
        <ele>881.19</ele>
        <time>2021-11-21T09:36:25Z</time>
      </trkpt>
      <trkpt lat="45.01632" lon="5.21495">
        <ele>884.07</ele>
        <time>2021-11-21T09:36:41Z</time>
      </trkpt>
      <trkpt lat="45.01626" lon="5.21498">
        <ele>886.47</ele>
        <time>2021-11-21T09:36:56Z</time>
      </trkpt>
      <trkpt lat="45.01622" lon="5.21498">
        <ele>889.36</ele>
        <time>2021-11-21T09:37:14Z</time>
      </trkpt>
      <trkpt lat="45.01615" lon="5.21498">
        <ele>891.76</ele>
        <time>2021-11-21T09:37:29Z</time>
      </trkpt>
      <trkpt lat="45.01609" lon="5.21501">
        <ele>894.64</ele>
        <time>2021-11-21T09:37:45Z</time>
      </trkpt>
      <trkpt lat="45.01606" lon="5.2151">
        <ele>897.53</ele>
        <time>2021-11-21T09:38:02Z</time>
      </trkpt>
      <trkpt lat="45.01604" lon="5.21519">
        <ele>899.93</ele>
        <time>2021-11-21T09:38:18Z</time>
      </trkpt>
      <trkpt lat="45.016" lon="5.2152">
        <ele>902.33</ele>
        <time>2021-11-21T09:38:34Z</time>
      </trkpt>
      <trkpt lat="45.01597" lon="5.21526">
        <ele>905.22</ele>
        <time>2021-11-21T09:38:50Z</time>
      </trkpt>
      <trkpt lat="45.01591" lon="5.21528">
        <ele>908.1</ele>
        <time>2021-11-21T09:39:03Z</time>
      </trkpt>
      <trkpt lat="45.01586" lon="5.21532">
        <ele>910.51</ele>
        <time>2021-11-21T09:39:17Z</time>
      </trkpt>
      <trkpt lat="45.01583" lon="5.21543">
        <ele>913.39</ele>
        <time>2021-11-21T09:39:35Z</time>
      </trkpt>
      <trkpt lat="45.01579" lon="5.21556">
        <ele>916.27</ele>
        <time>2021-11-21T09:39:53Z</time>
      </trkpt>
      <trkpt lat="45.01574" lon="5.21568">
        <ele>919.64</ele>
        <time>2021-11-21T09:40:11Z</time>
      </trkpt>
      <trkpt lat="45.01568" lon="5.21578">
        <ele>921.56</ele>
        <time>2021-11-21T09:40:28Z</time>
      </trkpt>
      <trkpt lat="45.01565" lon="5.21593">
        <ele>923</ele>
        <time>2021-11-21T09:40:43Z</time>
      </trkpt>
      <trkpt lat="45.01561" lon="5.21604">
        <ele>924.93</ele>
        <time>2021-11-21T09:40:57Z</time>
      </trkpt>
      <trkpt lat="45.01556" lon="5.21614">
        <ele>927.81</ele>
        <time>2021-11-21T09:41:15Z</time>
      </trkpt>
      <trkpt lat="45.01545" lon="5.21624">
        <ele>930.21</ele>
        <time>2021-11-21T09:41:30Z</time>
      </trkpt>
      <trkpt lat="45.01534" lon="5.2164">
        <ele>930.21</ele>
        <time>2021-11-21T09:46:50Z</time>
      </trkpt>
      <trkpt lat="45.01517" lon="5.21645">
        <ele>928.77</ele>
        <time>2021-11-21T09:47:06Z</time>
      </trkpt>
      <trkpt lat="45.01506" lon="5.21646">
        <ele>930.21</ele>
        <time>2021-11-21T09:47:16Z</time>
      </trkpt>
      <trkpt lat="45.01494" lon="5.21656">
        <ele>926.85</ele>
        <time>2021-11-21T09:47:32Z</time>
      </trkpt>
      <trkpt lat="45.01479" lon="5.21662">
        <ele>924.93</ele>
        <time>2021-11-21T09:47:49Z</time>
      </trkpt>
      <trkpt lat="45.01463" lon="5.21664">
        <ele>922.04</ele>
        <time>2021-11-21T09:48:06Z</time>
      </trkpt>
      <trkpt lat="45.01454" lon="5.21652">
        <ele>922.04</ele>
        <time>2021-11-21T09:48:22Z</time>
      </trkpt>
      <trkpt lat="45.01445" lon="5.21636">
        <ele>924.93</ele>
        <time>2021-11-21T09:48:40Z</time>
      </trkpt>
      <trkpt lat="45.01435" lon="5.21623">
        <ele>926.85</ele>
        <time>2021-11-21T09:48:55Z</time>
      </trkpt>
      <trkpt lat="45.01425" lon="5.21613">
        <ele>928.77</ele>
        <time>2021-11-21T09:49:10Z</time>
      </trkpt>
      <trkpt lat="45.01416" lon="5.21605">
        <ele>930.21</ele>
        <time>2021-11-21T09:49:24Z</time>
      </trkpt>
      <trkpt lat="45.01404" lon="5.21598">
        <ele>931.17</ele>
        <time>2021-11-21T09:49:39Z</time>
      </trkpt>
      <trkpt lat="45.01393" lon="5.21589">
        <ele>932.14</ele>
        <time>2021-11-21T09:49:54Z</time>
      </trkpt>
      <trkpt lat="45.01379" lon="5.21582">
        <ele>932.62</ele>
        <time>2021-11-21T09:50:07Z</time>
      </trkpt>
      <trkpt lat="45.01359" lon="5.21575">
        <ele>932.62</ele>
        <time>2021-11-21T09:50:23Z</time>
      </trkpt>
      <trkpt lat="45.01341" lon="5.21561">
        <ele>932.62</ele>
        <time>2021-11-21T09:50:41Z</time>
      </trkpt>
      <trkpt lat="45.01327" lon="5.21547">
        <ele>934.06</ele>
        <time>2021-11-21T09:50:57Z</time>
      </trkpt>
      <trkpt lat="45.01316" lon="5.21535">
        <ele>935.5</ele>
        <time>2021-11-21T09:51:12Z</time>
      </trkpt>
      <trkpt lat="45.01303" lon="5.21521">
        <ele>936.46</ele>
        <time>2021-11-21T09:51:27Z</time>
      </trkpt>
      <trkpt lat="45.01291" lon="5.2151">
        <ele>937.9</ele>
        <time>2021-11-21T09:51:43Z</time>
      </trkpt>
      <trkpt lat="45.0128" lon="5.21498">
        <ele>939.35</ele>
        <time>2021-11-21T09:51:57Z</time>
      </trkpt>
      <trkpt lat="45.01268" lon="5.21488">
        <ele>940.79</ele>
        <time>2021-11-21T09:52:11Z</time>
      </trkpt>
      <trkpt lat="45.01252" lon="5.21474">
        <ele>941.75</ele>
        <time>2021-11-21T09:52:28Z</time>
      </trkpt>
      <trkpt lat="45.0124" lon="5.21464">
        <ele>942.23</ele>
        <time>2021-11-21T09:52:41Z</time>
      </trkpt>
      <trkpt lat="45.01231" lon="5.21452">
        <ele>943.67</ele>
        <time>2021-11-21T09:52:56Z</time>
      </trkpt>
      <trkpt lat="45.01221" lon="5.2144">
        <ele>945.59</ele>
        <time>2021-11-21T09:53:11Z</time>
      </trkpt>
      <trkpt lat="45.01211" lon="5.21431">
        <ele>946.56</ele>
        <time>2021-11-21T09:53:23Z</time>
      </trkpt>
      <trkpt lat="45.01197" lon="5.2142">
        <ele>947.52</ele>
        <time>2021-11-21T09:53:38Z</time>
      </trkpt>
      <trkpt lat="45.01184" lon="5.21411">
        <ele>948.48</ele>
        <time>2021-11-21T09:53:51Z</time>
      </trkpt>
      <trkpt lat="45.01174" lon="5.21401">
        <ele>949.44</ele>
        <time>2021-11-21T09:54:04Z</time>
      </trkpt>
      <trkpt lat="45.01161" lon="5.2139">
        <ele>949.44</ele>
        <time>2021-11-21T09:54:20Z</time>
      </trkpt>
      <trkpt lat="45.01147" lon="5.21379">
        <ele>949.92</ele>
        <time>2021-11-21T09:54:35Z</time>
      </trkpt>
      <trkpt lat="45.01146" lon="5.21378">
        <ele>950.4</ele>
        <time>2021-11-21T09:54:36Z</time>
      </trkpt>
      <trkpt lat="45.01144" lon="5.21377">
        <ele>950.4</ele>
        <time>2021-11-21T09:54:38Z</time>
      </trkpt>
      <trkpt lat="45.01127" lon="5.21367">
        <ele>950.4</ele>
        <time>2021-11-21T09:54:54Z</time>
      </trkpt>
      <trkpt lat="45.01115" lon="5.21354">
        <ele>951.84</ele>
        <time>2021-11-21T09:55:08Z</time>
      </trkpt>
      <trkpt lat="45.01102" lon="5.2134">
        <ele>952.8</ele>
        <time>2021-11-21T09:55:24Z</time>
      </trkpt>
      <trkpt lat="45.01093" lon="5.21328">
        <ele>955.21</ele>
        <time>2021-11-21T09:55:38Z</time>
      </trkpt>
      <trkpt lat="45.01083" lon="5.21316">
        <ele>956.17</ele>
        <time>2021-11-21T09:55:53Z</time>
      </trkpt>
      <trkpt lat="45.0107" lon="5.21302">
        <ele>957.61</ele>
        <time>2021-11-21T09:56:09Z</time>
      </trkpt>
      <trkpt lat="45.01052" lon="5.21286">
        <ele>958.09</ele>
        <time>2021-11-21T09:56:27Z</time>
      </trkpt>
      <trkpt lat="45.01038" lon="5.21273">
        <ele>958.57</ele>
        <time>2021-11-21T09:56:41Z</time>
      </trkpt>
      <trkpt lat="45.01026" lon="5.21261">
        <ele>958.57</ele>
        <time>2021-11-21T09:56:55Z</time>
      </trkpt>
      <trkpt lat="45.01012" lon="5.21247">
        <ele>959.53</ele>
        <time>2021-11-21T09:57:12Z</time>
      </trkpt>
      <trkpt lat="45.00996" lon="5.21234">
        <ele>959.53</ele>
        <time>2021-11-21T09:57:29Z</time>
      </trkpt>
      <trkpt lat="45.00983" lon="5.2122">
        <ele>960.98</ele>
        <time>2021-11-21T09:57:45Z</time>
      </trkpt>
      <trkpt lat="45.00967" lon="5.21205">
        <ele>961.94</ele>
        <time>2021-11-21T09:58:03Z</time>
      </trkpt>
      <trkpt lat="45.00948" lon="5.21192">
        <ele>962.9</ele>
        <time>2021-11-21T09:58:21Z</time>
      </trkpt>
      <trkpt lat="45.00925" lon="5.21179">
        <ele>962.42</ele>
        <time>2021-11-21T09:58:41Z</time>
      </trkpt>
      <trkpt lat="45.00918" lon="5.21178">
        <ele>960.98</ele>
        <time>2021-11-21T09:58:48Z</time>
      </trkpt>
      <trkpt lat="45.00907" lon="5.21193">
        <ele>959.53</ele>
        <time>2021-11-21T09:59:04Z</time>
      </trkpt>
      <trkpt lat="45.00901" lon="5.21206">
        <ele>958.09</ele>
        <time>2021-11-21T09:59:15Z</time>
      </trkpt>
      <trkpt lat="45.00891" lon="5.21223">
        <ele>957.61</ele>
        <time>2021-11-21T09:59:30Z</time>
      </trkpt>
      <trkpt lat="45.0089" lon="5.21224">
        <ele>957.61</ele>
        <time>2021-11-21T09:59:31Z</time>
      </trkpt>
      <trkpt lat="45.00883" lon="5.21253">
        <ele>957.61</ele>
        <time>2021-11-21T09:59:51Z</time>
      </trkpt>
      <trkpt lat="45.00878" lon="5.21274">
        <ele>959.53</ele>
        <time>2021-11-21T10:00:06Z</time>
      </trkpt>
      <trkpt lat="45.00872" lon="5.21287">
        <ele>960.49</ele>
        <time>2021-11-21T10:00:17Z</time>
      </trkpt>
      <trkpt lat="45.0087" lon="5.21289">
        <ele>960.49</ele>
        <time>2021-11-21T10:00:20Z</time>
      </trkpt>
      <trkpt lat="45.00863" lon="5.21313">
        <ele>961.46</ele>
        <time>2021-11-21T10:00:38Z</time>
      </trkpt>
      <trkpt lat="45.00862" lon="5.2133">
        <ele>962.42</ele>
        <time>2021-11-21T10:00:52Z</time>
      </trkpt>
      <trkpt lat="45.00857" lon="5.2135">
        <ele>964.34</ele>
        <time>2021-11-21T10:01:07Z</time>
      </trkpt>
      <trkpt lat="45.00854" lon="5.21367">
        <ele>967.7</ele>
        <time>2021-11-21T10:01:24Z</time>
      </trkpt>
      <trkpt lat="45.00852" lon="5.2138">
        <ele>971.07</ele>
        <time>2021-11-21T10:01:41Z</time>
      </trkpt>
      <trkpt lat="45.00847" lon="5.21389">
        <ele>973.95</ele>
        <time>2021-11-21T10:01:58Z</time>
      </trkpt>
      <trkpt lat="45.00846" lon="5.21393">
        <ele>977.32</ele>
        <time>2021-11-21T10:02:13Z</time>
      </trkpt>
      <trkpt lat="45.00844" lon="5.21402">
        <ele>979.72</ele>
        <time>2021-11-21T10:02:32Z</time>
      </trkpt>
      <trkpt lat="45.00842" lon="5.21413">
        <ele>982.6</ele>
        <time>2021-11-21T10:02:50Z</time>
      </trkpt>
      <trkpt lat="45.0084" lon="5.21425">
        <ele>985.97</ele>
        <time>2021-11-21T10:03:06Z</time>
      </trkpt>
      <trkpt lat="45.00832" lon="5.2143">
        <ele>989.33</ele>
        <time>2021-11-21T10:03:23Z</time>
      </trkpt>
      <trkpt lat="45.00827" lon="5.21433">
        <ele>991.74</ele>
        <time>2021-11-21T10:03:39Z</time>
      </trkpt>
      <trkpt lat="45.00825" lon="5.21442">
        <ele>994.62</ele>
        <time>2021-11-21T10:03:54Z</time>
      </trkpt>
      <trkpt lat="45.00824" lon="5.21446">
        <ele>997.51</ele>
        <time>2021-11-21T10:04:11Z</time>
      </trkpt>
      <trkpt lat="45.00823" lon="5.21453">
        <ele>999.91</ele>
        <time>2021-11-21T10:04:29Z</time>
      </trkpt>
      <trkpt lat="45.00823" lon="5.21461">
        <ele>1002.31</ele>
        <time>2021-11-21T10:04:44Z</time>
      </trkpt>
      <trkpt lat="45.00824" lon="5.21471">
        <ele>1005.2</ele>
        <time>2021-11-21T10:05:02Z</time>
      </trkpt>
      <trkpt lat="45.00821" lon="5.21477">
        <ele>1007.6</ele>
        <time>2021-11-21T10:05:22Z</time>
      </trkpt>
      <trkpt lat="45.00819" lon="5.21486">
        <ele>1009.04</ele>
        <time>2021-11-21T10:05:40Z</time>
      </trkpt>
      <trkpt lat="45.00816" lon="5.21498">
        <ele>1010</ele>
        <time>2021-11-21T10:05:57Z</time>
      </trkpt>
      <trkpt lat="45.0081" lon="5.21516">
        <ele>1009.04</ele>
        <time>2021-11-21T10:06:15Z</time>
      </trkpt>
      <trkpt lat="45.0081" lon="5.21517">
        <ele>1009.04</ele>
        <time>2021-11-21T10:06:16Z</time>
      </trkpt>
      <trkpt lat="45.00802" lon="5.21535">
        <ele>1006.64</ele>
        <time>2021-11-21T10:06:34Z</time>
      </trkpt>
      <trkpt lat="45.00792" lon="5.21552">
        <ele>1003.75</ele>
        <time>2021-11-21T10:06:53Z</time>
      </trkpt>
      <trkpt lat="45.00786" lon="5.21563">
        <ele>1000.39</ele>
        <time>2021-11-21T10:07:07Z</time>
      </trkpt>
      <trkpt lat="45.00781" lon="5.21573">
        <ele>997.51</ele>
        <time>2021-11-21T10:07:19Z</time>
      </trkpt>
      <trkpt lat="45.00774" lon="5.21584">
        <ele>994.62</ele>
        <time>2021-11-21T10:07:35Z</time>
      </trkpt>
      <trkpt lat="45.0077" lon="5.21591">
        <ele>991.74</ele>
        <time>2021-11-21T10:07:49Z</time>
      </trkpt>
      <trkpt lat="45.00764" lon="5.21601">
        <ele>988.85</ele>
        <time>2021-11-21T10:08:05Z</time>
      </trkpt>
      <trkpt lat="45.00759" lon="5.21613">
        <ele>986.93</ele>
        <time>2021-11-21T10:08:20Z</time>
      </trkpt>
      <trkpt lat="45.0075" lon="5.21615">
        <ele>985.49</ele>
        <time>2021-11-21T10:08:35Z</time>
      </trkpt>
      <trkpt lat="45.0074" lon="5.21609">
        <ele>987.41</ele>
        <time>2021-11-21T10:08:53Z</time>
      </trkpt>
      <trkpt lat="45.00731" lon="5.21598">
        <ele>987.89</ele>
        <time>2021-11-21T10:09:07Z</time>
      </trkpt>
      <trkpt lat="45.00723" lon="5.21591">
        <ele>988.37</ele>
        <time>2021-11-21T10:09:23Z</time>
      </trkpt>
      <trkpt lat="45.00718" lon="5.2159">
        <ele>988.85</ele>
        <time>2021-11-21T10:09:37Z</time>
      </trkpt>
      <trkpt lat="45.00721" lon="5.21592">
        <ele>988.37</ele>
        <time>2021-11-21T10:10:07Z</time>
      </trkpt>
      <trkpt lat="45.0071" lon="5.21578">
        <ele>989.81</ele>
        <time>2021-11-21T10:10:19Z</time>
      </trkpt>
      <trkpt lat="45.00696" lon="5.21566">
        <ele>990.3</ele>
        <time>2021-11-21T10:10:33Z</time>
      </trkpt>
      <trkpt lat="45.00676" lon="5.21576">
        <ele>989.81</ele>
        <time>2021-11-21T10:10:51Z</time>
      </trkpt>
      <trkpt lat="45.00662" lon="5.21589">
        <ele>990.78</ele>
        <time>2021-11-21T10:11:07Z</time>
      </trkpt>
      <trkpt lat="45.00652" lon="5.21597">
        <ele>993.18</ele>
        <time>2021-11-21T10:11:21Z</time>
      </trkpt>
      <trkpt lat="45.0065" lon="5.21604">
        <ele>996.54</ele>
        <time>2021-11-21T10:11:34Z</time>
      </trkpt>
      <trkpt lat="45.00644" lon="5.21624">
        <ele>998.95</ele>
        <time>2021-11-21T10:11:49Z</time>
      </trkpt>
      <trkpt lat="45.00641" lon="5.21643">
        <ele>1000.87</ele>
        <time>2021-11-21T10:12:05Z</time>
      </trkpt>
      <trkpt lat="45.00639" lon="5.21659">
        <ele>1002.79</ele>
        <time>2021-11-21T10:12:20Z</time>
      </trkpt>
      <trkpt lat="45.00638" lon="5.21672">
        <ele>1004.72</ele>
        <time>2021-11-21T10:12:35Z</time>
      </trkpt>
      <trkpt lat="45.0064" lon="5.21688">
        <ele>1007.6</ele>
        <time>2021-11-21T10:12:52Z</time>
      </trkpt>
      <trkpt lat="45.00633" lon="5.21696">
        <ele>1010.96</ele>
        <time>2021-11-21T10:13:05Z</time>
      </trkpt>
      <trkpt lat="45.00624" lon="5.21694">
        <ele>1012.41</ele>
        <time>2021-11-21T10:13:20Z</time>
      </trkpt>
      <trkpt lat="45.00613" lon="5.21686">
        <ele>1014.33</ele>
        <time>2021-11-21T10:13:36Z</time>
      </trkpt>
      <trkpt lat="45.00606" lon="5.21682">
        <ele>1016.25</ele>
        <time>2021-11-21T10:13:52Z</time>
      </trkpt>
      <trkpt lat="45.00597" lon="5.21677">
        <ele>1018.17</ele>
        <time>2021-11-21T10:14:08Z</time>
      </trkpt>
      <trkpt lat="45.00586" lon="5.21668">
        <ele>1020.58</ele>
        <time>2021-11-21T10:14:24Z</time>
      </trkpt>
      <trkpt lat="45.00579" lon="5.21663">
        <ele>1022.98</ele>
        <time>2021-11-21T10:14:38Z</time>
      </trkpt>
      <trkpt lat="45.00571" lon="5.21663">
        <ele>1024.42</ele>
        <time>2021-11-21T10:14:53Z</time>
      </trkpt>
      <trkpt lat="45.00559" lon="5.21668">
        <ele>1027.31</ele>
        <time>2021-11-21T10:15:11Z</time>
      </trkpt>
      <trkpt lat="45.00549" lon="5.2167">
        <ele>1030.19</ele>
        <time>2021-11-21T10:15:27Z</time>
      </trkpt>
      <trkpt lat="45.00538" lon="5.21674">
        <ele>1032.59</ele>
        <time>2021-11-21T10:15:45Z</time>
      </trkpt>
      <trkpt lat="45.00532" lon="5.21676">
        <ele>1035</ele>
        <time>2021-11-21T10:16:00Z</time>
      </trkpt>
      <trkpt lat="45.00523" lon="5.21678">
        <ele>1037.88</ele>
        <time>2021-11-21T10:16:18Z</time>
      </trkpt>
      <trkpt lat="45.00517" lon="5.21683">
        <ele>1040.28</ele>
        <time>2021-11-21T10:16:34Z</time>
      </trkpt>
      <trkpt lat="45.00509" lon="5.21682">
        <ele>1042.69</ele>
        <time>2021-11-21T10:16:50Z</time>
      </trkpt>
      <trkpt lat="45.00503" lon="5.21683">
        <ele>1045.57</ele>
        <time>2021-11-21T10:17:08Z</time>
      </trkpt>
      <trkpt lat="45.00496" lon="5.21683">
        <ele>1047.97</ele>
        <time>2021-11-21T10:17:24Z</time>
      </trkpt>
      <trkpt lat="45.00488" lon="5.21685">
        <ele>1051.34</ele>
        <time>2021-11-21T10:17:39Z</time>
      </trkpt>
      <trkpt lat="45.00479" lon="5.21693">
        <ele>1053.74</ele>
        <time>2021-11-21T10:17:55Z</time>
      </trkpt>
      <trkpt lat="45.00473" lon="5.217">
        <ele>1056.63</ele>
        <time>2021-11-21T10:18:12Z</time>
      </trkpt>
      <trkpt lat="45.00465" lon="5.21706">
        <ele>1059.51</ele>
        <time>2021-11-21T10:18:29Z</time>
      </trkpt>
      <trkpt lat="45.00455" lon="5.21703">
        <ele>1061.43</ele>
        <time>2021-11-21T10:18:42Z</time>
      </trkpt>
      <trkpt lat="45.00446" lon="5.21704">
        <ele>1063.84</ele>
        <time>2021-11-21T10:18:57Z</time>
      </trkpt>
      <trkpt lat="45.0044" lon="5.21705">
        <ele>1066.24</ele>
        <time>2021-11-21T10:19:12Z</time>
      </trkpt>
      <trkpt lat="45.00428" lon="5.21709">
        <ele>1067.68</ele>
        <time>2021-11-21T10:19:26Z</time>
      </trkpt>
      <trkpt lat="45.00417" lon="5.21714">
        <ele>1069.12</ele>
        <time>2021-11-21T10:19:40Z</time>
      </trkpt>
      <trkpt lat="45.00407" lon="5.21714">
        <ele>1071.05</ele>
        <time>2021-11-21T10:19:53Z</time>
      </trkpt>
      <trkpt lat="45.00399" lon="5.21716">
        <ele>1074.41</ele>
        <time>2021-11-21T10:20:09Z</time>
      </trkpt>
      <trkpt lat="45.0039" lon="5.21721">
        <ele>1076.33</ele>
        <time>2021-11-21T10:20:24Z</time>
      </trkpt>
      <trkpt lat="45.0038" lon="5.21725">
        <ele>1078.26</ele>
        <time>2021-11-21T10:20:39Z</time>
      </trkpt>
      <trkpt lat="45.00371" lon="5.21731">
        <ele>1079.7</ele>
        <time>2021-11-21T10:20:53Z</time>
      </trkpt>
      <trkpt lat="45.00363" lon="5.21738">
        <ele>1082.1</ele>
        <time>2021-11-21T10:21:09Z</time>
      </trkpt>
      <trkpt lat="45.00355" lon="5.21743">
        <ele>1084.5</ele>
        <time>2021-11-21T10:21:23Z</time>
      </trkpt>
      <trkpt lat="45.00349" lon="5.21748">
        <ele>1086.91</ele>
        <time>2021-11-21T10:21:40Z</time>
      </trkpt>
      <trkpt lat="45.00337" lon="5.21754">
        <ele>1090.27</ele>
        <time>2021-11-21T10:21:56Z</time>
      </trkpt>
      <trkpt lat="45.00328" lon="5.21755">
        <ele>1092.68</ele>
        <time>2021-11-21T10:22:12Z</time>
      </trkpt>
      <trkpt lat="45.00321" lon="5.21763">
        <ele>1094.6</ele>
        <time>2021-11-21T10:22:30Z</time>
      </trkpt>
      <trkpt lat="45.00312" lon="5.21768">
        <ele>1097.96</ele>
        <time>2021-11-21T10:22:46Z</time>
      </trkpt>
      <trkpt lat="45.00309" lon="5.21768">
        <ele>1100.37</ele>
        <time>2021-11-21T10:23:00Z</time>
      </trkpt>
      <trkpt lat="45.00298" lon="5.21777">
        <ele>1103.25</ele>
        <time>2021-11-21T10:23:20Z</time>
      </trkpt>
      <trkpt lat="45.00288" lon="5.21781">
        <ele>1105.65</ele>
        <time>2021-11-21T10:23:36Z</time>
      </trkpt>
      <trkpt lat="45.0028" lon="5.21786">
        <ele>1108.06</ele>
        <time>2021-11-21T10:23:51Z</time>
      </trkpt>
      <trkpt lat="45.00273" lon="5.21793">
        <ele>1109.98</ele>
        <time>2021-11-21T10:24:06Z</time>
      </trkpt>
      <trkpt lat="45.00263" lon="5.21798">
        <ele>1113.34</ele>
        <time>2021-11-21T10:24:23Z</time>
      </trkpt>
      <trkpt lat="45.00252" lon="5.21801">
        <ele>1116.23</ele>
        <time>2021-11-21T10:24:39Z</time>
      </trkpt>
      <trkpt lat="45.00242" lon="5.21808">
        <ele>1118.15</ele>
        <time>2021-11-21T10:24:55Z</time>
      </trkpt>
      <trkpt lat="45.00233" lon="5.21813">
        <ele>1119.59</ele>
        <time>2021-11-21T10:25:09Z</time>
      </trkpt>
      <trkpt lat="45.00222" lon="5.21821">
        <ele>1122.48</ele>
        <time>2021-11-21T10:25:28Z</time>
      </trkpt>
      <trkpt lat="45.00203" lon="5.2183">
        <ele>1123.92</ele>
        <time>2021-11-21T10:25:50Z</time>
      </trkpt>
      <trkpt lat="45.00193" lon="5.21836">
        <ele>1125.36</ele>
        <time>2021-11-21T10:26:06Z</time>
      </trkpt>
      <trkpt lat="45.00179" lon="5.21843">
        <ele>1127.28</ele>
        <time>2021-11-21T10:26:20Z</time>
      </trkpt>
      <trkpt lat="45.00168" lon="5.2185">
        <ele>1129.21</ele>
        <time>2021-11-21T10:26:35Z</time>
      </trkpt>
      <trkpt lat="45.00156" lon="5.21856">
        <ele>1131.13</ele>
        <time>2021-11-21T10:26:50Z</time>
      </trkpt>
      <trkpt lat="45.00161" lon="5.21879">
        <ele>1132.09</ele>
        <time>2021-11-21T10:27:07Z</time>
      </trkpt>
      <trkpt lat="45.00159" lon="5.21895">
        <ele>1132.09</ele>
        <time>2021-11-21T10:27:23Z</time>
      </trkpt>
      <trkpt lat="45.0016" lon="5.21904">
        <ele>1132.09</ele>
        <time>2021-11-21T10:33:43Z</time>
      </trkpt>
      <trkpt lat="45.00163" lon="5.21912">
        <ele>1132.09</ele>
        <time>2021-11-21T10:33:59Z</time>
      </trkpt>
      <trkpt lat="45.00172" lon="5.21928">
        <ele>1130.65</ele>
        <time>2021-11-21T10:34:15Z</time>
      </trkpt>
      <trkpt lat="45.00178" lon="5.21946">
        <ele>1130.17</ele>
        <time>2021-11-21T10:34:31Z</time>
      </trkpt>
      <trkpt lat="45.00184" lon="5.21965">
        <ele>1129.21</ele>
        <time>2021-11-21T10:34:46Z</time>
      </trkpt>
      <trkpt lat="45.00186" lon="5.21988">
        <ele>1128.24</ele>
        <time>2021-11-21T10:35:01Z</time>
      </trkpt>
      <trkpt lat="45.00188" lon="5.21997">
        <ele>1128.24</ele>
        <time>2021-11-21T10:35:17Z</time>
      </trkpt>
      <trkpt lat="45.00187" lon="5.22007">
        <ele>1127.76</ele>
        <time>2021-11-21T10:35:41Z</time>
      </trkpt>
      <trkpt lat="45.00192" lon="5.22025">
        <ele>1127.28</ele>
        <time>2021-11-21T10:36:02Z</time>
      </trkpt>
      <trkpt lat="45.00191" lon="5.22047">
        <ele>1127.28</ele>
        <time>2021-11-21T10:36:20Z</time>
      </trkpt>
      <trkpt lat="45.00187" lon="5.22051">
        <ele>1128.73</ele>
        <time>2021-11-21T10:36:27Z</time>
      </trkpt>
      <trkpt lat="45.00177" lon="5.22065">
        <ele>1129.69</ele>
        <time>2021-11-21T10:36:46Z</time>
      </trkpt>
      <trkpt lat="45.00171" lon="5.22078">
        <ele>1130.17</ele>
        <time>2021-11-21T10:36:59Z</time>
      </trkpt>
      <trkpt lat="45.00162" lon="5.22084">
        <ele>1131.13</ele>
        <time>2021-11-21T10:37:23Z</time>
      </trkpt>
      <trkpt lat="45.00155" lon="5.22095">
        <ele>1132.57</ele>
        <time>2021-11-21T10:37:36Z</time>
      </trkpt>
      <trkpt lat="45.00153" lon="5.22112">
        <ele>1132.57</ele>
        <time>2021-11-21T10:37:50Z</time>
      </trkpt>
      <trkpt lat="45.00148" lon="5.22133">
        <ele>1133.53</ele>
        <time>2021-11-21T10:38:04Z</time>
      </trkpt>
      <trkpt lat="45.00146" lon="5.22156">
        <ele>1134.01</ele>
        <time>2021-11-21T10:38:21Z</time>
      </trkpt>
      <trkpt lat="45.00152" lon="5.22162">
        <ele>1134.01</ele>
        <time>2021-11-21T10:38:29Z</time>
      </trkpt>
      <trkpt lat="45.00167" lon="5.22176">
        <ele>1132.09</ele>
        <time>2021-11-21T10:38:46Z</time>
      </trkpt>
      <trkpt lat="45.00183" lon="5.22192">
        <ele>1130.65</ele>
        <time>2021-11-21T10:39:04Z</time>
      </trkpt>
      <trkpt lat="45.00198" lon="5.22206">
        <ele>1128.24</ele>
        <time>2021-11-21T10:39:20Z</time>
      </trkpt>
      <trkpt lat="45.00203" lon="5.22213">
        <ele>1128.24</ele>
        <time>2021-11-21T10:39:26Z</time>
      </trkpt>
      <trkpt lat="45.00214" lon="5.22228">
        <ele>1127.28</ele>
        <time>2021-11-21T10:39:41Z</time>
      </trkpt>
      <trkpt lat="45.00222" lon="5.22244">
        <ele>1125.36</ele>
        <time>2021-11-21T10:39:54Z</time>
      </trkpt>
      <trkpt lat="45.00228" lon="5.22261">
        <ele>1124.4</ele>
        <time>2021-11-21T10:40:08Z</time>
      </trkpt>
      <trkpt lat="45.00229" lon="5.22262">
        <ele>1124.4</ele>
        <time>2021-11-21T10:40:09Z</time>
      </trkpt>
      <trkpt lat="45.0023" lon="5.22268">
        <ele>1123.92</ele>
        <time>2021-11-21T10:40:13Z</time>
      </trkpt>
      <trkpt lat="45.00234" lon="5.22281">
        <ele>1122.48</ele>
        <time>2021-11-21T10:40:22Z</time>
      </trkpt>
      <trkpt lat="45.00236" lon="5.22287">
        <ele>1122</ele>
        <time>2021-11-21T10:40:35Z</time>
      </trkpt>
      <trkpt lat="45.00237" lon="5.22287">
        <ele>1122</ele>
        <time>2021-11-21T10:40:52Z</time>
      </trkpt>
      <trkpt lat="45.0024" lon="5.22289">
        <ele>1121.52</ele>
        <time>2021-11-21T10:40:57Z</time>
      </trkpt>
      <trkpt lat="45.00249" lon="5.22297">
        <ele>1119.11</ele>
        <time>2021-11-21T10:41:09Z</time>
      </trkpt>
      <trkpt lat="45.00255" lon="5.22297">
        <ele>1117.67</ele>
        <time>2021-11-21T10:41:15Z</time>
      </trkpt>
      <trkpt lat="45.00261" lon="5.22294">
        <ele>1116.23</ele>
        <time>2021-11-21T10:41:21Z</time>
      </trkpt>
      <trkpt lat="45.00268" lon="5.22296">
        <ele>1113.82</ele>
        <time>2021-11-21T10:41:35Z</time>
      </trkpt>
      <trkpt lat="45.00274" lon="5.22301">
        <ele>1112.86</ele>
        <time>2021-11-21T10:41:50Z</time>
      </trkpt>
      <trkpt lat="45.00281" lon="5.22311">
        <ele>1109.5</ele>
        <time>2021-11-21T10:42:02Z</time>
      </trkpt>
      <trkpt lat="45.0029" lon="5.22322">
        <ele>1106.61</ele>
        <time>2021-11-21T10:42:14Z</time>
      </trkpt>
      <trkpt lat="45.003" lon="5.22329">
        <ele>1103.73</ele>
        <time>2021-11-21T10:42:25Z</time>
      </trkpt>
      <trkpt lat="45.00311" lon="5.2234">
        <ele>1100.37</ele>
        <time>2021-11-21T10:42:39Z</time>
      </trkpt>
      <trkpt lat="45.00319" lon="5.22353">
        <ele>1096.52</ele>
        <time>2021-11-21T10:42:52Z</time>
      </trkpt>
      <trkpt lat="45.0033" lon="5.22364">
        <ele>1093.64</ele>
        <time>2021-11-21T10:43:05Z</time>
      </trkpt>
      <trkpt lat="45.00337" lon="5.22377">
        <ele>1090.27</ele>
        <time>2021-11-21T10:43:16Z</time>
      </trkpt>
      <trkpt lat="45.00343" lon="5.22392">
        <ele>1087.39</ele>
        <time>2021-11-21T10:43:30Z</time>
      </trkpt>
      <trkpt lat="45.0034" lon="5.22399">
        <ele>1085.47</ele>
        <time>2021-11-21T10:43:38Z</time>
      </trkpt>
      <trkpt lat="45.00332" lon="5.22407">
        <ele>1083.54</ele>
        <time>2021-11-21T10:43:48Z</time>
      </trkpt>
      <trkpt lat="45.00327" lon="5.22412">
        <ele>1082.58</ele>
        <time>2021-11-21T10:43:56Z</time>
      </trkpt>
      <trkpt lat="45.00324" lon="5.2242">
        <ele>1080.66</ele>
        <time>2021-11-21T10:44:09Z</time>
      </trkpt>
      <trkpt lat="45.00324" lon="5.22446">
        <ele>1076.81</ele>
        <time>2021-11-21T10:46:45Z</time>
      </trkpt>
      <trkpt lat="45.00325" lon="5.22462">
        <ele>1076.33</ele>
        <time>2021-11-21T10:47:00Z</time>
      </trkpt>
      <trkpt lat="45.00327" lon="5.22476">
        <ele>1076.33</ele>
        <time>2021-11-21T10:47:14Z</time>
      </trkpt>
      <trkpt lat="45.00329" lon="5.22489">
        <ele>1077.78</ele>
        <time>2021-11-21T10:47:26Z</time>
      </trkpt>
      <trkpt lat="45.00331" lon="5.2251">
        <ele>1077.78</ele>
        <time>2021-11-21T10:47:42Z</time>
      </trkpt>
      <trkpt lat="45.00339" lon="5.22527">
        <ele>1077.78</ele>
        <time>2021-11-21T10:47:56Z</time>
      </trkpt>
      <trkpt lat="45.00341" lon="5.22551">
        <ele>1077.78</ele>
        <time>2021-11-21T10:48:12Z</time>
      </trkpt>
      <trkpt lat="45.00343" lon="5.22573">
        <ele>1079.22</ele>
        <time>2021-11-21T10:48:28Z</time>
      </trkpt>
      <trkpt lat="45.00344" lon="5.22581">
        <ele>1079.7</ele>
        <time>2021-11-21T10:48:33Z</time>
      </trkpt>
      <trkpt lat="45.0035" lon="5.22596">
        <ele>1080.66</ele>
        <time>2021-11-21T10:48:47Z</time>
      </trkpt>
      <trkpt lat="45.00352" lon="5.22617">
        <ele>1080.66</ele>
        <time>2021-11-21T10:49:00Z</time>
      </trkpt>
      <trkpt lat="45.0036" lon="5.22631">
        <ele>1081.14</ele>
        <time>2021-11-21T10:49:16Z</time>
      </trkpt>
      <trkpt lat="45.00363" lon="5.22647">
        <ele>1083.06</ele>
        <time>2021-11-21T10:49:32Z</time>
      </trkpt>
      <trkpt lat="45.00367" lon="5.22654">
        <ele>1083.06</ele>
        <time>2021-11-21T10:49:49Z</time>
      </trkpt>
      <trkpt lat="45.00372" lon="5.22662">
        <ele>1083.54</ele>
        <time>2021-11-21T10:50:06Z</time>
      </trkpt>
      <trkpt lat="45.00379" lon="5.22676">
        <ele>1084.5</ele>
        <time>2021-11-21T10:50:21Z</time>
      </trkpt>
      <trkpt lat="45.0038" lon="5.22691">
        <ele>1086.43</ele>
        <time>2021-11-21T10:50:36Z</time>
      </trkpt>
      <trkpt lat="45.00384" lon="5.22708">
        <ele>1088.83</ele>
        <time>2021-11-21T10:50:51Z</time>
      </trkpt>
      <trkpt lat="45.00389" lon="5.22721">
        <ele>1090.27</ele>
        <time>2021-11-21T10:51:07Z</time>
      </trkpt>
      <trkpt lat="45.00394" lon="5.22732">
        <ele>1091.23</ele>
        <time>2021-11-21T10:51:24Z</time>
      </trkpt>
      <trkpt lat="45.00398" lon="5.22751">
        <ele>1092.2</ele>
        <time>2021-11-21T10:51:39Z</time>
      </trkpt>
      <trkpt lat="45.00405" lon="5.22772">
        <ele>1092.2</ele>
        <time>2021-11-21T10:51:54Z</time>
      </trkpt>
      <trkpt lat="45.00413" lon="5.22792">
        <ele>1092.2</ele>
        <time>2021-11-21T10:52:09Z</time>
      </trkpt>
      <trkpt lat="45.00421" lon="5.22806">
        <ele>1092.2</ele>
        <time>2021-11-21T10:52:24Z</time>
      </trkpt>
      <trkpt lat="45.00425" lon="5.22811">
        <ele>1090.75</ele>
        <time>2021-11-21T10:52:30Z</time>
      </trkpt>
      <trkpt lat="45.00435" lon="5.22823">
        <ele>1089.79</ele>
        <time>2021-11-21T10:52:45Z</time>
      </trkpt>
      <trkpt lat="45.00441" lon="5.22834">
        <ele>1089.79</ele>
        <time>2021-11-21T10:53:00Z</time>
      </trkpt>
      <trkpt lat="45.0045" lon="5.22851">
        <ele>1088.35</ele>
        <time>2021-11-21T10:53:18Z</time>
      </trkpt>
      <trkpt lat="45.00461" lon="5.22867">
        <ele>1086.91</ele>
        <time>2021-11-21T10:53:35Z</time>
      </trkpt>
      <trkpt lat="45.00469" lon="5.22883">
        <ele>1086.91</ele>
        <time>2021-11-21T10:53:50Z</time>
      </trkpt>
      <trkpt lat="45.00473" lon="5.22894">
        <ele>1088.83</ele>
        <time>2021-11-21T10:54:04Z</time>
      </trkpt>
      <trkpt lat="45.00476" lon="5.22903">
        <ele>1089.79</ele>
        <time>2021-11-21T10:54:16Z</time>
      </trkpt>
      <trkpt lat="45.00481" lon="5.22923">
        <ele>1092.2</ele>
        <time>2021-11-21T10:54:33Z</time>
      </trkpt>
      <trkpt lat="45.00484" lon="5.22938">
        <ele>1094.6</ele>
        <time>2021-11-21T10:54:49Z</time>
      </trkpt>
      <trkpt lat="45.00488" lon="5.22952">
        <ele>1096.52</ele>
        <time>2021-11-21T10:55:06Z</time>
      </trkpt>
      <trkpt lat="45.00488" lon="5.22963">
        <ele>1099.89</ele>
        <time>2021-11-21T10:55:27Z</time>
      </trkpt>
      <trkpt lat="45.00492" lon="5.22977">
        <ele>1102.29</ele>
        <time>2021-11-21T10:55:43Z</time>
      </trkpt>
      <trkpt lat="45.00492" lon="5.22988">
        <ele>1105.65</ele>
        <time>2021-11-21T10:56:01Z</time>
      </trkpt>
      <trkpt lat="45.00494" lon="5.22996">
        <ele>1107.58</ele>
        <time>2021-11-21T10:56:17Z</time>
      </trkpt>
      <trkpt lat="45.00498" lon="5.23004">
        <ele>1109.02</ele>
        <time>2021-11-21T10:56:34Z</time>
      </trkpt>
      <trkpt lat="45.005" lon="5.23013">
        <ele>1111.9</ele>
        <time>2021-11-21T10:56:51Z</time>
      </trkpt>
      <trkpt lat="45.00502" lon="5.23023">
        <ele>1115.27</ele>
        <time>2021-11-21T10:57:08Z</time>
      </trkpt>
      <trkpt lat="45.00508" lon="5.23036">
        <ele>1118.15</ele>
        <time>2021-11-21T10:57:27Z</time>
      </trkpt>
      <trkpt lat="45.00515" lon="5.23046">
        <ele>1120.55</ele>
        <time>2021-11-21T10:57:44Z</time>
      </trkpt>
      <trkpt lat="45.00519" lon="5.23053">
        <ele>1122.96</ele>
        <time>2021-11-21T10:58:01Z</time>
      </trkpt>
      <trkpt lat="45.00515" lon="5.23057">
        <ele>1124.4</ele>
        <time>2021-11-21T10:58:18Z</time>
      </trkpt>
      <trkpt lat="45.00513" lon="5.23079">
        <ele>1140.74</ele>
        <time>2021-11-21T11:03:27Z</time>
      </trkpt>
      <trkpt lat="45.00511" lon="5.23083">
        <ele>1140.74</ele>
        <time>2021-11-21T11:03:52Z</time>
      </trkpt>
      <trkpt lat="45.00508" lon="5.23093">
        <ele>1141.22</ele>
        <time>2021-11-21T11:04:08Z</time>
      </trkpt>
      <trkpt lat="45.00509" lon="5.23105">
        <ele>1139.3</ele>
        <time>2021-11-21T11:04:23Z</time>
      </trkpt>
      <trkpt lat="45.00502" lon="5.23121">
        <ele>1139.3</ele>
        <time>2021-11-21T11:04:40Z</time>
      </trkpt>
      <trkpt lat="45.00494" lon="5.23137">
        <ele>1136.9</ele>
        <time>2021-11-21T11:04:55Z</time>
      </trkpt>
      <trkpt lat="45.00488" lon="5.2315">
        <ele>1133.53</ele>
        <time>2021-11-21T11:05:08Z</time>
      </trkpt>
      <trkpt lat="45.00479" lon="5.23169">
        <ele>1130.17</ele>
        <time>2021-11-21T11:05:24Z</time>
      </trkpt>
      <trkpt lat="45.00472" lon="5.23188">
        <ele>1128.24</ele>
        <time>2021-11-21T11:05:36Z</time>
      </trkpt>
      <trkpt lat="45.00457" lon="5.23205">
        <ele>1128.24</ele>
        <time>2021-11-21T11:05:51Z</time>
      </trkpt>
      <trkpt lat="45.00445" lon="5.23219">
        <ele>1129.69</ele>
        <time>2021-11-21T11:06:07Z</time>
      </trkpt>
      <trkpt lat="45.00444" lon="5.2322">
        <ele>1129.69</ele>
        <time>2021-11-21T11:06:08Z</time>
      </trkpt>
      <trkpt lat="45.00432" lon="5.23219">
        <ele>1131.61</ele>
        <time>2021-11-21T11:06:22Z</time>
      </trkpt>
      <trkpt lat="45.00419" lon="5.23224">
        <ele>1133.53</ele>
        <time>2021-11-21T11:06:39Z</time>
      </trkpt>
      <trkpt lat="45.00413" lon="5.23238">
        <ele>1133.53</ele>
        <time>2021-11-21T11:06:52Z</time>
      </trkpt>
      <trkpt lat="45.00405" lon="5.23255">
        <ele>1133.53</ele>
        <time>2021-11-21T11:07:07Z</time>
      </trkpt>
      <trkpt lat="45.00397" lon="5.23267">
        <ele>1134.01</ele>
        <time>2021-11-21T11:07:20Z</time>
      </trkpt>
      <trkpt lat="45.00396" lon="5.23278">
        <ele>1135.45</ele>
        <time>2021-11-21T11:07:33Z</time>
      </trkpt>
      <trkpt lat="45.00396" lon="5.23291">
        <ele>1136.9</ele>
        <time>2021-11-21T11:07:48Z</time>
      </trkpt>
      <trkpt lat="45.00392" lon="5.23309">
        <ele>1138.34</ele>
        <time>2021-11-21T11:08:03Z</time>
      </trkpt>
      <trkpt lat="45.00382" lon="5.23322">
        <ele>1138.82</ele>
        <time>2021-11-21T11:08:16Z</time>
      </trkpt>
      <trkpt lat="45.00367" lon="5.23323">
        <ele>1139.78</ele>
        <time>2021-11-21T11:08:32Z</time>
      </trkpt>
      <trkpt lat="45.0036" lon="5.23317">
        <ele>1141.22</ele>
        <time>2021-11-21T11:08:48Z</time>
      </trkpt>
      <trkpt lat="45.00351" lon="5.23306">
        <ele>1141.22</ele>
        <time>2021-11-21T11:09:03Z</time>
      </trkpt>
      <trkpt lat="45.00345" lon="5.23302">
        <ele>1139.78</ele>
        <time>2021-11-21T11:09:10Z</time>
      </trkpt>
      <trkpt lat="45.00338" lon="5.233">
        <ele>1138.82</ele>
        <time>2021-11-21T11:09:17Z</time>
      </trkpt>
      <trkpt lat="45.00322" lon="5.23291">
        <ele>1138.82</ele>
        <time>2021-11-21T11:09:31Z</time>
      </trkpt>
      <trkpt lat="45.00306" lon="5.2328">
        <ele>1138.34</ele>
        <time>2021-11-21T11:09:44Z</time>
      </trkpt>
      <trkpt lat="45.00285" lon="5.23285">
        <ele>1137.86</ele>
        <time>2021-11-21T11:10:02Z</time>
      </trkpt>
      <trkpt lat="45.00273" lon="5.23295">
        <ele>1137.86</ele>
        <time>2021-11-21T11:10:18Z</time>
      </trkpt>
      <trkpt lat="45.00262" lon="5.23304">
        <ele>1139.78</ele>
        <time>2021-11-21T11:10:33Z</time>
      </trkpt>
      <trkpt lat="45.00251" lon="5.23309">
        <ele>1141.7</ele>
        <time>2021-11-21T11:10:46Z</time>
      </trkpt>
      <trkpt lat="45.00237" lon="5.23315">
        <ele>1142.18</ele>
        <time>2021-11-21T11:11:02Z</time>
      </trkpt>
      <trkpt lat="45.00222" lon="5.23318">
        <ele>1140.74</ele>
        <time>2021-11-21T11:11:17Z</time>
      </trkpt>
      <trkpt lat="45.00205" lon="5.23323">
        <ele>1140.26</ele>
        <time>2021-11-21T11:11:33Z</time>
      </trkpt>
      <trkpt lat="45.0019" lon="5.23328">
        <ele>1138.82</ele>
        <time>2021-11-21T11:11:48Z</time>
      </trkpt>
      <trkpt lat="45.00175" lon="5.2334">
        <ele>1137.86</ele>
        <time>2021-11-21T11:12:01Z</time>
      </trkpt>
      <trkpt lat="45.00176" lon="5.23344">
        <ele>1136.9</ele>
        <time>2021-11-21T11:12:18Z</time>
      </trkpt>
      <trkpt lat="45.00179" lon="5.23346">
        <ele>1136.9</ele>
        <time>2021-11-21T11:13:06Z</time>
      </trkpt>
      <trkpt lat="45.00188" lon="5.23348">
        <ele>1135.45</ele>
        <time>2021-11-21T11:13:17Z</time>
      </trkpt>
      <trkpt lat="45.00206" lon="5.23356">
        <ele>1134.49</ele>
        <time>2021-11-21T11:13:33Z</time>
      </trkpt>
      <trkpt lat="45.00221" lon="5.23367">
        <ele>1131.61</ele>
        <time>2021-11-21T11:13:50Z</time>
      </trkpt>
      <trkpt lat="45.00234" lon="5.23376">
        <ele>1128.73</ele>
        <time>2021-11-21T11:14:05Z</time>
      </trkpt>
      <trkpt lat="45.00246" lon="5.23392">
        <ele>1125.84</ele>
        <time>2021-11-21T11:14:22Z</time>
      </trkpt>
      <trkpt lat="45.00255" lon="5.23406">
        <ele>1122.48</ele>
        <time>2021-11-21T11:14:34Z</time>
      </trkpt>
      <trkpt lat="45.00265" lon="5.23416">
        <ele>1120.55</ele>
        <time>2021-11-21T11:14:47Z</time>
      </trkpt>
      <trkpt lat="45.0027" lon="5.23431">
        <ele>1118.63</ele>
        <time>2021-11-21T11:15:00Z</time>
      </trkpt>
      <trkpt lat="45.00274" lon="5.23447">
        <ele>1116.23</ele>
        <time>2021-11-21T11:15:13Z</time>
      </trkpt>
      <trkpt lat="45.00276" lon="5.23466">
        <ele>1113.82</ele>
        <time>2021-11-21T11:15:27Z</time>
      </trkpt>
      <trkpt lat="45.00278" lon="5.23479">
        <ele>1111.42</ele>
        <time>2021-11-21T11:15:40Z</time>
      </trkpt>
      <trkpt lat="45.00278" lon="5.23489">
        <ele>1109.5</ele>
        <time>2021-11-21T11:16:44Z</time>
      </trkpt>
      <trkpt lat="45.00281" lon="5.23502">
        <ele>1107.58</ele>
        <time>2021-11-21T11:16:59Z</time>
      </trkpt>
      <trkpt lat="45.00279" lon="5.23511">
        <ele>1113.34</ele>
        <time>2021-11-21T12:00:39Z</time>
      </trkpt>
      <trkpt lat="45.0028" lon="5.2352">
        <ele>1113.34</ele>
        <time>2021-11-21T12:00:55Z</time>
      </trkpt>
      <trkpt lat="45.0028" lon="5.23522">
        <ele>1112.38</ele>
        <time>2021-11-21T12:00:58Z</time>
      </trkpt>
      <trkpt lat="45.00285" lon="5.23539">
        <ele>1109.5</ele>
        <time>2021-11-21T12:01:14Z</time>
      </trkpt>
      <trkpt lat="45.00293" lon="5.23558">
        <ele>1107.1</ele>
        <time>2021-11-21T12:01:31Z</time>
      </trkpt>
      <trkpt lat="45.00306" lon="5.23574">
        <ele>1104.21</ele>
        <time>2021-11-21T12:01:49Z</time>
      </trkpt>
      <trkpt lat="45.00318" lon="5.2359">
        <ele>1101.81</ele>
        <time>2021-11-21T12:02:05Z</time>
      </trkpt>
      <trkpt lat="45.00328" lon="5.236">
        <ele>1099.4</ele>
        <time>2021-11-21T12:02:18Z</time>
      </trkpt>
      <trkpt lat="45.0034" lon="5.23611">
        <ele>1097.96</ele>
        <time>2021-11-21T12:02:31Z</time>
      </trkpt>
      <trkpt lat="45.00353" lon="5.23621">
        <ele>1096.52</ele>
        <time>2021-11-21T12:02:43Z</time>
      </trkpt>
      <trkpt lat="45.00363" lon="5.23622">
        <ele>1096.52</ele>
        <time>2021-11-21T12:02:53Z</time>
      </trkpt>
      <trkpt lat="45.00373" lon="5.2362">
        <ele>1096.04</ele>
        <time>2021-11-21T12:03:06Z</time>
      </trkpt>
      <trkpt lat="45.00383" lon="5.23608">
        <ele>1095.08</ele>
        <time>2021-11-21T12:03:19Z</time>
      </trkpt>
      <trkpt lat="45.00392" lon="5.23597">
        <ele>1095.08</ele>
        <time>2021-11-21T12:03:31Z</time>
      </trkpt>
      <trkpt lat="45.00404" lon="5.23581">
        <ele>1094.6</ele>
        <time>2021-11-21T12:03:45Z</time>
      </trkpt>
      <trkpt lat="45.00417" lon="5.23565">
        <ele>1096.04</ele>
        <time>2021-11-21T12:03:59Z</time>
      </trkpt>
      <trkpt lat="45.00429" lon="5.23557">
        <ele>1096.04</ele>
        <time>2021-11-21T12:04:12Z</time>
      </trkpt>
      <trkpt lat="45.00435" lon="5.23561">
        <ele>1096.04</ele>
        <time>2021-11-21T12:04:18Z</time>
      </trkpt>
      <trkpt lat="45.00448" lon="5.23571">
        <ele>1096.04</ele>
        <time>2021-11-21T12:04:32Z</time>
      </trkpt>
      <trkpt lat="45.00461" lon="5.23585">
        <ele>1094.12</ele>
        <time>2021-11-21T12:04:49Z</time>
      </trkpt>
      <trkpt lat="45.00469" lon="5.23594">
        <ele>1092.2</ele>
        <time>2021-11-21T12:04:59Z</time>
      </trkpt>
      <trkpt lat="45.00476" lon="5.23601">
        <ele>1090.75</ele>
        <time>2021-11-21T12:05:07Z</time>
      </trkpt>
      <trkpt lat="45.00488" lon="5.23609">
        <ele>1088.35</ele>
        <time>2021-11-21T12:05:20Z</time>
      </trkpt>
      <trkpt lat="45.00498" lon="5.23617">
        <ele>1086.43</ele>
        <time>2021-11-21T12:05:34Z</time>
      </trkpt>
      <trkpt lat="45.0051" lon="5.23625">
        <ele>1083.54</ele>
        <time>2021-11-21T12:05:48Z</time>
      </trkpt>
      <trkpt lat="45.00526" lon="5.23633">
        <ele>1080.18</ele>
        <time>2021-11-21T12:06:03Z</time>
      </trkpt>
      <trkpt lat="45.0054" lon="5.23641">
        <ele>1078.74</ele>
        <time>2021-11-21T12:06:17Z</time>
      </trkpt>
      <trkpt lat="45.00556" lon="5.23647">
        <ele>1077.78</ele>
        <time>2021-11-21T12:06:33Z</time>
      </trkpt>
      <trkpt lat="45.00574" lon="5.23655">
        <ele>1076.33</ele>
        <time>2021-11-21T12:06:47Z</time>
      </trkpt>
      <trkpt lat="45.00593" lon="5.23662">
        <ele>1075.85</ele>
        <time>2021-11-21T12:07:02Z</time>
      </trkpt>
      <trkpt lat="45.00609" lon="5.23672">
        <ele>1073.93</ele>
        <time>2021-11-21T12:07:16Z</time>
      </trkpt>
      <trkpt lat="45.00625" lon="5.23681">
        <ele>1071.53</ele>
        <time>2021-11-21T12:07:32Z</time>
      </trkpt>
      <trkpt lat="45.00639" lon="5.23689">
        <ele>1069.12</ele>
        <time>2021-11-21T12:07:46Z</time>
      </trkpt>
      <trkpt lat="45.00651" lon="5.23697">
        <ele>1065.76</ele>
        <time>2021-11-21T12:07:59Z</time>
      </trkpt>
      <trkpt lat="45.00661" lon="5.23708">
        <ele>1063.36</ele>
        <time>2021-11-21T12:08:14Z</time>
      </trkpt>
      <trkpt lat="45.00663" lon="5.23711">
        <ele>1062.87</ele>
        <time>2021-11-21T12:08:33Z</time>
      </trkpt>
      <trkpt lat="45.00669" lon="5.23723">
        <ele>1060.47</ele>
        <time>2021-11-21T12:08:44Z</time>
      </trkpt>
      <trkpt lat="45.00678" lon="5.23736">
        <ele>1057.11</ele>
        <time>2021-11-21T12:08:57Z</time>
      </trkpt>
      <trkpt lat="45.00687" lon="5.23748">
        <ele>1053.74</ele>
        <time>2021-11-21T12:09:12Z</time>
      </trkpt>
      <trkpt lat="45.00698" lon="5.23767">
        <ele>1050.86</ele>
        <time>2021-11-21T12:09:26Z</time>
      </trkpt>
      <trkpt lat="45.00708" lon="5.2378">
        <ele>1047.97</ele>
        <time>2021-11-21T12:09:39Z</time>
      </trkpt>
      <trkpt lat="45.00719" lon="5.23797">
        <ele>1045.57</ele>
        <time>2021-11-21T12:09:52Z</time>
      </trkpt>
      <trkpt lat="45.00729" lon="5.23816">
        <ele>1042.21</ele>
        <time>2021-11-21T12:10:07Z</time>
      </trkpt>
      <trkpt lat="45.0074" lon="5.23834">
        <ele>1039.32</ele>
        <time>2021-11-21T12:10:23Z</time>
      </trkpt>
      <trkpt lat="45.0075" lon="5.23855">
        <ele>1035.48</ele>
        <time>2021-11-21T12:10:38Z</time>
      </trkpt>
      <trkpt lat="45.00761" lon="5.23873">
        <ele>1033.07</ele>
        <time>2021-11-21T12:10:53Z</time>
      </trkpt>
      <trkpt lat="45.00766" lon="5.2388">
        <ele>1031.15</ele>
        <time>2021-11-21T12:10:59Z</time>
      </trkpt>
      <trkpt lat="45.00774" lon="5.23884">
        <ele>1029.71</ele>
        <time>2021-11-21T12:11:12Z</time>
      </trkpt>
      <trkpt lat="45.00785" lon="5.23884">
        <ele>1027.31</ele>
        <time>2021-11-21T12:11:25Z</time>
      </trkpt>
      <trkpt lat="45.00795" lon="5.23895">
        <ele>1023.94</ele>
        <time>2021-11-21T12:11:37Z</time>
      </trkpt>
      <trkpt lat="45.00806" lon="5.23907">
        <ele>1021.06</ele>
        <time>2021-11-21T12:11:49Z</time>
      </trkpt>
      <trkpt lat="45.00818" lon="5.23913">
        <ele>1019.13</ele>
        <time>2021-11-21T12:12:02Z</time>
      </trkpt>
      <trkpt lat="45.00826" lon="5.23913">
        <ele>1016.25</ele>
        <time>2021-11-21T12:12:11Z</time>
      </trkpt>
      <trkpt lat="45.0084" lon="5.23915">
        <ele>1013.37</ele>
        <time>2021-11-21T12:12:24Z</time>
      </trkpt>
      <trkpt lat="45.00853" lon="5.23925">
        <ele>1010.48</ele>
        <time>2021-11-21T12:12:37Z</time>
      </trkpt>
      <trkpt lat="45.00863" lon="5.23942">
        <ele>1007.6</ele>
        <time>2021-11-21T12:12:53Z</time>
      </trkpt>
      <trkpt lat="45.00861" lon="5.23951">
        <ele>1005.68</ele>
        <time>2021-11-21T12:13:06Z</time>
      </trkpt>
      <trkpt lat="45.00856" lon="5.23958">
        <ele>1003.75</ele>
        <time>2021-11-21T12:13:19Z</time>
      </trkpt>
      <trkpt lat="45.00851" lon="5.23974">
        <ele>1001.35</ele>
        <time>2021-11-21T12:13:33Z</time>
      </trkpt>
      <trkpt lat="45.00843" lon="5.23985">
        <ele>998.47</ele>
        <time>2021-11-21T12:13:49Z</time>
      </trkpt>
      <trkpt lat="45.00829" lon="5.23997">
        <ele>997.02</ele>
        <time>2021-11-21T12:14:07Z</time>
      </trkpt>
      <trkpt lat="45.00819" lon="5.24">
        <ele>996.06</ele>
        <time>2021-11-21T12:14:21Z</time>
      </trkpt>
      <trkpt lat="45.00812" lon="5.24009">
        <ele>992.7</ele>
        <time>2021-11-21T12:14:33Z</time>
      </trkpt>
      <trkpt lat="45.00799" lon="5.24023">
        <ele>990.78</ele>
        <time>2021-11-21T12:14:48Z</time>
      </trkpt>
      <trkpt lat="45.0079" lon="5.24037">
        <ele>987.41</ele>
        <time>2021-11-21T12:15:03Z</time>
      </trkpt>
      <trkpt lat="45.00783" lon="5.24056">
        <ele>986.45</ele>
        <time>2021-11-21T12:15:20Z</time>
      </trkpt>
      <trkpt lat="45.00786" lon="5.24068">
        <ele>984.05</ele>
        <time>2021-11-21T12:15:35Z</time>
      </trkpt>
      <trkpt lat="45.0079" lon="5.24078">
        <ele>982.12</ele>
        <time>2021-11-21T12:15:50Z</time>
      </trkpt>
      <trkpt lat="45.00792" lon="5.24094">
        <ele>979.72</ele>
        <time>2021-11-21T12:16:04Z</time>
      </trkpt>
      <trkpt lat="45.00796" lon="5.24109">
        <ele>976.36</ele>
        <time>2021-11-21T12:16:18Z</time>
      </trkpt>
      <trkpt lat="45.00799" lon="5.24122">
        <ele>974.43</ele>
        <time>2021-11-21T12:16:32Z</time>
      </trkpt>
      <trkpt lat="45.00802" lon="5.24133">
        <ele>972.99</ele>
        <time>2021-11-21T12:16:49Z</time>
      </trkpt>
      <trkpt lat="45.00806" lon="5.24147">
        <ele>970.59</ele>
        <time>2021-11-21T12:17:04Z</time>
      </trkpt>
      <trkpt lat="45.0081" lon="5.24157">
        <ele>968.18</ele>
        <time>2021-11-21T12:17:17Z</time>
      </trkpt>
      <trkpt lat="45.00817" lon="5.24167">
        <ele>965.3</ele>
        <time>2021-11-21T12:17:32Z</time>
      </trkpt>
      <trkpt lat="45.00821" lon="5.24182">
        <ele>962.9</ele>
        <time>2021-11-21T12:17:46Z</time>
      </trkpt>
      <trkpt lat="45.00828" lon="5.24195">
        <ele>961.46</ele>
        <time>2021-11-21T12:17:59Z</time>
      </trkpt>
      <trkpt lat="45.00831" lon="5.24206">
        <ele>960.98</ele>
        <time>2021-11-21T12:18:14Z</time>
      </trkpt>
      <trkpt lat="45.00837" lon="5.2421">
        <ele>960.49</ele>
        <time>2021-11-21T12:18:37Z</time>
      </trkpt>
      <trkpt lat="45.00839" lon="5.2421">
        <ele>960.49</ele>
        <time>2021-11-21T12:18:58Z</time>
      </trkpt>
      <trkpt lat="45.00842" lon="5.24218">
        <ele>960.49</ele>
        <time>2021-11-21T12:19:14Z</time>
      </trkpt>
      <trkpt lat="45.00843" lon="5.24222">
        <ele>961.94</ele>
        <time>2021-11-21T12:19:18Z</time>
      </trkpt>
      <trkpt lat="45.00846" lon="5.24235">
        <ele>962.42</ele>
        <time>2021-11-21T12:19:29Z</time>
      </trkpt>
      <trkpt lat="45.00844" lon="5.24254">
        <ele>959.05</ele>
        <time>2021-11-21T12:19:45Z</time>
      </trkpt>
      <trkpt lat="45.00837" lon="5.24264">
        <ele>956.65</ele>
        <time>2021-11-21T12:19:57Z</time>
      </trkpt>
      <trkpt lat="45.0083" lon="5.24275">
        <ele>953.28</ele>
        <time>2021-11-21T12:20:10Z</time>
      </trkpt>
      <trkpt lat="45.00823" lon="5.24287">
        <ele>949.92</ele>
        <time>2021-11-21T12:20:23Z</time>
      </trkpt>
      <trkpt lat="45.00813" lon="5.24296">
        <ele>948</ele>
        <time>2021-11-21T12:20:34Z</time>
      </trkpt>
      <trkpt lat="45.00797" lon="5.24307">
        <ele>946.07</ele>
        <time>2021-11-21T12:20:49Z</time>
      </trkpt>
      <trkpt lat="45.00788" lon="5.24313">
        <ele>943.19</ele>
        <time>2021-11-21T12:21:02Z</time>
      </trkpt>
      <trkpt lat="45.00776" lon="5.24326">
        <ele>940.79</ele>
        <time>2021-11-21T12:21:17Z</time>
      </trkpt>
      <trkpt lat="45.0077" lon="5.24332">
        <ele>936.94</ele>
        <time>2021-11-21T12:21:29Z</time>
      </trkpt>
      <trkpt lat="45.00762" lon="5.24338">
        <ele>934.06</ele>
        <time>2021-11-21T12:21:41Z</time>
      </trkpt>
      <trkpt lat="45.00748" lon="5.2435">
        <ele>932.62</ele>
        <time>2021-11-21T12:21:58Z</time>
      </trkpt>
      <trkpt lat="45.00743" lon="5.24355">
        <ele>931.65</ele>
        <time>2021-11-21T12:22:14Z</time>
      </trkpt>
      <trkpt lat="45.00741" lon="5.24358">
        <ele>931.17</ele>
        <time>2021-11-21T12:22:39Z</time>
      </trkpt>
      <trkpt lat="45.00741" lon="5.24359">
        <ele>931.17</ele>
        <time>2021-11-21T12:23:01Z</time>
      </trkpt>
      <trkpt lat="45.00738" lon="5.24363">
        <ele>930.69</ele>
        <time>2021-11-21T12:23:22Z</time>
      </trkpt>
      <trkpt lat="45.0073" lon="5.24374">
        <ele>927.33</ele>
        <time>2021-11-21T12:23:35Z</time>
      </trkpt>
      <trkpt lat="45.00723" lon="5.24381">
        <ele>923.96</ele>
        <time>2021-11-21T12:23:46Z</time>
      </trkpt>
      <trkpt lat="45.00717" lon="5.24388">
        <ele>920.6</ele>
        <time>2021-11-21T12:23:59Z</time>
      </trkpt>
      <trkpt lat="45.00708" lon="5.24397">
        <ele>918.2</ele>
        <time>2021-11-21T12:24:17Z</time>
      </trkpt>
      <trkpt lat="45.00702" lon="5.24404">
        <ele>915.31</ele>
        <time>2021-11-21T12:24:25Z</time>
      </trkpt>
      <trkpt lat="45.00693" lon="5.24413">
        <ele>911.95</ele>
        <time>2021-11-21T12:24:39Z</time>
      </trkpt>
      <trkpt lat="45.00689" lon="5.24421">
        <ele>908.58</ele>
        <time>2021-11-21T12:24:48Z</time>
      </trkpt>
      <trkpt lat="45.00682" lon="5.24432">
        <ele>905.7</ele>
        <time>2021-11-21T12:25:03Z</time>
      </trkpt>
      <trkpt lat="45.00679" lon="5.24451">
        <ele>903.78</ele>
        <time>2021-11-21T12:25:18Z</time>
      </trkpt>
      <trkpt lat="45.00673" lon="5.24463">
        <ele>903.3</ele>
        <time>2021-11-21T12:25:39Z</time>
      </trkpt>
      <trkpt lat="45.00682" lon="5.24467">
        <ele>901.37</ele>
        <time>2021-11-21T12:25:53Z</time>
      </trkpt>
      <trkpt lat="45.00693" lon="5.24471">
        <ele>899.45</ele>
        <time>2021-11-21T12:26:06Z</time>
      </trkpt>
      <trkpt lat="45.00701" lon="5.24476">
        <ele>897.53</ele>
        <time>2021-11-21T12:26:15Z</time>
      </trkpt>
      <trkpt lat="45.00715" lon="5.2448">
        <ele>894.64</ele>
        <time>2021-11-21T12:26:28Z</time>
      </trkpt>
      <trkpt lat="45.00732" lon="5.24488">
        <ele>891.28</ele>
        <time>2021-11-21T12:26:42Z</time>
      </trkpt>
      <trkpt lat="45.00736" lon="5.24481">
        <ele>888.4</ele>
        <time>2021-11-21T12:26:56Z</time>
      </trkpt>
      <trkpt lat="45.00739" lon="5.2447">
        <ele>886.95</ele>
        <time>2021-11-21T12:27:09Z</time>
      </trkpt>
      <trkpt lat="45.00746" lon="5.24464">
        <ele>885.51</ele>
        <time>2021-11-21T12:27:21Z</time>
      </trkpt>
      <trkpt lat="45.00754" lon="5.24461">
        <ele>883.59</ele>
        <time>2021-11-21T12:27:33Z</time>
      </trkpt>
      <trkpt lat="45.00761" lon="5.24462">
        <ele>880.22</ele>
        <time>2021-11-21T12:27:46Z</time>
      </trkpt>
      <trkpt lat="45.00767" lon="5.24464">
        <ele>876.38</ele>
        <time>2021-11-21T12:27:58Z</time>
      </trkpt>
      <trkpt lat="45.00773" lon="5.24466">
        <ele>873.98</ele>
        <time>2021-11-21T12:28:14Z</time>
      </trkpt>
      <trkpt lat="45.00779" lon="5.24472">
        <ele>871.57</ele>
        <time>2021-11-21T12:28:29Z</time>
      </trkpt>
      <trkpt lat="45.00782" lon="5.24476">
        <ele>869.65</ele>
        <time>2021-11-21T12:28:39Z</time>
      </trkpt>
      <trkpt lat="45.00793" lon="5.24481">
        <ele>866.29</ele>
        <time>2021-11-21T12:28:54Z</time>
      </trkpt>
      <trkpt lat="45.00798" lon="5.24488">
        <ele>863.4</ele>
        <time>2021-11-21T12:29:03Z</time>
      </trkpt>
      <trkpt lat="45.00807" lon="5.24494">
        <ele>860.04</ele>
        <time>2021-11-21T12:29:15Z</time>
      </trkpt>
      <trkpt lat="45.0082" lon="5.24499">
        <ele>858.11</ele>
        <time>2021-11-21T12:29:30Z</time>
      </trkpt>
      <trkpt lat="45.00832" lon="5.24503">
        <ele>856.67</ele>
        <time>2021-11-21T12:29:44Z</time>
      </trkpt>
      <trkpt lat="45.00847" lon="5.24513">
        <ele>854.75</ele>
        <time>2021-11-21T12:29:59Z</time>
      </trkpt>
      <trkpt lat="45.00853" lon="5.24516">
        <ele>854.27</ele>
        <time>2021-11-21T12:30:15Z</time>
      </trkpt>
      <trkpt lat="45.00859" lon="5.24519">
        <ele>854.27</ele>
        <time>2021-11-21T12:30:32Z</time>
      </trkpt>
      <trkpt lat="45.00862" lon="5.24519">
        <ele>854.27</ele>
        <time>2021-11-21T12:30:56Z</time>
      </trkpt>
      <trkpt lat="45.00871" lon="5.24521">
        <ele>852.35</ele>
        <time>2021-11-21T12:31:10Z</time>
      </trkpt>
      <trkpt lat="45.00881" lon="5.24524">
        <ele>851.87</ele>
        <time>2021-11-21T12:31:23Z</time>
      </trkpt>
      <trkpt lat="45.00895" lon="5.24524">
        <ele>850.42</ele>
        <time>2021-11-21T12:31:37Z</time>
      </trkpt>
      <trkpt lat="45.00914" lon="5.24524">
        <ele>848.5</ele>
        <time>2021-11-21T12:31:51Z</time>
      </trkpt>
      <trkpt lat="45.00926" lon="5.24523">
        <ele>847.06</ele>
        <time>2021-11-21T12:32:04Z</time>
      </trkpt>
      <trkpt lat="45.00935" lon="5.24525">
        <ele>845.62</ele>
        <time>2021-11-21T12:32:17Z</time>
      </trkpt>
      <trkpt lat="45.00943" lon="5.24528">
        <ele>842.73</ele>
        <time>2021-11-21T12:32:30Z</time>
      </trkpt>
      <trkpt lat="45.00958" lon="5.24534">
        <ele>839.37</ele>
        <time>2021-11-21T12:32:44Z</time>
      </trkpt>
      <trkpt lat="45.00973" lon="5.2453">
        <ele>836.96</ele>
        <time>2021-11-21T12:32:58Z</time>
      </trkpt>
      <trkpt lat="45.00986" lon="5.24528">
        <ele>835.04</ele>
        <time>2021-11-21T12:33:10Z</time>
      </trkpt>
      <trkpt lat="45.01002" lon="5.24523">
        <ele>832.16</ele>
        <time>2021-11-21T12:33:25Z</time>
      </trkpt>
      <trkpt lat="45.01014" lon="5.24518">
        <ele>830.72</ele>
        <time>2021-11-21T12:33:37Z</time>
      </trkpt>
      <trkpt lat="45.01027" lon="5.24512">
        <ele>827.35</ele>
        <time>2021-11-21T12:33:50Z</time>
      </trkpt>
      <trkpt lat="45.01041" lon="5.24511">
        <ele>823.99</ele>
        <time>2021-11-21T12:34:00Z</time>
      </trkpt>
      <trkpt lat="45.0105" lon="5.2451">
        <ele>821.1</ele>
        <time>2021-11-21T12:34:12Z</time>
      </trkpt>
      <trkpt lat="45.01055" lon="5.2451">
        <ele>820.14</ele>
        <time>2021-11-21T12:34:15Z</time>
      </trkpt>
      <trkpt lat="45.01067" lon="5.24508">
        <ele>817.26</ele>
        <time>2021-11-21T12:34:27Z</time>
      </trkpt>
      <trkpt lat="45.01073" lon="5.24507">
        <ele>813.89</ele>
        <time>2021-11-21T12:34:37Z</time>
      </trkpt>
      <trkpt lat="45.01081" lon="5.24506">
        <ele>810.53</ele>
        <time>2021-11-21T12:34:48Z</time>
      </trkpt>
      <trkpt lat="45.01091" lon="5.24509">
        <ele>807.64</ele>
        <time>2021-11-21T12:35:02Z</time>
      </trkpt>
      <trkpt lat="45.011" lon="5.2451">
        <ele>804.28</ele>
        <time>2021-11-21T12:35:18Z</time>
      </trkpt>
      <trkpt lat="45.0111" lon="5.24517">
        <ele>800.44</ele>
        <time>2021-11-21T12:35:30Z</time>
      </trkpt>
      <trkpt lat="45.01117" lon="5.24524">
        <ele>797.55</ele>
        <time>2021-11-21T12:35:47Z</time>
      </trkpt>
      <trkpt lat="45.01123" lon="5.24529">
        <ele>795.15</ele>
        <time>2021-11-21T12:36:00Z</time>
      </trkpt>
      <trkpt lat="45.01132" lon="5.2454">
        <ele>792.26</ele>
        <time>2021-11-21T12:36:14Z</time>
      </trkpt>
      <trkpt lat="45.01137" lon="5.24541">
        <ele>792.26</ele>
        <time>2021-11-21T12:39:55Z</time>
      </trkpt>
      <trkpt lat="45.01148" lon="5.24529">
        <ele>793.71</ele>
        <time>2021-11-21T12:40:10Z</time>
      </trkpt>
      <trkpt lat="45.01155" lon="5.24518">
        <ele>795.63</ele>
        <time>2021-11-21T12:40:23Z</time>
      </trkpt>
      <trkpt lat="45.01166" lon="5.24502">
        <ele>797.07</ele>
        <time>2021-11-21T12:40:37Z</time>
      </trkpt>
      <trkpt lat="45.01177" lon="5.24486">
        <ele>798.03</ele>
        <time>2021-11-21T12:40:50Z</time>
      </trkpt>
      <trkpt lat="45.01188" lon="5.24473">
        <ele>799.95</ele>
        <time>2021-11-21T12:41:04Z</time>
      </trkpt>
      <trkpt lat="45.01195" lon="5.24466">
        <ele>800.44</ele>
        <time>2021-11-21T12:41:17Z</time>
      </trkpt>
      <trkpt lat="45.01208" lon="5.24457">
        <ele>799.47</ele>
        <time>2021-11-21T12:41:30Z</time>
      </trkpt>
      <trkpt lat="45.01221" lon="5.24452">
        <ele>799.47</ele>
        <time>2021-11-21T12:41:44Z</time>
      </trkpt>
      <trkpt lat="45.0123" lon="5.24445">
        <ele>799.47</ele>
        <time>2021-11-21T12:41:57Z</time>
      </trkpt>
      <trkpt lat="45.01233" lon="5.24441">
        <ele>799.47</ele>
        <time>2021-11-21T12:42:14Z</time>
      </trkpt>
      <trkpt lat="45.01231" lon="5.24437">
        <ele>800.92</ele>
        <time>2021-11-21T12:43:19Z</time>
      </trkpt>
      <trkpt lat="45.01222" lon="5.24424">
        <ele>803.8</ele>
        <time>2021-11-21T12:43:35Z</time>
      </trkpt>
      <trkpt lat="45.01219" lon="5.2441">
        <ele>806.68</ele>
        <time>2021-11-21T12:43:51Z</time>
      </trkpt>
      <trkpt lat="45.01219" lon="5.24396">
        <ele>808.61</ele>
        <time>2021-11-21T12:44:05Z</time>
      </trkpt>
      <trkpt lat="45.01217" lon="5.24382">
        <ele>811.01</ele>
        <time>2021-11-21T12:44:21Z</time>
      </trkpt>
      <trkpt lat="45.01217" lon="5.24366">
        <ele>813.41</ele>
        <time>2021-11-21T12:44:38Z</time>
      </trkpt>
      <trkpt lat="45.01214" lon="5.24352">
        <ele>816.3</ele>
        <time>2021-11-21T12:44:55Z</time>
      </trkpt>
      <trkpt lat="45.01209" lon="5.24339">
        <ele>818.7</ele>
        <time>2021-11-21T12:45:11Z</time>
      </trkpt>
      <trkpt lat="45.01209" lon="5.24328">
        <ele>821.1</ele>
        <time>2021-11-21T12:45:25Z</time>
      </trkpt>
      <trkpt lat="45.0121" lon="5.24313">
        <ele>823.51</ele>
        <time>2021-11-21T12:45:40Z</time>
      </trkpt>
      <trkpt lat="45.01215" lon="5.24299">
        <ele>824.95</ele>
        <time>2021-11-21T12:45:56Z</time>
      </trkpt>
      <trkpt lat="45.01222" lon="5.24287">
        <ele>825.91</ele>
        <time>2021-11-21T12:46:10Z</time>
      </trkpt>
      <trkpt lat="45.01231" lon="5.24271">
        <ele>826.87</ele>
        <time>2021-11-21T12:46:25Z</time>
      </trkpt>
      <trkpt lat="45.0124" lon="5.24262">
        <ele>826.87</ele>
        <time>2021-11-21T12:46:36Z</time>
      </trkpt>
      <trkpt lat="45.01247" lon="5.24251">
        <ele>827.35</ele>
        <time>2021-11-21T12:46:48Z</time>
      </trkpt>
      <trkpt lat="45.01256" lon="5.24243">
        <ele>829.27</ele>
        <time>2021-11-21T12:47:00Z</time>
      </trkpt>
      <trkpt lat="45.01268" lon="5.24243">
        <ele>829.76</ele>
        <time>2021-11-21T12:47:13Z</time>
      </trkpt>
      <trkpt lat="45.01279" lon="5.24242">
        <ele>828.31</ele>
        <time>2021-11-21T12:47:26Z</time>
      </trkpt>
      <trkpt lat="45.01287" lon="5.24235">
        <ele>829.76</ele>
        <time>2021-11-21T12:47:38Z</time>
      </trkpt>
      <trkpt lat="45.01301" lon="5.24229">
        <ele>831.2</ele>
        <time>2021-11-21T12:47:52Z</time>
      </trkpt>
      <trkpt lat="45.01313" lon="5.24218">
        <ele>833.12</ele>
        <time>2021-11-21T12:48:07Z</time>
      </trkpt>
      <trkpt lat="45.01326" lon="5.24211">
        <ele>835.04</ele>
        <time>2021-11-21T12:48:22Z</time>
      </trkpt>
      <trkpt lat="45.01336" lon="5.24204">
        <ele>835.52</ele>
        <time>2021-11-21T12:48:35Z</time>
      </trkpt>
      <trkpt lat="45.01351" lon="5.2419">
        <ele>837.93</ele>
        <time>2021-11-21T12:48:50Z</time>
      </trkpt>
      <trkpt lat="45.01359" lon="5.24182">
        <ele>839.37</ele>
        <time>2021-11-21T12:49:03Z</time>
      </trkpt>
      <trkpt lat="45.01366" lon="5.24177">
        <ele>839.37</ele>
        <time>2021-11-21T12:49:16Z</time>
      </trkpt>
      <trkpt lat="45.01366" lon="5.24164">
        <ele>841.77</ele>
        <time>2021-11-21T12:49:34Z</time>
      </trkpt>
      <trkpt lat="45.01369" lon="5.24155">
        <ele>845.62</ele>
        <time>2021-11-21T12:49:48Z</time>
      </trkpt>
      <trkpt lat="45.01371" lon="5.24153">
        <ele>851.38</ele>
        <time>2021-11-21T12:52:28Z</time>
      </trkpt>
      <trkpt lat="45.01377" lon="5.24141">
        <ele>854.75</ele>
        <time>2021-11-21T12:52:42Z</time>
      </trkpt>
      <trkpt lat="45.01379" lon="5.24138">
        <ele>856.19</ele>
        <time>2021-11-21T12:52:47Z</time>
      </trkpt>
      <trkpt lat="45.01384" lon="5.2413">
        <ele>859.08</ele>
        <time>2021-11-21T12:53:01Z</time>
      </trkpt>
      <trkpt lat="45.01392" lon="5.24124">
        <ele>860.52</ele>
        <time>2021-11-21T12:53:14Z</time>
      </trkpt>
      <trkpt lat="45.01399" lon="5.24119">
        <ele>861</ele>
        <time>2021-11-21T12:53:27Z</time>
      </trkpt>
      <trkpt lat="45.01407" lon="5.24115">
        <ele>862.44</ele>
        <time>2021-11-21T12:53:39Z</time>
      </trkpt>
      <trkpt lat="45.01415" lon="5.2411">
        <ele>863.88</ele>
        <time>2021-11-21T12:53:51Z</time>
      </trkpt>
      <trkpt lat="45.01416" lon="5.24109">
        <ele>863.88</ele>
        <time>2021-11-21T12:53:52Z</time>
      </trkpt>
      <trkpt lat="45.01427" lon="5.24103">
        <ele>865.32</ele>
        <time>2021-11-21T12:54:04Z</time>
      </trkpt>
      <trkpt lat="45.01438" lon="5.24098">
        <ele>867.25</ele>
        <time>2021-11-21T12:54:18Z</time>
      </trkpt>
      <trkpt lat="45.01451" lon="5.2409">
        <ele>867.25</ele>
        <time>2021-11-21T12:54:31Z</time>
      </trkpt>
      <trkpt lat="45.01462" lon="5.24082">
        <ele>867.73</ele>
        <time>2021-11-21T12:54:44Z</time>
      </trkpt>
      <trkpt lat="45.01465" lon="5.24081">
        <ele>867.73</ele>
        <time>2021-11-21T12:54:46Z</time>
      </trkpt>
      <trkpt lat="45.01481" lon="5.24072">
        <ele>867.73</ele>
        <time>2021-11-21T12:55:02Z</time>
      </trkpt>
      <trkpt lat="45.01493" lon="5.24065">
        <ele>867.73</ele>
        <time>2021-11-21T12:55:14Z</time>
      </trkpt>
      <trkpt lat="45.01496" lon="5.24063">
        <ele>866.77</ele>
        <time>2021-11-21T12:55:18Z</time>
      </trkpt>
      <trkpt lat="45.01511" lon="5.24054">
        <ele>865.32</ele>
        <time>2021-11-21T12:55:31Z</time>
      </trkpt>
      <trkpt lat="45.01526" lon="5.2404">
        <ele>865.32</ele>
        <time>2021-11-21T12:55:46Z</time>
      </trkpt>
      <trkpt lat="45.01546" lon="5.24029">
        <ele>864.36</ele>
        <time>2021-11-21T12:56:01Z</time>
      </trkpt>
      <trkpt lat="45.01556" lon="5.24022">
        <ele>861</ele>
        <time>2021-11-21T12:56:13Z</time>
      </trkpt>
      <trkpt lat="45.01563" lon="5.2402">
        <ele>859.08</ele>
        <time>2021-11-21T12:56:19Z</time>
      </trkpt>
      <trkpt lat="45.01575" lon="5.24011">
        <ele>855.23</ele>
        <time>2021-11-21T12:56:32Z</time>
      </trkpt>
      <trkpt lat="45.01588" lon="5.24002">
        <ele>851.87</ele>
        <time>2021-11-21T12:56:44Z</time>
      </trkpt>
      <trkpt lat="45.01597" lon="5.23994">
        <ele>849.94</ele>
        <time>2021-11-21T12:56:54Z</time>
      </trkpt>
      <trkpt lat="45.01611" lon="5.23984">
        <ele>848.98</ele>
        <time>2021-11-21T12:57:10Z</time>
      </trkpt>
      <trkpt lat="45.01617" lon="5.2398">
        <ele>848.98</ele>
        <time>2021-11-21T12:57:29Z</time>
      </trkpt>
      <trkpt lat="45.01624" lon="5.2397">
        <ele>847.06</ele>
        <time>2021-11-21T12:57:48Z</time>
      </trkpt>
      <trkpt lat="45.01632" lon="5.23962">
        <ele>844.66</ele>
        <time>2021-11-21T12:58:01Z</time>
      </trkpt>
      <trkpt lat="45.01644" lon="5.23948">
        <ele>843.69</ele>
        <time>2021-11-21T12:58:14Z</time>
      </trkpt>
      <trkpt lat="45.01654" lon="5.23932">
        <ele>843.69</ele>
        <time>2021-11-21T12:58:28Z</time>
      </trkpt>
      <trkpt lat="45.01664" lon="5.23914">
        <ele>843.69</ele>
        <time>2021-11-21T12:58:41Z</time>
      </trkpt>
      <trkpt lat="45.01673" lon="5.23898">
        <ele>843.21</ele>
        <time>2021-11-21T12:58:54Z</time>
      </trkpt>
      <trkpt lat="45.0168" lon="5.23877">
        <ele>841.77</ele>
        <time>2021-11-21T12:59:08Z</time>
      </trkpt>
      <trkpt lat="45.01688" lon="5.23857">
        <ele>840.33</ele>
        <time>2021-11-21T12:59:20Z</time>
      </trkpt>
      <trkpt lat="45.01695" lon="5.23842">
        <ele>837.45</ele>
        <time>2021-11-21T12:59:30Z</time>
      </trkpt>
      <trkpt lat="45.01697" lon="5.23835">
        <ele>836</ele>
        <time>2021-11-21T12:59:34Z</time>
      </trkpt>
      <trkpt lat="45.01702" lon="5.23819">
        <ele>833.12</ele>
        <time>2021-11-21T12:59:45Z</time>
      </trkpt>
      <trkpt lat="45.01709" lon="5.23801">
        <ele>829.76</ele>
        <time>2021-11-21T12:59:56Z</time>
      </trkpt>
      <trkpt lat="45.01713" lon="5.2378">
        <ele>826.87</ele>
        <time>2021-11-21T13:00:10Z</time>
      </trkpt>
      <trkpt lat="45.0172" lon="5.23766">
        <ele>824.47</ele>
        <time>2021-11-21T13:00:22Z</time>
      </trkpt>
      <trkpt lat="45.01721" lon="5.23747">
        <ele>822.06</ele>
        <time>2021-11-21T13:00:35Z</time>
      </trkpt>
      <trkpt lat="45.01723" lon="5.23727">
        <ele>818.7</ele>
        <time>2021-11-21T13:00:46Z</time>
      </trkpt>
      <trkpt lat="45.01724" lon="5.23706">
        <ele>816.3</ele>
        <time>2021-11-21T13:00:58Z</time>
      </trkpt>
      <trkpt lat="45.01733" lon="5.23705">
        <ele>812.45</ele>
        <time>2021-11-21T13:01:11Z</time>
      </trkpt>
      <trkpt lat="45.01741" lon="5.23704">
        <ele>809.57</ele>
        <time>2021-11-21T13:01:22Z</time>
      </trkpt>
      <trkpt lat="45.01745" lon="5.23696">
        <ele>806.68</ele>
        <time>2021-11-21T13:01:35Z</time>
      </trkpt>
      <trkpt lat="45.01748" lon="5.23694">
        <ele>804.76</ele>
        <time>2021-11-21T13:01:41Z</time>
      </trkpt>
      <trkpt lat="45.01759" lon="5.23686">
        <ele>802.36</ele>
        <time>2021-11-21T13:01:55Z</time>
      </trkpt>
      <trkpt lat="45.0177" lon="5.23687">
        <ele>801.88</ele>
        <time>2021-11-21T13:02:02Z</time>
      </trkpt>
      <trkpt lat="45.01776" lon="5.23687">
        <ele>800.92</ele>
        <time>2021-11-21T13:02:05Z</time>
      </trkpt>
      <trkpt lat="45.01776" lon="5.23682">
        <ele>801.4</ele>
        <time>2021-11-21T13:06:08Z</time>
      </trkpt>
      <trkpt lat="45.0178" lon="5.23667">
        <ele>801.88</ele>
        <time>2021-11-21T13:06:23Z</time>
      </trkpt>
      <trkpt lat="45.01778" lon="5.23664">
        <ele>803.32</ele>
        <time>2021-11-21T13:06:29Z</time>
      </trkpt>
      <trkpt lat="45.0177" lon="5.23652">
        <ele>803.8</ele>
        <time>2021-11-21T13:06:44Z</time>
      </trkpt>
      <trkpt lat="45.01764" lon="5.2364">
        <ele>804.28</ele>
        <time>2021-11-21T13:06:57Z</time>
      </trkpt>
      <trkpt lat="45.01756" lon="5.23624">
        <ele>806.2</ele>
        <time>2021-11-21T13:07:14Z</time>
      </trkpt>
      <trkpt lat="45.0175" lon="5.23606">
        <ele>807.64</ele>
        <time>2021-11-21T13:07:29Z</time>
      </trkpt>
      <trkpt lat="45.01741" lon="5.23593">
        <ele>809.57</ele>
        <time>2021-11-21T13:07:44Z</time>
      </trkpt>
      <trkpt lat="45.01731" lon="5.23578">
        <ele>811.97</ele>
        <time>2021-11-21T13:07:59Z</time>
      </trkpt>
      <trkpt lat="45.01721" lon="5.23565">
        <ele>813.41</ele>
        <time>2021-11-21T13:08:15Z</time>
      </trkpt>
      <trkpt lat="45.01716" lon="5.23557">
        <ele>814.85</ele>
        <time>2021-11-21T13:08:29Z</time>
      </trkpt>
      <trkpt lat="45.01705" lon="5.23546">
        <ele>815.82</ele>
        <time>2021-11-21T13:08:42Z</time>
      </trkpt>
      <trkpt lat="45.01703" lon="5.23544">
        <ele>816.3</ele>
        <time>2021-11-21T13:08:44Z</time>
      </trkpt>
      <trkpt lat="45.01692" lon="5.23534">
        <ele>817.26</ele>
        <time>2021-11-21T13:08:56Z</time>
      </trkpt>
      <trkpt lat="45.01682" lon="5.23522">
        <ele>818.7</ele>
        <time>2021-11-21T13:09:08Z</time>
      </trkpt>
      <trkpt lat="45.01673" lon="5.23512">
        <ele>819.66</ele>
        <time>2021-11-21T13:09:20Z</time>
      </trkpt>
      <trkpt lat="45.01659" lon="5.23504">
        <ele>821.58</ele>
        <time>2021-11-21T13:09:34Z</time>
      </trkpt>
      <trkpt lat="45.01647" lon="5.23494">
        <ele>822.55</ele>
        <time>2021-11-21T13:09:48Z</time>
      </trkpt>
      <trkpt lat="45.0163" lon="5.23481">
        <ele>824.95</ele>
        <time>2021-11-21T13:10:05Z</time>
      </trkpt>
      <trkpt lat="45.0162" lon="5.23469">
        <ele>826.87</ele>
        <time>2021-11-21T13:10:20Z</time>
      </trkpt>
      <trkpt lat="45.01607" lon="5.23458">
        <ele>828.79</ele>
        <time>2021-11-21T13:10:35Z</time>
      </trkpt>
      <trkpt lat="45.01597" lon="5.2345">
        <ele>830.72</ele>
        <time>2021-11-21T13:10:48Z</time>
      </trkpt>
      <trkpt lat="45.01587" lon="5.23441">
        <ele>832.16</ele>
        <time>2021-11-21T13:11:01Z</time>
      </trkpt>
      <trkpt lat="45.01575" lon="5.23429">
        <ele>833.6</ele>
        <time>2021-11-21T13:11:16Z</time>
      </trkpt>
      <trkpt lat="45.01564" lon="5.23418">
        <ele>835.52</ele>
        <time>2021-11-21T13:11:31Z</time>
      </trkpt>
      <trkpt lat="45.01553" lon="5.23411">
        <ele>837.45</ele>
        <time>2021-11-21T13:11:44Z</time>
      </trkpt>
      <trkpt lat="45.01544" lon="5.23402">
        <ele>838.89</ele>
        <time>2021-11-21T13:11:58Z</time>
      </trkpt>
      <trkpt lat="45.01532" lon="5.23394">
        <ele>840.33</ele>
        <time>2021-11-21T13:12:10Z</time>
      </trkpt>
      <trkpt lat="45.01522" lon="5.23385">
        <ele>841.77</ele>
        <time>2021-11-21T13:12:23Z</time>
      </trkpt>
      <trkpt lat="45.0151" lon="5.23376">
        <ele>843.21</ele>
        <time>2021-11-21T13:12:36Z</time>
      </trkpt>
      <trkpt lat="45.015" lon="5.23367">
        <ele>843.69</ele>
        <time>2021-11-21T13:12:49Z</time>
      </trkpt>
      <trkpt lat="45.01488" lon="5.23358">
        <ele>845.14</ele>
        <time>2021-11-21T13:13:02Z</time>
      </trkpt>
      <trkpt lat="45.01476" lon="5.23345">
        <ele>847.06</ele>
        <time>2021-11-21T13:13:15Z</time>
      </trkpt>
      <trkpt lat="45.01463" lon="5.23334">
        <ele>848.02</ele>
        <time>2021-11-21T13:13:29Z</time>
      </trkpt>
      <trkpt lat="45.01456" lon="5.23324">
        <ele>849.46</ele>
        <time>2021-11-21T13:13:40Z</time>
      </trkpt>
      <trkpt lat="45.01449" lon="5.23308">
        <ele>850.9</ele>
        <time>2021-11-21T13:13:52Z</time>
      </trkpt>
      <trkpt lat="45.0144" lon="5.23294">
        <ele>852.83</ele>
        <time>2021-11-21T13:14:05Z</time>
      </trkpt>
      <trkpt lat="45.01429" lon="5.23281">
        <ele>854.27</ele>
        <time>2021-11-21T13:14:19Z</time>
      </trkpt>
      <trkpt lat="45.01424" lon="5.23275">
        <ele>854.75</ele>
        <time>2021-11-21T13:14:25Z</time>
      </trkpt>
      <trkpt lat="45.01417" lon="5.23258">
        <ele>856.67</ele>
        <time>2021-11-21T13:14:40Z</time>
      </trkpt>
      <trkpt lat="45.01411" lon="5.23244">
        <ele>858.11</ele>
        <time>2021-11-21T13:14:52Z</time>
      </trkpt>
      <trkpt lat="45.01405" lon="5.23226">
        <ele>859.56</ele>
        <time>2021-11-21T13:15:07Z</time>
      </trkpt>
      <trkpt lat="45.014" lon="5.23206">
        <ele>861.48</ele>
        <time>2021-11-21T13:15:20Z</time>
      </trkpt>
      <trkpt lat="45.01395" lon="5.23185">
        <ele>862.92</ele>
        <time>2021-11-21T13:15:35Z</time>
      </trkpt>
      <trkpt lat="45.01392" lon="5.23167">
        <ele>863.88</ele>
        <time>2021-11-21T13:15:48Z</time>
      </trkpt>
      <trkpt lat="45.01389" lon="5.23148">
        <ele>864.84</ele>
        <time>2021-11-21T13:16:00Z</time>
      </trkpt>
      <trkpt lat="45.01387" lon="5.2313">
        <ele>865.32</ele>
        <time>2021-11-21T13:16:12Z</time>
      </trkpt>
      <trkpt lat="45.01382" lon="5.23112">
        <ele>866.77</ele>
        <time>2021-11-21T13:16:23Z</time>
      </trkpt>
      <trkpt lat="45.01377" lon="5.23087">
        <ele>868.21</ele>
        <time>2021-11-21T13:16:40Z</time>
      </trkpt>
      <trkpt lat="45.0137" lon="5.23069">
        <ele>869.65</ele>
        <time>2021-11-21T13:16:54Z</time>
      </trkpt>
      <trkpt lat="45.01365" lon="5.23052">
        <ele>871.09</ele>
        <time>2021-11-21T13:17:07Z</time>
      </trkpt>
      <trkpt lat="45.01361" lon="5.23038">
        <ele>871.57</ele>
        <time>2021-11-21T13:17:18Z</time>
      </trkpt>
      <trkpt lat="45.01356" lon="5.23021">
        <ele>873.01</ele>
        <time>2021-11-21T13:17:29Z</time>
      </trkpt>
      <trkpt lat="45.01353" lon="5.23002">
        <ele>874.94</ele>
        <time>2021-11-21T13:17:41Z</time>
      </trkpt>
      <trkpt lat="45.01352" lon="5.22999">
        <ele>874.94</ele>
        <time>2021-11-21T13:17:44Z</time>
      </trkpt>
      <trkpt lat="45.01346" lon="5.22979">
        <ele>876.38</ele>
        <time>2021-11-21T13:17:56Z</time>
      </trkpt>
      <trkpt lat="45.01343" lon="5.22971">
        <ele>876.86</ele>
        <time>2021-11-21T13:18:09Z</time>
      </trkpt>
      <trkpt lat="45.01344" lon="5.22966">
        <ele>876.86</ele>
        <time>2021-11-21T13:18:26Z</time>
      </trkpt>
      <trkpt lat="45.01341" lon="5.22946">
        <ele>877.34</ele>
        <time>2021-11-21T13:18:40Z</time>
      </trkpt>
      <trkpt lat="45.0134" lon="5.22933">
        <ele>878.78</ele>
        <time>2021-11-21T13:18:48Z</time>
      </trkpt>
      <trkpt lat="45.01339" lon="5.22926">
        <ele>879.26</ele>
        <time>2021-11-21T13:18:53Z</time>
      </trkpt>
      <trkpt lat="45.0134" lon="5.22919">
        <ele>879.26</ele>
        <time>2021-11-21T13:18:58Z</time>
      </trkpt>
      <trkpt lat="45.01338" lon="5.22898">
        <ele>880.22</ele>
        <time>2021-11-21T13:19:11Z</time>
      </trkpt>
      <trkpt lat="45.01335" lon="5.2288">
        <ele>881.67</ele>
        <time>2021-11-21T13:19:24Z</time>
      </trkpt>
      <trkpt lat="45.01335" lon="5.2287">
        <ele>882.15</ele>
        <time>2021-11-21T13:19:31Z</time>
      </trkpt>
      <trkpt lat="45.01332" lon="5.22855">
        <ele>883.59</ele>
        <time>2021-11-21T13:19:44Z</time>
      </trkpt>
      <trkpt lat="45.01328" lon="5.22835">
        <ele>884.55</ele>
        <time>2021-11-21T13:19:58Z</time>
      </trkpt>
      <trkpt lat="45.01326" lon="5.22815">
        <ele>885.03</ele>
        <time>2021-11-21T13:20:12Z</time>
      </trkpt>
      <trkpt lat="45.01323" lon="5.22797">
        <ele>885.51</ele>
        <time>2021-11-21T13:20:23Z</time>
      </trkpt>
      <trkpt lat="45.0132" lon="5.22777">
        <ele>885.99</ele>
        <time>2021-11-21T13:20:37Z</time>
      </trkpt>
      <trkpt lat="45.01318" lon="5.22756">
        <ele>887.43</ele>
        <time>2021-11-21T13:20:49Z</time>
      </trkpt>
      <trkpt lat="45.01319" lon="5.2274">
        <ele>888.88</ele>
        <time>2021-11-21T13:21:02Z</time>
      </trkpt>
      <trkpt lat="45.01316" lon="5.22719">
        <ele>890.32</ele>
        <time>2021-11-21T13:21:15Z</time>
      </trkpt>
      <trkpt lat="45.01317" lon="5.22702">
        <ele>890.32</ele>
        <time>2021-11-21T13:21:28Z</time>
      </trkpt>
      <trkpt lat="45.01318" lon="5.22683">
        <ele>891.76</ele>
        <time>2021-11-21T13:21:41Z</time>
      </trkpt>
      <trkpt lat="45.01318" lon="5.22671">
        <ele>892.72</ele>
        <time>2021-11-21T13:21:48Z</time>
      </trkpt>
      <trkpt lat="45.01319" lon="5.22651">
        <ele>892.72</ele>
        <time>2021-11-21T13:22:00Z</time>
      </trkpt>
      <trkpt lat="45.0132" lon="5.22631">
        <ele>892.72</ele>
        <time>2021-11-21T13:22:14Z</time>
      </trkpt>
      <trkpt lat="45.01315" lon="5.22609">
        <ele>892.72</ele>
        <time>2021-11-21T13:22:29Z</time>
      </trkpt>
      <trkpt lat="45.01312" lon="5.22591">
        <ele>893.2</ele>
        <time>2021-11-21T13:22:41Z</time>
      </trkpt>
      <trkpt lat="45.01312" lon="5.22571">
        <ele>893.68</ele>
        <time>2021-11-21T13:22:53Z</time>
      </trkpt>
      <trkpt lat="45.01311" lon="5.22551">
        <ele>893.68</ele>
        <time>2021-11-21T13:23:03Z</time>
      </trkpt>
      <trkpt lat="45.01308" lon="5.22534">
        <ele>894.64</ele>
        <time>2021-11-21T13:23:14Z</time>
      </trkpt>
      <trkpt lat="45.01305" lon="5.22512">
        <ele>895.61</ele>
        <time>2021-11-21T13:23:28Z</time>
      </trkpt>
      <trkpt lat="45.01303" lon="5.22492">
        <ele>896.57</ele>
        <time>2021-11-21T13:23:40Z</time>
      </trkpt>
      <trkpt lat="45.01301" lon="5.22483">
        <ele>897.05</ele>
        <time>2021-11-21T13:23:46Z</time>
      </trkpt>
      <trkpt lat="45.01295" lon="5.22463">
        <ele>898.97</ele>
        <time>2021-11-21T13:24:02Z</time>
      </trkpt>
      <trkpt lat="45.01291" lon="5.22449">
        <ele>899.45</ele>
        <time>2021-11-21T13:24:15Z</time>
      </trkpt>
      <trkpt lat="45.01286" lon="5.22428">
        <ele>900.41</ele>
        <time>2021-11-21T13:24:29Z</time>
      </trkpt>
      <trkpt lat="45.01279" lon="5.224">
        <ele>901.37</ele>
        <time>2021-11-21T13:24:43Z</time>
      </trkpt>
      <trkpt lat="45.01275" lon="5.22379">
        <ele>902.82</ele>
        <time>2021-11-21T13:24:59Z</time>
      </trkpt>
      <trkpt lat="45.01268" lon="5.2236">
        <ele>903.78</ele>
        <time>2021-11-21T13:25:12Z</time>
      </trkpt>
      <trkpt lat="45.01266" lon="5.22339">
        <ele>904.74</ele>
        <time>2021-11-21T13:25:25Z</time>
      </trkpt>
      <trkpt lat="45.0126" lon="5.2232">
        <ele>905.7</ele>
        <time>2021-11-21T13:25:39Z</time>
      </trkpt>
      <trkpt lat="45.01256" lon="5.223">
        <ele>906.66</ele>
        <time>2021-11-21T13:25:52Z</time>
      </trkpt>
      <trkpt lat="45.01249" lon="5.22277">
        <ele>907.62</ele>
        <time>2021-11-21T13:26:08Z</time>
      </trkpt>
      <trkpt lat="45.01246" lon="5.2226">
        <ele>909.06</ele>
        <time>2021-11-21T13:26:20Z</time>
      </trkpt>
      <trkpt lat="45.0124" lon="5.2224">
        <ele>910.51</ele>
        <time>2021-11-21T13:26:34Z</time>
      </trkpt>
      <trkpt lat="45.01235" lon="5.22219">
        <ele>911.95</ele>
        <time>2021-11-21T13:26:46Z</time>
      </trkpt>
      <trkpt lat="45.01234" lon="5.2221">
        <ele>912.43</ele>
        <time>2021-11-21T13:26:51Z</time>
      </trkpt>
      <trkpt lat="45.01227" lon="5.22192">
        <ele>913.87</ele>
        <time>2021-11-21T13:27:06Z</time>
      </trkpt>
      <trkpt lat="45.01223" lon="5.22174">
        <ele>915.31</ele>
        <time>2021-11-21T13:27:20Z</time>
      </trkpt>
      <trkpt lat="45.0122" lon="5.22159">
        <ele>916.75</ele>
        <time>2021-11-21T13:27:33Z</time>
      </trkpt>
      <trkpt lat="45.01222" lon="5.22137">
        <ele>919.16</ele>
        <time>2021-11-21T13:27:47Z</time>
      </trkpt>
      <trkpt lat="45.0123" lon="5.22128">
        <ele>921.08</ele>
        <time>2021-11-21T13:28:01Z</time>
      </trkpt>
      <trkpt lat="45.01243" lon="5.22125">
        <ele>922.52</ele>
        <time>2021-11-21T13:28:16Z</time>
      </trkpt>
      <trkpt lat="45.01259" lon="5.22117">
        <ele>924.45</ele>
        <time>2021-11-21T13:28:31Z</time>
      </trkpt>
      <trkpt lat="45.01274" lon="5.22098">
        <ele>926.37</ele>
        <time>2021-11-21T13:28:48Z</time>
      </trkpt>
      <trkpt lat="45.01284" lon="5.22078">
        <ele>928.77</ele>
        <time>2021-11-21T13:29:05Z</time>
      </trkpt>
      <trkpt lat="45.01286" lon="5.22076">
        <ele>928.77</ele>
        <time>2021-11-21T13:29:06Z</time>
      </trkpt>
      <trkpt lat="45.01297" lon="5.22059">
        <ele>929.25</ele>
        <time>2021-11-21T13:29:22Z</time>
      </trkpt>
      <trkpt lat="45.01308" lon="5.22041">
        <ele>929.73</ele>
        <time>2021-11-21T13:29:35Z</time>
      </trkpt>
      <trkpt lat="45.01315" lon="5.22019">
        <ele>930.69</ele>
        <time>2021-11-21T13:29:49Z</time>
      </trkpt>
      <trkpt lat="45.01315" lon="5.22017">
        <ele>930.69</ele>
        <time>2021-11-21T13:29:50Z</time>
      </trkpt>
      <trkpt lat="45.01324" lon="5.21999">
        <ele>932.62</ele>
        <time>2021-11-21T13:30:04Z</time>
      </trkpt>
      <trkpt lat="45.0133" lon="5.21996">
        <ele>933.58</ele>
        <time>2021-11-21T13:30:13Z</time>
      </trkpt>
      <trkpt lat="45.01349" lon="5.2199">
        <ele>935.02</ele>
        <time>2021-11-21T13:30:29Z</time>
      </trkpt>
      <trkpt lat="45.01368" lon="5.21988">
        <ele>935.5</ele>
        <time>2021-11-21T13:30:45Z</time>
      </trkpt>
      <trkpt lat="45.01378" lon="5.21985">
        <ele>935.98</ele>
        <time>2021-11-21T13:31:04Z</time>
      </trkpt>
      <trkpt lat="45.01382" lon="5.21983">
        <ele>935.98</ele>
        <time>2021-11-21T13:31:18Z</time>
      </trkpt>
      <trkpt lat="45.01384" lon="5.21977">
        <ele>935.98</ele>
        <time>2021-11-21T13:35:29Z</time>
      </trkpt>
      <trkpt lat="45.01398" lon="5.21978">
        <ele>934.06</ele>
        <time>2021-11-21T13:35:44Z</time>
      </trkpt>
      <trkpt lat="45.01407" lon="5.21987">
        <ele>932.14</ele>
        <time>2021-11-21T13:35:58Z</time>
      </trkpt>
      <trkpt lat="45.01424" lon="5.21992">
        <ele>928.77</ele>
        <time>2021-11-21T13:36:15Z</time>
      </trkpt>
      <trkpt lat="45.01439" lon="5.21991">
        <ele>926.37</ele>
        <time>2021-11-21T13:36:28Z</time>
      </trkpt>
      <trkpt lat="45.01445" lon="5.21989">
        <ele>922.52</ele>
        <time>2021-11-21T13:36:39Z</time>
      </trkpt>
      <trkpt lat="45.01457" lon="5.21986">
        <ele>920.12</ele>
        <time>2021-11-21T13:36:53Z</time>
      </trkpt>
      <trkpt lat="45.0147" lon="5.21982">
        <ele>917.72</ele>
        <time>2021-11-21T13:37:04Z</time>
      </trkpt>
      <trkpt lat="45.01484" lon="5.21977">
        <ele>914.83</ele>
        <time>2021-11-21T13:37:16Z</time>
      </trkpt>
      <trkpt lat="45.01499" lon="5.21967">
        <ele>913.39</ele>
        <time>2021-11-21T13:37:28Z</time>
      </trkpt>
      <trkpt lat="45.01502" lon="5.21965">
        <ele>913.39</ele>
        <time>2021-11-21T13:37:31Z</time>
      </trkpt>
      <trkpt lat="45.01505" lon="5.21966">
        <ele>912.43</ele>
        <time>2021-11-21T13:37:35Z</time>
      </trkpt>
      <trkpt lat="45.01524" lon="5.21953">
        <ele>910.51</ele>
        <time>2021-11-21T13:37:51Z</time>
      </trkpt>
      <trkpt lat="45.01532" lon="5.21947">
        <ele>909.54</ele>
        <time>2021-11-21T13:38:00Z</time>
      </trkpt>
      <trkpt lat="45.01553" lon="5.21937">
        <ele>907.62</ele>
        <time>2021-11-21T13:38:14Z</time>
      </trkpt>
      <trkpt lat="45.01562" lon="5.21928">
        <ele>906.66</ele>
        <time>2021-11-21T13:38:25Z</time>
      </trkpt>
      <trkpt lat="45.01574" lon="5.21922">
        <ele>905.22</ele>
        <time>2021-11-21T13:38:37Z</time>
      </trkpt>
      <trkpt lat="45.01588" lon="5.21914">
        <ele>903.3</ele>
        <time>2021-11-21T13:38:51Z</time>
      </trkpt>
      <trkpt lat="45.01597" lon="5.21908">
        <ele>902.33</ele>
        <time>2021-11-21T13:39:07Z</time>
      </trkpt>
      <trkpt lat="45.01598" lon="5.21904">
        <ele>901.85</ele>
        <time>2021-11-21T13:39:28Z</time>
      </trkpt>
      <trkpt lat="45.01604" lon="5.21899">
        <ele>901.85</ele>
        <time>2021-11-21T13:39:48Z</time>
      </trkpt>
      <trkpt lat="45.0161" lon="5.21898">
        <ele>900.89</ele>
        <time>2021-11-21T13:40:04Z</time>
      </trkpt>
      <trkpt lat="45.01611" lon="5.21896">
        <ele>900.89</ele>
        <time>2021-11-21T13:40:20Z</time>
      </trkpt>
      <trkpt lat="45.01617" lon="5.21896">
        <ele>900.89</ele>
        <time>2021-11-21T13:40:36Z</time>
      </trkpt>
      <trkpt lat="45.0163" lon="5.219">
        <ele>899.93</ele>
        <time>2021-11-21T13:40:50Z</time>
      </trkpt>
      <trkpt lat="45.0164" lon="5.21905">
        <ele>898.49</ele>
        <time>2021-11-21T13:41:04Z</time>
      </trkpt>
      <trkpt lat="45.0166" lon="5.21914">
        <ele>896.09</ele>
        <time>2021-11-21T13:41:20Z</time>
      </trkpt>
      <trkpt lat="45.01673" lon="5.21917">
        <ele>893.2</ele>
        <time>2021-11-21T13:41:35Z</time>
      </trkpt>
      <trkpt lat="45.0168" lon="5.21916">
        <ele>889.84</ele>
        <time>2021-11-21T13:41:44Z</time>
      </trkpt>
      <trkpt lat="45.01692" lon="5.21915">
        <ele>886.95</ele>
        <time>2021-11-21T13:41:55Z</time>
      </trkpt>
      <trkpt lat="45.01714" lon="5.21916">
        <ele>884.07</ele>
        <time>2021-11-21T13:42:10Z</time>
      </trkpt>
      <trkpt lat="45.01726" lon="5.21917">
        <ele>882.63</ele>
        <time>2021-11-21T13:42:24Z</time>
      </trkpt>
      <trkpt lat="45.01733" lon="5.21921">
        <ele>881.19</ele>
        <time>2021-11-21T13:42:37Z</time>
      </trkpt>
      <trkpt lat="45.01743" lon="5.21922">
        <ele>877.82</ele>
        <time>2021-11-21T13:42:51Z</time>
      </trkpt>
      <trkpt lat="45.01749" lon="5.21921">
        <ele>874.94</ele>
        <time>2021-11-21T13:43:04Z</time>
      </trkpt>
      <trkpt lat="45.01763" lon="5.21922">
        <ele>873.5</ele>
        <time>2021-11-21T13:43:16Z</time>
      </trkpt>
      <trkpt lat="45.01779" lon="5.21919">
        <ele>872.05</ele>
        <time>2021-11-21T13:43:34Z</time>
      </trkpt>
      <trkpt lat="45.01803" lon="5.21917">
        <ele>871.57</ele>
        <time>2021-11-21T13:43:49Z</time>
      </trkpt>
      <trkpt lat="45.01826" lon="5.21915">
        <ele>871.09</ele>
        <time>2021-11-21T13:44:05Z</time>
      </trkpt>
      <trkpt lat="45.01848" lon="5.21914">
        <ele>871.09</ele>
        <time>2021-11-21T13:44:20Z</time>
      </trkpt>
      <trkpt lat="45.01866" lon="5.21914">
        <ele>872.53</ele>
        <time>2021-11-21T13:44:34Z</time>
      </trkpt>
      <trkpt lat="45.01882" lon="5.21913">
        <ele>873.5</ele>
        <time>2021-11-21T13:44:49Z</time>
      </trkpt>
      <trkpt lat="45.0189" lon="5.21911">
        <ele>874.94</ele>
        <time>2021-11-21T13:49:00Z</time>
      </trkpt>
      <trkpt lat="45.01893" lon="5.21909">
        <ele>874.94</ele>
        <time>2021-11-21T13:49:23Z</time>
      </trkpt>
      <trkpt lat="45.019" lon="5.21904">
        <ele>872.05</ele>
        <time>2021-11-21T13:49:38Z</time>
      </trkpt>
      <trkpt lat="45.01908" lon="5.21898">
        <ele>868.69</ele>
        <time>2021-11-21T13:49:52Z</time>
      </trkpt>
      <trkpt lat="45.01919" lon="5.21892">
        <ele>867.25</ele>
        <time>2021-11-21T13:50:09Z</time>
      </trkpt>
      <trkpt lat="45.01937" lon="5.21891">
        <ele>866.77</ele>
        <time>2021-11-21T13:50:26Z</time>
      </trkpt>
      <trkpt lat="45.01947" lon="5.21887">
        <ele>866.77</ele>
        <time>2021-11-21T13:50:42Z</time>
      </trkpt>
      <trkpt lat="45.01955" lon="5.21886">
        <ele>865.8</ele>
        <time>2021-11-21T13:50:57Z</time>
      </trkpt>
      <trkpt lat="45.01968" lon="5.21885">
        <ele>863.4</ele>
        <time>2021-11-21T13:51:13Z</time>
      </trkpt>
      <trkpt lat="45.01981" lon="5.21881">
        <ele>861.48</ele>
        <time>2021-11-21T13:51:27Z</time>
      </trkpt>
      <trkpt lat="45.01999" lon="5.21869">
        <ele>859.08</ele>
        <time>2021-11-21T13:51:43Z</time>
      </trkpt>
      <trkpt lat="45.02005" lon="5.21854">
        <ele>856.67</ele>
        <time>2021-11-21T13:51:57Z</time>
      </trkpt>
      <trkpt lat="45.02004" lon="5.21837">
        <ele>853.31</ele>
        <time>2021-11-21T13:52:12Z</time>
      </trkpt>
      <trkpt lat="45.02008" lon="5.21817">
        <ele>851.38</ele>
        <time>2021-11-21T13:52:24Z</time>
      </trkpt>
      <trkpt lat="45.02014" lon="5.21815">
        <ele>849.46</ele>
        <time>2021-11-21T13:52:39Z</time>
      </trkpt>
      <trkpt lat="45.02022" lon="5.21821">
        <ele>847.54</ele>
        <time>2021-11-21T13:52:55Z</time>
      </trkpt>
      <trkpt lat="45.02036" lon="5.21829">
        <ele>845.14</ele>
        <time>2021-11-21T13:53:11Z</time>
      </trkpt>
      <trkpt lat="45.02048" lon="5.21836">
        <ele>842.73</ele>
        <time>2021-11-21T13:53:23Z</time>
      </trkpt>
      <trkpt lat="45.02059" lon="5.21841">
        <ele>840.81</ele>
        <time>2021-11-21T13:53:38Z</time>
      </trkpt>
      <trkpt lat="45.02065" lon="5.21841">
        <ele>837.45</ele>
        <time>2021-11-21T13:53:52Z</time>
      </trkpt>
      <trkpt lat="45.02073" lon="5.21843">
        <ele>834.08</ele>
        <time>2021-11-21T13:54:05Z</time>
      </trkpt>
      <trkpt lat="45.02084" lon="5.2185">
        <ele>831.2</ele>
        <time>2021-11-21T13:54:19Z</time>
      </trkpt>
      <trkpt lat="45.02092" lon="5.21865">
        <ele>828.31</ele>
        <time>2021-11-21T13:54:35Z</time>
      </trkpt>
      <trkpt lat="45.02097" lon="5.21873">
        <ele>828.31</ele>
        <time>2021-11-21T13:54:50Z</time>
      </trkpt>
      <trkpt lat="45.02107" lon="5.21872">
        <ele>827.83</ele>
        <time>2021-11-21T13:55:01Z</time>
      </trkpt>
      <trkpt lat="45.02121" lon="5.21864">
        <ele>824.95</ele>
        <time>2021-11-21T13:55:16Z</time>
      </trkpt>
      <trkpt lat="45.02138" lon="5.21851">
        <ele>822.06</ele>
        <time>2021-11-21T13:55:30Z</time>
      </trkpt>
      <trkpt lat="45.02147" lon="5.21847">
        <ele>820.14</ele>
        <time>2021-11-21T13:55:42Z</time>
      </trkpt>
      <trkpt lat="45.02156" lon="5.2184">
        <ele>817.26</ele>
        <time>2021-11-21T13:55:52Z</time>
      </trkpt>
      <trkpt lat="45.02168" lon="5.2184">
        <ele>814.37</ele>
        <time>2021-11-21T13:56:05Z</time>
      </trkpt>
      <trkpt lat="45.0218" lon="5.21836">
        <ele>811.01</ele>
        <time>2021-11-21T13:56:18Z</time>
      </trkpt>
      <trkpt lat="45.02195" lon="5.2184">
        <ele>808.13</ele>
        <time>2021-11-21T13:56:34Z</time>
      </trkpt>
      <trkpt lat="45.02203" lon="5.21838">
        <ele>808.13</ele>
        <time>2021-11-21T13:56:53Z</time>
      </trkpt>
      <trkpt lat="45.02206" lon="5.21842">
        <ele>807.64</ele>
        <time>2021-11-21T13:57:07Z</time>
      </trkpt>
      <trkpt lat="45.0221" lon="5.21849">
        <ele>806.68</ele>
        <time>2021-11-21T13:57:21Z</time>
      </trkpt>
      <trkpt lat="45.02223" lon="5.21857">
        <ele>805.24</ele>
        <time>2021-11-21T13:57:38Z</time>
      </trkpt>
      <trkpt lat="45.02237" lon="5.21862">
        <ele>802.36</ele>
        <time>2021-11-21T13:57:50Z</time>
      </trkpt>
      <trkpt lat="45.02248" lon="5.21865">
        <ele>800.44</ele>
        <time>2021-11-21T13:57:59Z</time>
      </trkpt>
      <trkpt lat="45.02266" lon="5.21863">
        <ele>798.03</ele>
        <time>2021-11-21T13:58:13Z</time>
      </trkpt>
      <trkpt lat="45.02278" lon="5.21856">
        <ele>794.67</ele>
        <time>2021-11-21T13:58:29Z</time>
      </trkpt>
      <trkpt lat="45.02287" lon="5.2185">
        <ele>791.78</ele>
        <time>2021-11-21T13:58:42Z</time>
      </trkpt>
      <trkpt lat="45.02292" lon="5.21847">
        <ele>790.82</ele>
        <time>2021-11-21T13:58:56Z</time>
      </trkpt>
      <trkpt lat="45.02299" lon="5.21844">
        <ele>789.38</ele>
        <time>2021-11-21T13:59:12Z</time>
      </trkpt>
      <trkpt lat="45.02309" lon="5.21836">
        <ele>786.5</ele>
        <time>2021-11-21T13:59:25Z</time>
      </trkpt>
      <trkpt lat="45.02319" lon="5.21829">
        <ele>783.13</ele>
        <time>2021-11-21T13:59:38Z</time>
      </trkpt>
      <trkpt lat="45.02328" lon="5.21826">
        <ele>780.73</ele>
        <time>2021-11-21T13:59:51Z</time>
      </trkpt>
      <trkpt lat="45.02337" lon="5.21821">
        <ele>778.32</ele>
        <time>2021-11-21T14:00:08Z</time>
      </trkpt>
      <trkpt lat="45.02342" lon="5.21817">
        <ele>776.4</ele>
        <time>2021-11-21T14:00:24Z</time>
      </trkpt>
      <trkpt lat="45.02345" lon="5.21788">
        <ele>774</ele>
        <time>2021-11-21T14:00:42Z</time>
      </trkpt>
      <trkpt lat="45.02349" lon="5.21774">
        <ele>772.56</ele>
        <time>2021-11-21T14:00:51Z</time>
      </trkpt>
      <trkpt lat="45.02359" lon="5.21755">
        <ele>770.15</ele>
        <time>2021-11-21T14:01:08Z</time>
      </trkpt>
      <trkpt lat="45.02372" lon="5.21749">
        <ele>768.23</ele>
        <time>2021-11-21T14:01:23Z</time>
      </trkpt>
      <trkpt lat="45.02388" lon="5.21745">
        <ele>766.79</ele>
        <time>2021-11-21T14:01:36Z</time>
      </trkpt>
      <trkpt lat="45.02401" lon="5.2174">
        <ele>764.87</ele>
        <time>2021-11-21T14:01:49Z</time>
      </trkpt>
      <trkpt lat="45.02407" lon="5.21737">
        <ele>763.9</ele>
        <time>2021-11-21T14:01:55Z</time>
      </trkpt>
      <trkpt lat="45.02411" lon="5.21736">
        <ele>763.9</ele>
        <time>2021-11-21T14:01:57Z</time>
      </trkpt>
      <trkpt lat="45.02419" lon="5.21735">
        <ele>763.42</ele>
        <time>2021-11-21T14:02:01Z</time>
      </trkpt>
      <trkpt lat="45.02433" lon="5.21731">
        <ele>762.46</ele>
        <time>2021-11-21T14:02:16Z</time>
      </trkpt>
      <trkpt lat="45.02451" lon="5.21724">
        <ele>761.02</ele>
        <time>2021-11-21T14:02:31Z</time>
      </trkpt>
      <trkpt lat="45.02463" lon="5.21721">
        <ele>759.58</ele>
        <time>2021-11-21T14:02:45Z</time>
      </trkpt>
      <trkpt lat="45.02473" lon="5.21716">
        <ele>756.69</ele>
        <time>2021-11-21T14:03:01Z</time>
      </trkpt>
      <trkpt lat="45.02482" lon="5.21713">
        <ele>753.81</ele>
        <time>2021-11-21T14:03:13Z</time>
      </trkpt>
      <trkpt lat="45.02494" lon="5.21707">
        <ele>750.45</ele>
        <time>2021-11-21T14:03:27Z</time>
      </trkpt>
      <trkpt lat="45.02503" lon="5.21701">
        <ele>746.6</ele>
        <time>2021-11-21T14:03:41Z</time>
      </trkpt>
      <trkpt lat="45.02513" lon="5.21695">
        <ele>743.72</ele>
        <time>2021-11-21T14:03:52Z</time>
      </trkpt>
      <trkpt lat="45.02524" lon="5.21691">
        <ele>740.83</ele>
        <time>2021-11-21T14:04:04Z</time>
      </trkpt>
      <trkpt lat="45.02535" lon="5.21687">
        <ele>737.95</ele>
        <time>2021-11-21T14:04:15Z</time>
      </trkpt>
      <trkpt lat="45.02546" lon="5.21682">
        <ele>735.07</ele>
        <time>2021-11-21T14:04:27Z</time>
      </trkpt>
      <trkpt lat="45.02556" lon="5.21676">
        <ele>731.7</ele>
        <time>2021-11-21T14:04:38Z</time>
      </trkpt>
      <trkpt lat="45.02566" lon="5.21673">
        <ele>728.34</ele>
        <time>2021-11-21T14:04:51Z</time>
      </trkpt>
      <trkpt lat="45.02576" lon="5.2167">
        <ele>724.97</ele>
        <time>2021-11-21T14:05:06Z</time>
      </trkpt>
      <trkpt lat="45.02589" lon="5.21666">
        <ele>721.61</ele>
        <time>2021-11-21T14:05:19Z</time>
      </trkpt>
      <trkpt lat="45.02599" lon="5.21661">
        <ele>719.2</ele>
        <time>2021-11-21T14:05:33Z</time>
      </trkpt>
      <trkpt lat="45.02605" lon="5.21655">
        <ele>715.36</ele>
        <time>2021-11-21T14:05:47Z</time>
      </trkpt>
      <trkpt lat="45.02612" lon="5.21648">
        <ele>712.47</ele>
        <time>2021-11-21T14:06:01Z</time>
      </trkpt>
      <trkpt lat="45.02616" lon="5.21644">
        <ele>711.03</ele>
        <time>2021-11-21T14:06:17Z</time>
      </trkpt>
      <trkpt lat="45.02624" lon="5.21639">
        <ele>707.67</ele>
        <time>2021-11-21T14:06:26Z</time>
      </trkpt>
      <trkpt lat="45.02634" lon="5.21634">
        <ele>704.78</ele>
        <time>2021-11-21T14:06:38Z</time>
      </trkpt>
      <trkpt lat="45.02643" lon="5.21632">
        <ele>702.38</ele>
        <time>2021-11-21T14:06:50Z</time>
      </trkpt>
      <trkpt lat="45.02652" lon="5.21629">
        <ele>699.5</ele>
        <time>2021-11-21T14:07:02Z</time>
      </trkpt>
      <trkpt lat="45.02669" lon="5.21629">
        <ele>696.61</ele>
        <time>2021-11-21T14:07:15Z</time>
      </trkpt>
      <trkpt lat="45.02679" lon="5.21624">
        <ele>693.25</ele>
        <time>2021-11-21T14:07:24Z</time>
      </trkpt>
      <trkpt lat="45.02691" lon="5.21623">
        <ele>689.88</ele>
        <time>2021-11-21T14:07:36Z</time>
      </trkpt>
      <trkpt lat="45.02704" lon="5.21622">
        <ele>687</ele>
        <time>2021-11-21T14:07:50Z</time>
      </trkpt>
      <trkpt lat="45.02711" lon="5.21618">
        <ele>683.63</ele>
        <time>2021-11-21T14:08:01Z</time>
      </trkpt>
      <trkpt lat="45.02721" lon="5.21617">
        <ele>680.27</ele>
        <time>2021-11-21T14:08:13Z</time>
      </trkpt>
      <trkpt lat="45.02735" lon="5.21621">
        <ele>677.39</ele>
        <time>2021-11-21T14:08:27Z</time>
      </trkpt>
      <trkpt lat="45.02747" lon="5.21618">
        <ele>673.54</ele>
        <time>2021-11-21T14:08:40Z</time>
      </trkpt>
      <trkpt lat="45.02751" lon="5.21613">
        <ele>673.54</ele>
        <time>2021-11-21T14:08:58Z</time>
      </trkpt>
      <trkpt lat="45.02748" lon="5.2161">
        <ele>673.06</ele>
        <time>2021-11-21T14:09:22Z</time>
      </trkpt>
      <trkpt lat="45.02738" lon="5.21594">
        <ele>671.14</ele>
        <time>2021-11-21T14:09:39Z</time>
      </trkpt>
      <trkpt lat="45.02726" lon="5.21582">
        <ele>669.22</ele>
        <time>2021-11-21T14:09:55Z</time>
      </trkpt>
      <trkpt lat="45.02715" lon="5.21564">
        <ele>667.29</ele>
        <time>2021-11-21T14:10:07Z</time>
      </trkpt>
      <trkpt lat="45.02703" lon="5.21546">
        <ele>665.37</ele>
        <time>2021-11-21T14:10:20Z</time>
      </trkpt>
      <trkpt lat="45.02701" lon="5.21542">
        <ele>664.89</ele>
        <time>2021-11-21T14:10:22Z</time>
      </trkpt>
      <trkpt lat="45.02684" lon="5.21521">
        <ele>662.97</ele>
        <time>2021-11-21T14:10:38Z</time>
      </trkpt>
      <trkpt lat="45.02668" lon="5.2151">
        <ele>661.52</ele>
        <time>2021-11-21T14:10:52Z</time>
      </trkpt>
      <trkpt lat="45.02646" lon="5.215">
        <ele>659.12</ele>
        <time>2021-11-21T14:11:11Z</time>
      </trkpt>
      <trkpt lat="45.0263" lon="5.2149">
        <ele>657.2</ele>
        <time>2021-11-21T14:11:25Z</time>
      </trkpt>
      <trkpt lat="45.02623" lon="5.21483">
        <ele>656.24</ele>
        <time>2021-11-21T14:11:31Z</time>
      </trkpt>
      <trkpt lat="45.02619" lon="5.21479">
        <ele>655.76</ele>
        <time>2021-11-21T14:11:35Z</time>
      </trkpt>
      <trkpt lat="45.02612" lon="5.21473">
        <ele>654.8</ele>
        <time>2021-11-21T14:11:42Z</time>
      </trkpt>
      <trkpt lat="45.02591" lon="5.21458">
        <ele>652.39</ele>
        <time>2021-11-21T14:12:01Z</time>
      </trkpt>
      <trkpt lat="45.02572" lon="5.21452">
        <ele>650.47</ele>
        <time>2021-11-21T14:12:17Z</time>
      </trkpt>
      <trkpt lat="45.02555" lon="5.21441">
        <ele>647.59</ele>
        <time>2021-11-21T14:12:32Z</time>
      </trkpt>
      <trkpt lat="45.02541" lon="5.2143">
        <ele>646.14</ele>
        <time>2021-11-21T14:12:43Z</time>
      </trkpt>
      <trkpt lat="45.02539" lon="5.21428">
        <ele>646.14</ele>
        <time>2021-11-21T14:12:45Z</time>
      </trkpt>
      <trkpt lat="45.02528" lon="5.2142">
        <ele>644.7</ele>
        <time>2021-11-21T14:13:00Z</time>
      </trkpt>
      <trkpt lat="45.0253" lon="5.21418">
        <ele>644.7</ele>
        <time>2021-11-21T14:13:18Z</time>
      </trkpt>
      <trkpt lat="45.02529" lon="5.21414">
        <ele>644.7</ele>
        <time>2021-11-21T14:13:38Z</time>
      </trkpt>
      <trkpt lat="45.02524" lon="5.21401">
        <ele>643.26</ele>
        <time>2021-11-21T14:13:51Z</time>
      </trkpt>
      <trkpt lat="45.02521" lon="5.21378">
        <ele>641.34</ele>
        <time>2021-11-21T14:14:05Z</time>
      </trkpt>
      <trkpt lat="45.02511" lon="5.21352">
        <ele>637.97</ele>
        <time>2021-11-21T14:14:22Z</time>
      </trkpt>
      <trkpt lat="45.02499" lon="5.21333">
        <ele>636.05</ele>
        <time>2021-11-21T14:14:36Z</time>
      </trkpt>
      <trkpt lat="45.02483" lon="5.21315">
        <ele>634.13</ele>
        <time>2021-11-21T14:14:52Z</time>
      </trkpt>
      <trkpt lat="45.02463" lon="5.21309">
        <ele>630.76</ele>
        <time>2021-11-21T14:15:09Z</time>
      </trkpt>
      <trkpt lat="45.0245" lon="5.213">
        <ele>628.36</ele>
        <time>2021-11-21T14:15:25Z</time>
      </trkpt>
      <trkpt lat="45.02451" lon="5.21272">
        <ele>625.47</ele>
        <time>2021-11-21T14:15:43Z</time>
      </trkpt>
      <trkpt lat="45.02445" lon="5.21249">
        <ele>623.07</ele>
        <time>2021-11-21T14:16:01Z</time>
      </trkpt>
      <trkpt lat="45.0244" lon="5.21231">
        <ele>621.63</ele>
        <time>2021-11-21T14:16:13Z</time>
      </trkpt>
      <trkpt lat="45.02437" lon="5.21224">
        <ele>620.67</ele>
        <time>2021-11-21T14:16:18Z</time>
      </trkpt>
      <trkpt lat="45.02421" lon="5.21197">
        <ele>618.26</ele>
        <time>2021-11-21T14:16:37Z</time>
      </trkpt>
      <trkpt lat="45.02416" lon="5.21188">
        <ele>617.3</ele>
        <time>2021-11-21T14:16:45Z</time>
      </trkpt>
      <trkpt lat="45.024" lon="5.21168">
        <ele>614.9</ele>
        <time>2021-11-21T14:17:02Z</time>
      </trkpt>
      <trkpt lat="45.02384" lon="5.2115">
        <ele>612.5</ele>
        <time>2021-11-21T14:17:18Z</time>
      </trkpt>
      <trkpt lat="45.02374" lon="5.21144">
        <ele>611.06</ele>
        <time>2021-11-21T14:17:28Z</time>
      </trkpt>
      <trkpt lat="45.02353" lon="5.21142">
        <ele>608.65</ele>
        <time>2021-11-21T14:17:45Z</time>
      </trkpt>
      <trkpt lat="45.02334" lon="5.21138">
        <ele>606.73</ele>
        <time>2021-11-21T14:18:00Z</time>
      </trkpt>
      <trkpt lat="45.02325" lon="5.21131">
        <ele>606.25</ele>
        <time>2021-11-21T14:18:15Z</time>
      </trkpt>
      <trkpt lat="45.02326" lon="5.21128">
        <ele>606.25</ele>
        <time>2021-11-21T14:18:38Z</time>
      </trkpt>
      <trkpt lat="45.02323" lon="5.21124">
        <ele>607.69</ele>
        <time>2021-11-21T14:18:41Z</time>
      </trkpt>
      <trkpt lat="45.02316" lon="5.2111">
        <ele>608.65</ele>
        <time>2021-11-21T14:18:56Z</time>
      </trkpt>
      <trkpt lat="45.0231" lon="5.21105">
        <ele>609.13</ele>
        <time>2021-11-21T14:19:11Z</time>
      </trkpt>
      <trkpt lat="45.02304" lon="5.21119">
        <ele>609.13</ele>
        <time>2021-11-21T14:19:24Z</time>
      </trkpt>
      <trkpt lat="45.02301" lon="5.21128">
        <ele>609.13</ele>
        <time>2021-11-21T14:19:32Z</time>
      </trkpt>
      <trkpt lat="45.02295" lon="5.21146">
        <ele>609.13</ele>
        <time>2021-11-21T14:19:47Z</time>
      </trkpt>
      <trkpt lat="45.02285" lon="5.21167">
        <ele>609.13</ele>
        <time>2021-11-21T14:20:02Z</time>
      </trkpt>
      <trkpt lat="45.02274" lon="5.21188">
        <ele>609.13</ele>
        <time>2021-11-21T14:20:17Z</time>
      </trkpt>
      <trkpt lat="45.02261" lon="5.21208">
        <ele>609.13</ele>
        <time>2021-11-21T14:20:32Z</time>
      </trkpt>
      <trkpt lat="45.02245" lon="5.21228">
        <ele>609.13</ele>
        <time>2021-11-21T14:20:50Z</time>
      </trkpt>
      <trkpt lat="45.0223" lon="5.21246">
        <ele>609.13</ele>
        <time>2021-11-21T14:21:06Z</time>
      </trkpt>
      <trkpt lat="45.02218" lon="5.21256">
        <ele>609.13</ele>
        <time>2021-11-21T14:21:18Z</time>
      </trkpt>
      <trkpt lat="45.02204" lon="5.21266">
        <ele>609.13</ele>
        <time>2021-11-21T14:21:33Z</time>
      </trkpt>
      <trkpt lat="45.02191" lon="5.21274">
        <ele>609.13</ele>
        <time>2021-11-21T14:21:45Z</time>
      </trkpt>
      <trkpt lat="45.02177" lon="5.21283">
        <ele>608.65</ele>
        <time>2021-11-21T14:21:57Z</time>
      </trkpt>
      <trkpt lat="45.02164" lon="5.21288">
        <ele>609.13</ele>
        <time>2021-11-21T14:22:09Z</time>
      </trkpt>
      <trkpt lat="45.02159" lon="5.21281">
        <ele>609.13</ele>
        <time>2021-11-21T14:24:43Z</time>
      </trkpt>
      <trkpt lat="45.02166" lon="5.21273">
        <ele>608.17</ele>
        <time>2021-11-21T14:24:59Z</time>
      </trkpt>
      <trkpt lat="45.02177" lon="5.21255">
        <ele>604.81</ele>
        <time>2021-11-21T14:25:15Z</time>
      </trkpt>
      <trkpt lat="45.02182" lon="5.21242">
        <ele>602.88</ele>
        <time>2021-11-21T14:25:30Z</time>
      </trkpt>
      <trkpt lat="45.02193" lon="5.2122">
        <ele>602.88</ele>
        <time>2021-11-21T14:25:44Z</time>
      </trkpt>
      <trkpt lat="45.02198" lon="5.212">
        <ele>602.88</ele>
        <time>2021-11-21T14:25:58Z</time>
      </trkpt>
      <trkpt lat="45.02195" lon="5.21178">
        <ele>602.88</ele>
        <time>2021-11-21T14:26:14Z</time>
      </trkpt>
      <trkpt lat="45.02184" lon="5.21153">
        <ele>602.88</ele>
        <time>2021-11-21T14:26:31Z</time>
      </trkpt>
      <trkpt lat="45.02176" lon="5.21135">
        <ele>600.48</ele>
        <time>2021-11-21T14:26:46Z</time>
      </trkpt>
      <trkpt lat="45.02167" lon="5.21121">
        <ele>599.52</ele>
        <time>2021-11-21T14:27:00Z</time>
      </trkpt>
      <trkpt lat="45.02161" lon="5.21109">
        <ele>596.15</ele>
        <time>2021-11-21T14:27:14Z</time>
      </trkpt>
      <trkpt lat="45.02155" lon="5.21088">
        <ele>593.75</ele>
        <time>2021-11-21T14:27:28Z</time>
      </trkpt>
      <trkpt lat="45.02145" lon="5.21062">
        <ele>591.35</ele>
        <time>2021-11-21T14:27:43Z</time>
      </trkpt>
      <trkpt lat="45.02138" lon="5.21042">
        <ele>587.98</ele>
        <time>2021-11-21T14:27:56Z</time>
      </trkpt>
      <trkpt lat="45.02133" lon="5.21031">
        <ele>584.62</ele>
        <time>2021-11-21T14:28:08Z</time>
      </trkpt>
      <trkpt lat="45.02127" lon="5.21017">
        <ele>581.25</ele>
        <time>2021-11-21T14:28:22Z</time>
      </trkpt>
      <trkpt lat="45.02124" lon="5.21002">
        <ele>577.89</ele>
        <time>2021-11-21T14:28:34Z</time>
      </trkpt>
      <trkpt lat="45.02116" lon="5.2098">
        <ele>575.01</ele>
        <time>2021-11-21T14:28:49Z</time>
      </trkpt>
      <trkpt lat="45.02111" lon="5.20958">
        <ele>574.04</ele>
        <time>2021-11-21T14:29:04Z</time>
      </trkpt>
      <trkpt lat="45.02109" lon="5.20938">
        <ele>573.08</ele>
        <time>2021-11-21T14:29:30Z</time>
      </trkpt>
      <trkpt lat="45.02115" lon="5.2094">
        <ele>573.08</ele>
        <time>2021-11-21T14:29:59Z</time>
      </trkpt>
      <trkpt lat="45.02117" lon="5.20937">
        <ele>573.08</ele>
        <time>2021-11-21T14:30:44Z</time>
      </trkpt>
      <trkpt lat="45.02117" lon="5.20937">
        <ele>572.6</ele>
        <time>2021-11-21T14:31:09Z</time>
      </trkpt>
      <trkpt lat="45.02121" lon="5.20931">
        <ele>569.72</ele>
        <time>2021-11-21T14:31:24Z</time>
      </trkpt>
      <trkpt lat="45.02121" lon="5.2093">
        <ele>569.72</ele>
        <time>2021-11-21T14:31:25Z</time>
      </trkpt>
      <trkpt lat="45.02125" lon="5.20924">
        <ele>566.83</ele>
        <time>2021-11-21T14:31:33Z</time>
      </trkpt>
      <trkpt lat="45.0213" lon="5.20921">
        <ele>562.99</ele>
        <time>2021-11-21T14:31:43Z</time>
      </trkpt>
      <trkpt lat="45.02138" lon="5.20912">
        <ele>559.62</ele>
        <time>2021-11-21T14:31:54Z</time>
      </trkpt>
      <trkpt lat="45.02144" lon="5.20908">
        <ele>556.74</ele>
        <time>2021-11-21T14:32:03Z</time>
      </trkpt>
      <trkpt lat="45.02145" lon="5.20906">
        <ele>555.3</ele>
        <time>2021-11-21T14:32:07Z</time>
      </trkpt>
      <trkpt lat="45.0215" lon="5.20903">
        <ele>551.93</ele>
        <time>2021-11-21T14:32:15Z</time>
      </trkpt>
      <trkpt lat="45.02151" lon="5.20892">
        <ele>549.05</ele>
        <time>2021-11-21T14:32:25Z</time>
      </trkpt>
      <trkpt lat="45.02153" lon="5.20886">
        <ele>545.69</ele>
        <time>2021-11-21T14:32:34Z</time>
      </trkpt>
      <trkpt lat="45.02157" lon="5.20876">
        <ele>542.32</ele>
        <time>2021-11-21T14:32:44Z</time>
      </trkpt>
      <trkpt lat="45.02165" lon="5.20866">
        <ele>538.96</ele>
        <time>2021-11-21T14:32:55Z</time>
      </trkpt>
      <trkpt lat="45.02171" lon="5.20861">
        <ele>535.59</ele>
        <time>2021-11-21T14:33:05Z</time>
      </trkpt>
      <trkpt lat="45.0218" lon="5.20852">
        <ele>532.23</ele>
        <time>2021-11-21T14:33:19Z</time>
      </trkpt>
      <trkpt lat="45.02182" lon="5.20848">
        <ele>531.27</ele>
        <time>2021-11-21T14:33:22Z</time>
      </trkpt>
      <trkpt lat="45.02187" lon="5.20834">
        <ele>527.9</ele>
        <time>2021-11-21T14:33:31Z</time>
      </trkpt>
      <trkpt lat="45.02186" lon="5.20813">
        <ele>524.54</ele>
        <time>2021-11-21T14:33:46Z</time>
      </trkpt>
      <trkpt lat="45.02186" lon="5.20793">
        <ele>521.17</ele>
        <time>2021-11-21T14:33:57Z</time>
      </trkpt>
      <trkpt lat="45.02186" lon="5.2079">
        <ele>520.21</ele>
        <time>2021-11-21T14:33:59Z</time>
      </trkpt>
      <trkpt lat="45.0219" lon="5.20764">
        <ele>516.37</ele>
        <time>2021-11-21T14:34:14Z</time>
      </trkpt>
      <trkpt lat="45.02196" lon="5.20751">
        <ele>514.44</ele>
        <time>2021-11-21T14:34:21Z</time>
      </trkpt>
      <trkpt lat="45.02206" lon="5.20734">
        <ele>510.6</ele>
        <time>2021-11-21T14:34:34Z</time>
      </trkpt>
      <trkpt lat="45.02209" lon="5.20726">
        <ele>509.64</ele>
        <time>2021-11-21T14:34:39Z</time>
      </trkpt>
      <trkpt lat="45.0222" lon="5.20719">
        <ele>505.79</ele>
        <time>2021-11-21T14:34:52Z</time>
      </trkpt>
      <trkpt lat="45.02231" lon="5.20724">
        <ele>504.35</ele>
        <time>2021-11-21T14:35:06Z</time>
      </trkpt>
      <trkpt lat="45.0224" lon="5.20728">
        <ele>502.91</ele>
        <time>2021-11-21T14:35:18Z</time>
      </trkpt>
      <trkpt lat="45.02252" lon="5.2072">
        <ele>502.91</ele>
        <time>2021-11-21T14:35:30Z</time>
      </trkpt>
      <trkpt lat="45.02264" lon="5.20711">
        <ele>502.43</ele>
        <time>2021-11-21T14:35:43Z</time>
      </trkpt>
      <trkpt lat="45.02276" lon="5.20695">
        <ele>501.95</ele>
        <time>2021-11-21T14:35:57Z</time>
      </trkpt>
      <trkpt lat="45.02297" lon="5.2068">
        <ele>500.5</ele>
        <time>2021-11-21T14:36:11Z</time>
      </trkpt>
      <trkpt lat="45.02311" lon="5.20668">
        <ele>499.54</ele>
        <time>2021-11-21T14:36:23Z</time>
      </trkpt>
      <trkpt lat="45.02328" lon="5.20647">
        <ele>497.62</ele>
        <time>2021-11-21T14:36:39Z</time>
      </trkpt>
      <trkpt lat="45.02329" lon="5.20646">
        <ele>497.14</ele>
        <time>2021-11-21T14:36:41Z</time>
      </trkpt>
      <trkpt lat="45.02334" lon="5.20641">
        <ele>496.66</ele>
        <time>2021-11-21T14:36:45Z</time>
      </trkpt>
      <trkpt lat="45.02347" lon="5.20629">
        <ele>495.22</ele>
        <time>2021-11-21T14:37:00Z</time>
      </trkpt>
      <trkpt lat="45.02355" lon="5.20629">
        <ele>494.74</ele>
        <time>2021-11-21T14:37:18Z</time>
      </trkpt>
      <trkpt lat="45.02358" lon="5.2063">
        <ele>494.74</ele>
        <time>2021-11-21T14:37:39Z</time>
      </trkpt>
      <trkpt lat="45.0236" lon="5.20627">
        <ele>494.74</ele>
        <time>2021-11-21T14:38:02Z</time>
      </trkpt>
      <trkpt lat="45.02363" lon="5.20627">
        <ele>495.22</ele>
        <time>2021-11-21T14:40:25Z</time>
      </trkpt>
      <trkpt lat="45.02366" lon="5.20624">
        <ele>495.22</ele>
        <time>2021-11-21T14:40:42Z</time>
      </trkpt>
      <trkpt lat="45.02376" lon="5.20622">
        <ele>492.33</ele>
        <time>2021-11-21T14:40:57Z</time>
      </trkpt>
      <trkpt lat="45.02386" lon="5.20624">
        <ele>488.97</ele>
        <time>2021-11-21T14:41:11Z</time>
      </trkpt>
      <trkpt lat="45.02401" lon="5.20625">
        <ele>486.08</ele>
        <time>2021-11-21T14:41:24Z</time>
      </trkpt>
      <trkpt lat="45.02407" lon="5.20626">
        <ele>484.64</ele>
        <time>2021-11-21T14:41:39Z</time>
      </trkpt>
      <trkpt lat="45.02417" lon="5.20624">
        <ele>482.24</ele>
        <time>2021-11-21T14:41:52Z</time>
      </trkpt>
      <trkpt lat="45.02431" lon="5.20626">
        <ele>478.87</ele>
        <time>2021-11-21T14:42:08Z</time>
      </trkpt>
      <trkpt lat="45.02443" lon="5.20627">
        <ele>475.99</ele>
        <time>2021-11-21T14:42:25Z</time>
      </trkpt>
      <trkpt lat="45.02453" lon="5.20629">
        <ele>473.11</ele>
        <time>2021-11-21T14:42:41Z</time>
      </trkpt>
      <trkpt lat="45.02467" lon="5.20628">
        <ele>469.74</ele>
        <time>2021-11-21T14:42:55Z</time>
      </trkpt>
      <trkpt lat="45.02483" lon="5.20632">
        <ele>466.38</ele>
        <time>2021-11-21T14:43:10Z</time>
      </trkpt>
      <trkpt lat="45.02484" lon="5.20625">
        <ele>463.01</ele>
        <time>2021-11-21T14:43:22Z</time>
      </trkpt>
      <trkpt lat="45.02476" lon="5.20614">
        <ele>460.13</ele>
        <time>2021-11-21T14:43:34Z</time>
      </trkpt>
      <trkpt lat="45.02473" lon="5.20611">
        <ele>458.69</ele>
        <time>2021-11-21T14:43:38Z</time>
      </trkpt>
      <trkpt lat="45.0247" lon="5.20609">
        <ele>458.21</ele>
        <time>2021-11-21T14:43:40Z</time>
      </trkpt>
      <trkpt lat="45.0246" lon="5.20592">
        <ele>454.84</ele>
        <time>2021-11-21T14:43:54Z</time>
      </trkpt>
      <trkpt lat="45.02448" lon="5.20581">
        <ele>451.48</ele>
        <time>2021-11-21T14:44:08Z</time>
      </trkpt>
      <trkpt lat="45.02439" lon="5.20571">
        <ele>448.59</ele>
        <time>2021-11-21T14:44:19Z</time>
      </trkpt>
      <trkpt lat="45.02428" lon="5.20554">
        <ele>445.23</ele>
        <time>2021-11-21T14:44:33Z</time>
      </trkpt>
      <trkpt lat="45.02416" lon="5.20544">
        <ele>442.34</ele>
        <time>2021-11-21T14:44:46Z</time>
      </trkpt>
      <trkpt lat="45.02403" lon="5.2054">
        <ele>438.98</ele>
        <time>2021-11-21T14:45:01Z</time>
      </trkpt>
      <trkpt lat="45.02392" lon="5.20538">
        <ele>436.1</ele>
        <time>2021-11-21T14:45:13Z</time>
      </trkpt>
      <trkpt lat="45.02378" lon="5.20531">
        <ele>432.73</ele>
        <time>2021-11-21T14:45:27Z</time>
      </trkpt>
      <trkpt lat="45.02366" lon="5.20523">
        <ele>429.85</ele>
        <time>2021-11-21T14:45:40Z</time>
      </trkpt>
      <trkpt lat="45.02355" lon="5.20514">
        <ele>426.96</ele>
        <time>2021-11-21T14:45:51Z</time>
      </trkpt>
      <trkpt lat="45.02346" lon="5.20503">
        <ele>423.6</ele>
        <time>2021-11-21T14:46:02Z</time>
      </trkpt>
      <trkpt lat="45.02336" lon="5.2049">
        <ele>420.23</ele>
        <time>2021-11-21T14:46:14Z</time>
      </trkpt>
      <trkpt lat="45.02329" lon="5.20473">
        <ele>417.35</ele>
        <time>2021-11-21T14:46:26Z</time>
      </trkpt>
      <trkpt lat="45.02316" lon="5.20463">
        <ele>413.98</ele>
        <time>2021-11-21T14:46:40Z</time>
      </trkpt>
      <trkpt lat="45.02313" lon="5.20451">
        <ele>411.1</ele>
        <time>2021-11-21T14:46:54Z</time>
      </trkpt>
      <trkpt lat="45.02318" lon="5.20452">
        <ele>408.22</ele>
        <time>2021-11-21T14:47:09Z</time>
      </trkpt>
      <trkpt lat="45.02332" lon="5.20452">
        <ele>405.33</ele>
        <time>2021-11-21T14:47:25Z</time>
      </trkpt>
      <trkpt lat="45.02338" lon="5.20451">
        <ele>402.45</ele>
        <time>2021-11-21T14:47:36Z</time>
      </trkpt>
      <trkpt lat="45.0235" lon="5.20455">
        <ele>399.08</ele>
        <time>2021-11-21T14:47:47Z</time>
      </trkpt>
      <trkpt lat="45.02361" lon="5.20453">
        <ele>396.2</ele>
        <time>2021-11-21T14:47:59Z</time>
      </trkpt>
      <trkpt lat="45.02372" lon="5.20454">
        <ele>393.32</ele>
        <time>2021-11-21T14:48:09Z</time>
      </trkpt>
      <trkpt lat="45.02393" lon="5.20455">
        <ele>389.47</ele>
        <time>2021-11-21T14:48:23Z</time>
      </trkpt>
      <trkpt lat="45.02409" lon="5.20456">
        <ele>386.59</ele>
        <time>2021-11-21T14:48:36Z</time>
      </trkpt>
      <trkpt lat="45.02423" lon="5.20459">
        <ele>383.22</ele>
        <time>2021-11-21T14:48:49Z</time>
      </trkpt>
      <trkpt lat="45.02434" lon="5.20457">
        <ele>379.86</ele>
        <time>2021-11-21T14:49:02Z</time>
      </trkpt>
      <trkpt lat="45.02448" lon="5.20458">
        <ele>376.49</ele>
        <time>2021-11-21T14:49:13Z</time>
      </trkpt>
      <trkpt lat="45.02455" lon="5.20459">
        <ele>373.61</ele>
        <time>2021-11-21T14:49:25Z</time>
      </trkpt>
      <trkpt lat="45.02463" lon="5.20459">
        <ele>370.24</ele>
        <time>2021-11-21T14:49:36Z</time>
      </trkpt>
      <trkpt lat="45.02464" lon="5.20451">
        <ele>366.4</ele>
        <time>2021-11-21T14:49:49Z</time>
      </trkpt>
      <trkpt lat="45.02465" lon="5.20434">
        <ele>363.04</ele>
        <time>2021-11-21T14:50:02Z</time>
      </trkpt>
      <trkpt lat="45.02456" lon="5.2042">
        <ele>359.67</ele>
        <time>2021-11-21T14:50:16Z</time>
      </trkpt>
      <trkpt lat="45.02447" lon="5.20406">
        <ele>356.31</ele>
        <time>2021-11-21T14:50:28Z</time>
      </trkpt>
      <trkpt lat="45.02438" lon="5.20391">
        <ele>353.42</ele>
        <time>2021-11-21T14:50:40Z</time>
      </trkpt>
      <trkpt lat="45.02433" lon="5.20385">
        <ele>352.94</ele>
        <time>2021-11-21T14:50:57Z</time>
      </trkpt>
      <trkpt lat="45.02433" lon="5.20377">
        <ele>352.46</ele>
        <time>2021-11-21T14:51:19Z</time>
      </trkpt>
      <trkpt lat="45.02434" lon="5.20376">
        <ele>351.98</ele>
        <time>2021-11-21T14:52:45Z</time>
      </trkpt>
      <trkpt lat="45.02439" lon="5.20365">
        <ele>349.58</ele>
        <time>2021-11-21T14:53:04Z</time>
      </trkpt>
      <trkpt lat="45.02444" lon="5.20358">
        <ele>346.21</ele>
        <time>2021-11-21T14:53:18Z</time>
      </trkpt>
      <trkpt lat="45.0245" lon="5.20349">
        <ele>342.85</ele>
        <time>2021-11-21T14:53:29Z</time>
      </trkpt>
      <trkpt lat="45.02456" lon="5.2034">
        <ele>339</ele>
        <time>2021-11-21T14:53:40Z</time>
      </trkpt>
      <trkpt lat="45.02461" lon="5.20333">
        <ele>335.64</ele>
        <time>2021-11-21T14:53:51Z</time>
      </trkpt>
      <trkpt lat="45.02462" lon="5.20332">
        <ele>335.16</ele>
        <time>2021-11-21T14:53:53Z</time>
      </trkpt>
      <trkpt lat="45.02468" lon="5.20328">
        <ele>331.79</ele>
        <time>2021-11-21T14:54:01Z</time>
      </trkpt>
      <trkpt lat="45.02471" lon="5.20326">
        <ele>329.87</ele>
        <time>2021-11-21T14:54:06Z</time>
      </trkpt>
      <trkpt lat="45.02477" lon="5.20321">
        <ele>326.99</ele>
        <time>2021-11-21T14:54:16Z</time>
      </trkpt>
      <trkpt lat="45.02485" lon="5.20317">
        <ele>323.14</ele>
        <time>2021-11-21T14:54:29Z</time>
      </trkpt>
      <trkpt lat="45.02489" lon="5.20316">
        <ele>322.66</ele>
        <time>2021-11-21T14:54:33Z</time>
      </trkpt>
      <trkpt lat="45.02504" lon="5.20322">
        <ele>321.7</ele>
        <time>2021-11-21T14:54:45Z</time>
      </trkpt>
      <trkpt lat="45.02513" lon="5.20311">
        <ele>321.7</ele>
        <time>2021-11-21T14:54:58Z</time>
      </trkpt>
      <trkpt lat="45.02514" lon="5.20308">
        <ele>321.7</ele>
        <time>2021-11-21T14:55:16Z</time>
      </trkpt>
      <trkpt lat="45.02515" lon="5.203">
        <ele>320.26</ele>
        <time>2021-11-21T14:55:30Z</time>
      </trkpt>
      <trkpt lat="45.0251" lon="5.20291">
        <ele>316.89</ele>
        <time>2021-11-21T14:55:41Z</time>
      </trkpt>
      <trkpt lat="45.02512" lon="5.20282">
        <ele>313.53</ele>
        <time>2021-11-21T14:55:53Z</time>
      </trkpt>
      <trkpt lat="45.02515" lon="5.20279">
        <ele>310.16</ele>
        <time>2021-11-21T14:56:03Z</time>
      </trkpt>
      <trkpt lat="45.02516" lon="5.20278">
        <ele>310.16</ele>
        <time>2021-11-21T14:56:04Z</time>
      </trkpt>
      <trkpt lat="45.0252" lon="5.20276">
        <ele>307.28</ele>
        <time>2021-11-21T14:56:13Z</time>
      </trkpt>
      <trkpt lat="45.02527" lon="5.2027">
        <ele>303.91</ele>
        <time>2021-11-21T14:56:23Z</time>
      </trkpt>
      <trkpt lat="45.02531" lon="5.20266">
        <ele>301.99</ele>
        <time>2021-11-21T14:56:26Z</time>
      </trkpt>
      <trkpt lat="45.0254" lon="5.20257">
        <ele>298.63</ele>
        <time>2021-11-21T14:56:36Z</time>
      </trkpt>
      <trkpt lat="45.02552" lon="5.20245">
        <ele>296.22</ele>
        <time>2021-11-21T14:56:51Z</time>
      </trkpt>
      <trkpt lat="45.02561" lon="5.20229">
        <ele>292.38</ele>
        <time>2021-11-21T14:57:04Z</time>
      </trkpt>
      <trkpt lat="45.0257" lon="5.20212">
        <ele>289.49</ele>
        <time>2021-11-21T14:57:16Z</time>
      </trkpt>
      <trkpt lat="45.02584" lon="5.20196">
        <ele>286.13</ele>
        <time>2021-11-21T14:57:31Z</time>
      </trkpt>
      <trkpt lat="45.02603" lon="5.20183">
        <ele>283.25</ele>
        <time>2021-11-21T14:57:44Z</time>
      </trkpt>
      <trkpt lat="45.02623" lon="5.20177">
        <ele>280.36</ele>
        <time>2021-11-21T14:58:01Z</time>
      </trkpt>
      <trkpt lat="45.02638" lon="5.20168">
        <ele>277.96</ele>
        <time>2021-11-21T14:58:16Z</time>
      </trkpt>
      <trkpt lat="45.02655" lon="5.20161">
        <ele>275.07</ele>
        <time>2021-11-21T14:58:32Z</time>
      </trkpt>
      <trkpt lat="45.02675" lon="5.20153">
        <ele>272.19</ele>
        <time>2021-11-21T14:58:48Z</time>
      </trkpt>
      <trkpt lat="45.02697" lon="5.20148">
        <ele>269.79</ele>
        <time>2021-11-21T14:59:05Z</time>
      </trkpt>
      <trkpt lat="45.02711" lon="5.20142">
        <ele>266.42</ele>
        <time>2021-11-21T14:59:19Z</time>
      </trkpt>
      <trkpt lat="45.02723" lon="5.20135">
        <ele>264.5</ele>
        <time>2021-11-21T14:59:32Z</time>
      </trkpt>
      <trkpt lat="45.02729" lon="5.20129">
        <ele>263.06</ele>
        <time>2021-11-21T14:59:39Z</time>
      </trkpt>
      <trkpt lat="45.02732" lon="5.20124">
        <ele>262.58</ele>
        <time>2021-11-21T14:59:42Z</time>
      </trkpt>
      <trkpt lat="45.0275" lon="5.20093">
        <ele>260.17</ele>
        <time>2021-11-21T15:00:02Z</time>
      </trkpt>
      <trkpt lat="45.02766" lon="5.20068">
        <ele>257.77</ele>
        <time>2021-11-21T15:00:20Z</time>
      </trkpt>
      <trkpt lat="45.02769" lon="5.20061">
        <ele>257.29</ele>
        <time>2021-11-21T15:00:24Z</time>
      </trkpt>
      <trkpt lat="45.02784" lon="5.20035">
        <ele>255.85</ele>
        <time>2021-11-21T15:00:41Z</time>
      </trkpt>
      <trkpt lat="45.028" lon="5.20025">
        <ele>255.37</ele>
        <time>2021-11-21T15:00:57Z</time>
      </trkpt>
    </trkseg>
  </trk>
</gpx>